<?xml version="1.0" encoding="UTF-8"?>
<gpx creator="Wikiloc - http://www.wikiloc.com" version="1.1" xmlns="http://www.topografix.com/GPX/1/1" xmlns:xsi="http://www.w3.org/2001/XMLSchema-instance" xsi:schemaLocation="http://www.topografix.com/GPX/1/1 http://www.topografix.com/GPX/1/1/gpx.xsd">
  <trk>
    <name>3ª Marxa BTT Esparreguera</name>
    <cmt>Una ruta no muy larga, MUY divertida para aquelos a los que les gusten los senderos, eso sí, con bastante exigencia técnica, y auqnue no sea díficil, hay que haber rodado un poco sobre la bici!!!! (De ahí la dificultad técnica como "Difícil")</cmt>
    <desc>Una ruta no muy larga, MUY divertida para aquelos a los que les gusten los senderos, eso sí, con bastante exigencia técnica, y auqnue no sea díficil, hay que haber rodado un poco sobre la bici!!!! (De ahí la dificultad técnica como "Difícil")</desc>
    <trkseg>
      <trkpt lat="41.536538" lon="1.872910">
        <ele>0.0</ele>
        <time>2014-10-12T06:56:50Z</time>
      </trkpt>
      <trkpt lat="41.536538" lon="1.872910">
        <ele>245.5</ele>
        <time>2014-10-12T06:56:51Z</time>
      </trkpt>
      <trkpt lat="41.536800" lon="1.872780">
        <ele>242.0</ele>
        <time>2014-10-12T07:00:09Z</time>
      </trkpt>
      <trkpt lat="41.536886" lon="1.872740">
        <ele>241.2</ele>
        <time>2014-10-12T07:00:15Z</time>
      </trkpt>
      <trkpt lat="41.537088" lon="1.872616">
        <ele>240.8</ele>
        <time>2014-10-12T07:00:21Z</time>
      </trkpt>
      <trkpt lat="41.537200" lon="1.872577">
        <ele>240.5</ele>
        <time>2014-10-12T07:00:26Z</time>
      </trkpt>
      <trkpt lat="41.537267" lon="1.872858">
        <ele>241.4</ele>
        <time>2014-10-12T07:00:38Z</time>
      </trkpt>
      <trkpt lat="41.537121" lon="1.873127">
        <ele>240.7</ele>
        <time>2014-10-12T07:00:44Z</time>
      </trkpt>
      <trkpt lat="41.537042" lon="1.873618">
        <ele>236.4</ele>
        <time>2014-10-12T07:00:50Z</time>
      </trkpt>
      <trkpt lat="41.536966" lon="1.874064">
        <ele>234.3</ele>
        <time>2014-10-12T07:00:55Z</time>
      </trkpt>
      <trkpt lat="41.536882" lon="1.874528">
        <ele>232.0</ele>
        <time>2014-10-12T07:01:02Z</time>
      </trkpt>
      <trkpt lat="41.536780" lon="1.874860">
        <ele>231.1</ele>
        <time>2014-10-12T07:01:08Z</time>
      </trkpt>
      <trkpt lat="41.536618" lon="1.875140">
        <ele>231.5</ele>
        <time>2014-10-12T07:01:14Z</time>
      </trkpt>
      <trkpt lat="41.536414" lon="1.875228">
        <ele>233.4</ele>
        <time>2014-10-12T07:01:20Z</time>
      </trkpt>
      <trkpt lat="41.536178" lon="1.874811">
        <ele>235.4</ele>
        <time>2014-10-12T07:01:25Z</time>
      </trkpt>
      <trkpt lat="41.535753" lon="1.874414">
        <ele>231.4</ele>
        <time>2014-10-12T07:01:31Z</time>
      </trkpt>
      <trkpt lat="41.535173" lon="1.874351">
        <ele>226.7</ele>
        <time>2014-10-12T07:01:37Z</time>
      </trkpt>
      <trkpt lat="41.534740" lon="1.874178">
        <ele>222.7</ele>
        <time>2014-10-12T07:01:42Z</time>
      </trkpt>
      <trkpt lat="41.534341" lon="1.873730">
        <ele>218.3</ele>
        <time>2014-10-12T07:01:47Z</time>
      </trkpt>
      <trkpt lat="41.534082" lon="1.873451">
        <ele>217.5</ele>
        <time>2014-10-12T07:01:50Z</time>
      </trkpt>
      <trkpt lat="41.533636" lon="1.872882">
        <ele>215.8</ele>
        <time>2014-10-12T07:01:56Z</time>
      </trkpt>
      <trkpt lat="41.533652" lon="1.872557">
        <ele>212.8</ele>
        <time>2014-10-12T07:02:01Z</time>
      </trkpt>
      <trkpt lat="41.533877" lon="1.872288">
        <ele>209.7</ele>
        <time>2014-10-12T07:02:06Z</time>
      </trkpt>
      <trkpt lat="41.534069" lon="1.872037">
        <ele>207.4</ele>
        <time>2014-10-12T07:02:11Z</time>
      </trkpt>
      <trkpt lat="41.534264" lon="1.871741">
        <ele>204.1</ele>
        <time>2014-10-12T07:02:17Z</time>
      </trkpt>
      <trkpt lat="41.534493" lon="1.871382">
        <ele>203.3</ele>
        <time>2014-10-12T07:02:24Z</time>
      </trkpt>
      <trkpt lat="41.534687" lon="1.871055">
        <ele>206.6</ele>
        <time>2014-10-12T07:02:30Z</time>
      </trkpt>
      <trkpt lat="41.534818" lon="1.870857">
        <ele>207.0</ele>
        <time>2014-10-12T07:02:34Z</time>
      </trkpt>
      <trkpt lat="41.535012" lon="1.870568">
        <ele>203.8</ele>
        <time>2014-10-12T07:02:40Z</time>
      </trkpt>
      <trkpt lat="41.535226" lon="1.870231">
        <ele>202.5</ele>
        <time>2014-10-12T07:02:46Z</time>
      </trkpt>
      <trkpt lat="41.535407" lon="1.869976">
        <ele>206.1</ele>
        <time>2014-10-12T07:02:51Z</time>
      </trkpt>
      <trkpt lat="41.535530" lon="1.869829">
        <ele>208.0</ele>
        <time>2014-10-12T07:02:54Z</time>
      </trkpt>
      <trkpt lat="41.535734" lon="1.869574">
        <ele>210.1</ele>
        <time>2014-10-12T07:02:59Z</time>
      </trkpt>
      <trkpt lat="41.535929" lon="1.869305">
        <ele>214.1</ele>
        <time>2014-10-12T07:03:04Z</time>
      </trkpt>
      <trkpt lat="41.536043" lon="1.869137">
        <ele>216.4</ele>
        <time>2014-10-12T07:03:07Z</time>
      </trkpt>
      <trkpt lat="41.536130" lon="1.868998">
        <ele>217.1</ele>
        <time>2014-10-12T07:03:10Z</time>
      </trkpt>
      <trkpt lat="41.536313" lon="1.868794">
        <ele>217.5</ele>
        <time>2014-10-12T07:03:15Z</time>
      </trkpt>
      <trkpt lat="41.536562" lon="1.868552">
        <ele>227.0</ele>
        <time>2014-10-12T07:03:21Z</time>
      </trkpt>
      <trkpt lat="41.536828" lon="1.868361">
        <ele>227.6</ele>
        <time>2014-10-12T07:03:27Z</time>
      </trkpt>
      <trkpt lat="41.537105" lon="1.868174">
        <ele>227.2</ele>
        <time>2014-10-12T07:03:33Z</time>
      </trkpt>
      <trkpt lat="41.537297" lon="1.868058">
        <ele>226.3</ele>
        <time>2014-10-12T07:03:38Z</time>
      </trkpt>
      <trkpt lat="41.537506" lon="1.867913">
        <ele>226.1</ele>
        <time>2014-10-12T07:03:43Z</time>
      </trkpt>
      <trkpt lat="41.537650" lon="1.867816">
        <ele>224.3</ele>
        <time>2014-10-12T07:03:48Z</time>
      </trkpt>
      <trkpt lat="41.537908" lon="1.867634">
        <ele>222.1</ele>
        <time>2014-10-12T07:03:55Z</time>
      </trkpt>
      <trkpt lat="41.538102" lon="1.867503">
        <ele>226.9</ele>
        <time>2014-10-12T07:04:00Z</time>
      </trkpt>
      <trkpt lat="41.538285" lon="1.867369">
        <ele>228.8</ele>
        <time>2014-10-12T07:04:06Z</time>
      </trkpt>
      <trkpt lat="41.538492" lon="1.867217">
        <ele>231.1</ele>
        <time>2014-10-12T07:04:11Z</time>
      </trkpt>
      <trkpt lat="41.538722" lon="1.867077">
        <ele>230.7</ele>
        <time>2014-10-12T07:04:17Z</time>
      </trkpt>
      <trkpt lat="41.538942" lon="1.866933">
        <ele>228.3</ele>
        <time>2014-10-12T07:04:23Z</time>
      </trkpt>
      <trkpt lat="41.539121" lon="1.866802">
        <ele>227.4</ele>
        <time>2014-10-12T07:04:28Z</time>
      </trkpt>
      <trkpt lat="41.539393" lon="1.866621">
        <ele>228.2</ele>
        <time>2014-10-12T07:04:35Z</time>
      </trkpt>
      <trkpt lat="41.539569" lon="1.866505">
        <ele>227.0</ele>
        <time>2014-10-12T07:04:40Z</time>
      </trkpt>
      <trkpt lat="41.539762" lon="1.866360">
        <ele>227.0</ele>
        <time>2014-10-12T07:04:46Z</time>
      </trkpt>
      <trkpt lat="41.539878" lon="1.866038">
        <ele>234.7</ele>
        <time>2014-10-12T07:04:53Z</time>
      </trkpt>
      <trkpt lat="41.539821" lon="1.865780">
        <ele>237.9</ele>
        <time>2014-10-12T07:04:58Z</time>
      </trkpt>
      <trkpt lat="41.539662" lon="1.865398">
        <ele>234.0</ele>
        <time>2014-10-12T07:05:03Z</time>
      </trkpt>
      <trkpt lat="41.539580" lon="1.865198">
        <ele>231.6</ele>
        <time>2014-10-12T07:05:07Z</time>
      </trkpt>
      <trkpt lat="41.539430" lon="1.864860">
        <ele>231.2</ele>
        <time>2014-10-12T07:05:12Z</time>
      </trkpt>
      <trkpt lat="41.539247" lon="1.864487">
        <ele>233.8</ele>
        <time>2014-10-12T07:05:17Z</time>
      </trkpt>
      <trkpt lat="41.539103" lon="1.864052">
        <ele>234.2</ele>
        <time>2014-10-12T07:05:22Z</time>
      </trkpt>
      <trkpt lat="41.539110" lon="1.863787">
        <ele>233.0</ele>
        <time>2014-10-12T07:05:25Z</time>
      </trkpt>
      <trkpt lat="41.539194" lon="1.863321">
        <ele>231.6</ele>
        <time>2014-10-12T07:05:32Z</time>
      </trkpt>
      <trkpt lat="41.539261" lon="1.862967">
        <ele>231.0</ele>
        <time>2014-10-12T07:05:37Z</time>
      </trkpt>
      <trkpt lat="41.539306" lon="1.862636">
        <ele>230.1</ele>
        <time>2014-10-12T07:05:44Z</time>
      </trkpt>
      <trkpt lat="41.539365" lon="1.862248">
        <ele>231.6</ele>
        <time>2014-10-12T07:05:51Z</time>
      </trkpt>
      <trkpt lat="41.539506" lon="1.862012">
        <ele>233.9</ele>
        <time>2014-10-12T07:05:57Z</time>
      </trkpt>
      <trkpt lat="41.539752" lon="1.861754">
        <ele>239.3</ele>
        <time>2014-10-12T07:06:05Z</time>
      </trkpt>
      <trkpt lat="41.539953" lon="1.861567">
        <ele>241.6</ele>
        <time>2014-10-12T07:06:10Z</time>
      </trkpt>
      <trkpt lat="41.540150" lon="1.861376">
        <ele>243.2</ele>
        <time>2014-10-12T07:06:16Z</time>
      </trkpt>
      <trkpt lat="41.540342" lon="1.861106">
        <ele>242.8</ele>
        <time>2014-10-12T07:06:23Z</time>
      </trkpt>
      <trkpt lat="41.540488" lon="1.860897">
        <ele>243.1</ele>
        <time>2014-10-12T07:06:30Z</time>
      </trkpt>
      <trkpt lat="41.540670" lon="1.860754">
        <ele>244.9</ele>
        <time>2014-10-12T07:06:34Z</time>
      </trkpt>
      <trkpt lat="41.540799" lon="1.860690">
        <ele>244.6</ele>
        <time>2014-10-12T07:06:38Z</time>
      </trkpt>
      <trkpt lat="41.541042" lon="1.860495">
        <ele>243.4</ele>
        <time>2014-10-12T07:06:43Z</time>
      </trkpt>
      <trkpt lat="41.541214" lon="1.860335">
        <ele>243.0</ele>
        <time>2014-10-12T07:06:49Z</time>
      </trkpt>
      <trkpt lat="41.541417" lon="1.860156">
        <ele>238.5</ele>
        <time>2014-10-12T07:06:54Z</time>
      </trkpt>
      <trkpt lat="41.541628" lon="1.859961">
        <ele>235.8</ele>
        <time>2014-10-12T07:07:01Z</time>
      </trkpt>
      <trkpt lat="41.541834" lon="1.859770">
        <ele>233.5</ele>
        <time>2014-10-12T07:07:06Z</time>
      </trkpt>
      <trkpt lat="41.541981" lon="1.859686">
        <ele>232.9</ele>
        <time>2014-10-12T07:07:11Z</time>
      </trkpt>
      <trkpt lat="41.542192" lon="1.859897">
        <ele>231.8</ele>
        <time>2014-10-12T07:07:16Z</time>
      </trkpt>
      <trkpt lat="41.542332" lon="1.860085">
        <ele>232.0</ele>
        <time>2014-10-12T07:07:22Z</time>
      </trkpt>
      <trkpt lat="41.542548" lon="1.860364">
        <ele>237.3</ele>
        <time>2014-10-12T07:07:28Z</time>
      </trkpt>
      <trkpt lat="41.542764" lon="1.860467">
        <ele>238.6</ele>
        <time>2014-10-12T07:07:35Z</time>
      </trkpt>
      <trkpt lat="41.542795" lon="1.860153">
        <ele>238.6</ele>
        <time>2014-10-12T07:07:41Z</time>
      </trkpt>
      <trkpt lat="41.542816" lon="1.859883">
        <ele>236.2</ele>
        <time>2014-10-12T07:07:46Z</time>
      </trkpt>
      <trkpt lat="41.542908" lon="1.859629">
        <ele>235.0</ele>
        <time>2014-10-12T07:07:52Z</time>
      </trkpt>
      <trkpt lat="41.543041" lon="1.859309">
        <ele>236.1</ele>
        <time>2014-10-12T07:08:01Z</time>
      </trkpt>
      <trkpt lat="41.543173" lon="1.859077">
        <ele>236.9</ele>
        <time>2014-10-12T07:08:09Z</time>
      </trkpt>
      <trkpt lat="41.543337" lon="1.858722">
        <ele>237.0</ele>
        <time>2014-10-12T07:08:17Z</time>
      </trkpt>
      <trkpt lat="41.543463" lon="1.858426">
        <ele>236.6</ele>
        <time>2014-10-12T07:08:24Z</time>
      </trkpt>
      <trkpt lat="41.543582" lon="1.858131">
        <ele>237.1</ele>
        <time>2014-10-12T07:08:32Z</time>
      </trkpt>
      <trkpt lat="41.543628" lon="1.858040">
        <ele>237.4</ele>
        <time>2014-10-12T07:08:34Z</time>
      </trkpt>
      <trkpt lat="41.543732" lon="1.857895">
        <ele>240.7</ele>
        <time>2014-10-12T07:08:44Z</time>
      </trkpt>
      <trkpt lat="41.543916" lon="1.857759">
        <ele>245.1</ele>
        <time>2014-10-12T07:08:51Z</time>
      </trkpt>
      <trkpt lat="41.544075" lon="1.857456">
        <ele>246.7</ele>
        <time>2014-10-12T07:08:58Z</time>
      </trkpt>
      <trkpt lat="41.544218" lon="1.857252">
        <ele>248.1</ele>
        <time>2014-10-12T07:09:05Z</time>
      </trkpt>
      <trkpt lat="41.544435" lon="1.856910">
        <ele>249.7</ele>
        <time>2014-10-12T07:09:13Z</time>
      </trkpt>
      <trkpt lat="41.544525" lon="1.856677">
        <ele>249.4</ele>
        <time>2014-10-12T07:09:19Z</time>
      </trkpt>
      <trkpt lat="41.544530" lon="1.856402">
        <ele>249.2</ele>
        <time>2014-10-12T07:09:25Z</time>
      </trkpt>
      <trkpt lat="41.544514" lon="1.856246">
        <ele>249.6</ele>
        <time>2014-10-12T07:09:28Z</time>
      </trkpt>
      <trkpt lat="41.544478" lon="1.855987">
        <ele>252.1</ele>
        <time>2014-10-12T07:09:33Z</time>
      </trkpt>
      <trkpt lat="41.544445" lon="1.855686">
        <ele>254.9</ele>
        <time>2014-10-12T07:09:39Z</time>
      </trkpt>
      <trkpt lat="41.544437" lon="1.855529">
        <ele>258.2</ele>
        <time>2014-10-12T07:09:42Z</time>
      </trkpt>
      <trkpt lat="41.544433" lon="1.855376">
        <ele>259.8</ele>
        <time>2014-10-12T07:09:45Z</time>
      </trkpt>
      <trkpt lat="41.544423" lon="1.855248">
        <ele>259.9</ele>
        <time>2014-10-12T07:09:49Z</time>
      </trkpt>
      <trkpt lat="41.544451" lon="1.854971">
        <ele>260.7</ele>
        <time>2014-10-12T07:09:55Z</time>
      </trkpt>
      <trkpt lat="41.544390" lon="1.854681">
        <ele>261.7</ele>
        <time>2014-10-12T07:10:02Z</time>
      </trkpt>
      <trkpt lat="41.544272" lon="1.854400">
        <ele>264.1</ele>
        <time>2014-10-12T07:10:09Z</time>
      </trkpt>
      <trkpt lat="41.544130" lon="1.854083">
        <ele>261.2</ele>
        <time>2014-10-12T07:10:14Z</time>
      </trkpt>
      <trkpt lat="41.544368" lon="1.854121">
        <ele>257.6</ele>
        <time>2014-10-12T07:10:19Z</time>
      </trkpt>
      <trkpt lat="41.544555" lon="1.854067">
        <ele>260.0</ele>
        <time>2014-10-12T07:10:25Z</time>
      </trkpt>
      <trkpt lat="41.544822" lon="1.853780">
        <ele>266.4</ele>
        <time>2014-10-12T07:10:33Z</time>
      </trkpt>
      <trkpt lat="41.544919" lon="1.853701">
        <ele>266.8</ele>
        <time>2014-10-12T07:10:36Z</time>
      </trkpt>
      <trkpt lat="41.545081" lon="1.853534">
        <ele>268.9</ele>
        <time>2014-10-12T07:10:43Z</time>
      </trkpt>
      <trkpt lat="41.545311" lon="1.853300">
        <ele>270.1</ele>
        <time>2014-10-12T07:10:49Z</time>
      </trkpt>
      <trkpt lat="41.545498" lon="1.853074">
        <ele>270.1</ele>
        <time>2014-10-12T07:10:55Z</time>
      </trkpt>
      <trkpt lat="41.545595" lon="1.852920">
        <ele>269.2</ele>
        <time>2014-10-12T07:10:59Z</time>
      </trkpt>
      <trkpt lat="41.545754" lon="1.852675">
        <ele>270.0</ele>
        <time>2014-10-12T07:11:05Z</time>
      </trkpt>
      <trkpt lat="41.545928" lon="1.852465">
        <ele>273.6</ele>
        <time>2014-10-12T07:11:11Z</time>
      </trkpt>
      <trkpt lat="41.546130" lon="1.852257">
        <ele>276.7</ele>
        <time>2014-10-12T07:11:17Z</time>
      </trkpt>
      <trkpt lat="41.546334" lon="1.852113">
        <ele>274.3</ele>
        <time>2014-10-12T07:11:22Z</time>
      </trkpt>
      <trkpt lat="41.546500" lon="1.851917">
        <ele>271.9</ele>
        <time>2014-10-12T07:11:28Z</time>
      </trkpt>
      <trkpt lat="41.546633" lon="1.851639">
        <ele>268.7</ele>
        <time>2014-10-12T07:11:33Z</time>
      </trkpt>
      <trkpt lat="41.546716" lon="1.851403">
        <ele>266.9</ele>
        <time>2014-10-12T07:11:39Z</time>
      </trkpt>
      <trkpt lat="41.546816" lon="1.851137">
        <ele>266.8</ele>
        <time>2014-10-12T07:11:44Z</time>
      </trkpt>
      <trkpt lat="41.546936" lon="1.850860">
        <ele>269.7</ele>
        <time>2014-10-12T07:11:50Z</time>
      </trkpt>
      <trkpt lat="41.547028" lon="1.850710">
        <ele>269.9</ele>
        <time>2014-10-12T07:11:54Z</time>
      </trkpt>
      <trkpt lat="41.547127" lon="1.850574">
        <ele>269.7</ele>
        <time>2014-10-12T07:12:00Z</time>
      </trkpt>
      <trkpt lat="41.547196" lon="1.850409">
        <ele>269.7</ele>
        <time>2014-10-12T07:12:07Z</time>
      </trkpt>
      <trkpt lat="41.547331" lon="1.850203">
        <ele>270.1</ele>
        <time>2014-10-12T07:12:17Z</time>
      </trkpt>
      <trkpt lat="41.547469" lon="1.849937">
        <ele>271.0</ele>
        <time>2014-10-12T07:12:29Z</time>
      </trkpt>
      <trkpt lat="41.547574" lon="1.849737">
        <ele>271.6</ele>
        <time>2014-10-12T07:12:38Z</time>
      </trkpt>
      <trkpt lat="41.547704" lon="1.849548">
        <ele>272.3</ele>
        <time>2014-10-12T07:12:47Z</time>
      </trkpt>
      <trkpt lat="41.547805" lon="1.849398">
        <ele>273.5</ele>
        <time>2014-10-12T07:12:55Z</time>
      </trkpt>
      <trkpt lat="41.547910" lon="1.849236">
        <ele>275.3</ele>
        <time>2014-10-12T07:13:05Z</time>
      </trkpt>
      <trkpt lat="41.548039" lon="1.849034">
        <ele>277.3</ele>
        <time>2014-10-12T07:13:16Z</time>
      </trkpt>
      <trkpt lat="41.548184" lon="1.848843">
        <ele>279.2</ele>
        <time>2014-10-12T07:13:27Z</time>
      </trkpt>
      <trkpt lat="41.548338" lon="1.848610">
        <ele>281.1</ele>
        <time>2014-10-12T07:13:38Z</time>
      </trkpt>
      <trkpt lat="41.548447" lon="1.848432">
        <ele>282.4</ele>
        <time>2014-10-12T07:13:47Z</time>
      </trkpt>
      <trkpt lat="41.548526" lon="1.848259">
        <ele>283.0</ele>
        <time>2014-10-12T07:13:55Z</time>
      </trkpt>
      <trkpt lat="41.548615" lon="1.847986">
        <ele>284.4</ele>
        <time>2014-10-12T07:14:09Z</time>
      </trkpt>
      <trkpt lat="41.548686" lon="1.847788">
        <ele>286.4</ele>
        <time>2014-10-12T07:14:20Z</time>
      </trkpt>
      <trkpt lat="41.548883" lon="1.847477">
        <ele>288.0</ele>
        <time>2014-10-12T07:14:34Z</time>
      </trkpt>
      <trkpt lat="41.548902" lon="1.847242">
        <ele>290.1</ele>
        <time>2014-10-12T07:14:40Z</time>
      </trkpt>
      <trkpt lat="41.548905" lon="1.846983">
        <ele>292.3</ele>
        <time>2014-10-12T07:14:47Z</time>
      </trkpt>
      <trkpt lat="41.548940" lon="1.846549">
        <ele>295.6</ele>
        <time>2014-10-12T07:14:57Z</time>
      </trkpt>
      <trkpt lat="41.549021" lon="1.846112">
        <ele>310.3</ele>
        <time>2014-10-12T07:15:05Z</time>
      </trkpt>
      <trkpt lat="41.549219" lon="1.845720">
        <ele>307.5</ele>
        <time>2014-10-12T07:15:12Z</time>
      </trkpt>
      <trkpt lat="41.549410" lon="1.845445">
        <ele>303.0</ele>
        <time>2014-10-12T07:15:17Z</time>
      </trkpt>
      <trkpt lat="41.549531" lon="1.845265">
        <ele>300.8</ele>
        <time>2014-10-12T07:15:20Z</time>
      </trkpt>
      <trkpt lat="41.549738" lon="1.844903">
        <ele>297.3</ele>
        <time>2014-10-12T07:15:25Z</time>
      </trkpt>
      <trkpt lat="41.549951" lon="1.844464">
        <ele>294.0</ele>
        <time>2014-10-12T07:15:30Z</time>
      </trkpt>
      <trkpt lat="41.550289" lon="1.844049">
        <ele>292.5</ele>
        <time>2014-10-12T07:15:36Z</time>
      </trkpt>
      <trkpt lat="41.550691" lon="1.843742">
        <ele>298.1</ele>
        <time>2014-10-12T07:15:42Z</time>
      </trkpt>
      <trkpt lat="41.550987" lon="1.843488">
        <ele>300.9</ele>
        <time>2014-10-12T07:15:48Z</time>
      </trkpt>
      <trkpt lat="41.551292" lon="1.843211">
        <ele>303.7</ele>
        <time>2014-10-12T07:15:53Z</time>
      </trkpt>
      <trkpt lat="41.551656" lon="1.842907">
        <ele>305.2</ele>
        <time>2014-10-12T07:15:58Z</time>
      </trkpt>
      <trkpt lat="41.552004" lon="1.842631">
        <ele>300.4</ele>
        <time>2014-10-12T07:16:04Z</time>
      </trkpt>
      <trkpt lat="41.552258" lon="1.842394">
        <ele>299.5</ele>
        <time>2014-10-12T07:16:10Z</time>
      </trkpt>
      <trkpt lat="41.552484" lon="1.841958">
        <ele>293.9</ele>
        <time>2014-10-12T07:16:15Z</time>
      </trkpt>
      <trkpt lat="41.552680" lon="1.841639">
        <ele>290.6</ele>
        <time>2014-10-12T07:16:21Z</time>
      </trkpt>
      <trkpt lat="41.552849" lon="1.841345">
        <ele>292.9</ele>
        <time>2014-10-12T07:16:27Z</time>
      </trkpt>
      <trkpt lat="41.552927" lon="1.841219">
        <ele>295.1</ele>
        <time>2014-10-12T07:16:30Z</time>
      </trkpt>
      <trkpt lat="41.553022" lon="1.841081">
        <ele>296.8</ele>
        <time>2014-10-12T07:16:33Z</time>
      </trkpt>
      <trkpt lat="41.553144" lon="1.840900">
        <ele>297.9</ele>
        <time>2014-10-12T07:16:36Z</time>
      </trkpt>
      <trkpt lat="41.553253" lon="1.840719">
        <ele>297.8</ele>
        <time>2014-10-12T07:16:39Z</time>
      </trkpt>
      <trkpt lat="41.553350" lon="1.840557">
        <ele>297.4</ele>
        <time>2014-10-12T07:16:42Z</time>
      </trkpt>
      <trkpt lat="41.553493" lon="1.840307">
        <ele>300.3</ele>
        <time>2014-10-12T07:16:47Z</time>
      </trkpt>
      <trkpt lat="41.553632" lon="1.840032">
        <ele>302.3</ele>
        <time>2014-10-12T07:16:53Z</time>
      </trkpt>
      <trkpt lat="41.553786" lon="1.839763">
        <ele>302.7</ele>
        <time>2014-10-12T07:16:59Z</time>
      </trkpt>
      <trkpt lat="41.553893" lon="1.839488">
        <ele>306.4</ele>
        <time>2014-10-12T07:17:05Z</time>
      </trkpt>
      <trkpt lat="41.553949" lon="1.839217">
        <ele>307.6</ele>
        <time>2014-10-12T07:17:10Z</time>
      </trkpt>
      <trkpt lat="41.553985" lon="1.838902">
        <ele>306.2</ele>
        <time>2014-10-12T07:17:15Z</time>
      </trkpt>
      <trkpt lat="41.553976" lon="1.838549">
        <ele>304.5</ele>
        <time>2014-10-12T07:17:21Z</time>
      </trkpt>
      <trkpt lat="41.554008" lon="1.838352">
        <ele>303.6</ele>
        <time>2014-10-12T07:17:25Z</time>
      </trkpt>
      <trkpt lat="41.554102" lon="1.838130">
        <ele>301.6</ele>
        <time>2014-10-12T07:17:30Z</time>
      </trkpt>
      <trkpt lat="41.554170" lon="1.837846">
        <ele>300.3</ele>
        <time>2014-10-12T07:17:37Z</time>
      </trkpt>
      <trkpt lat="41.554199" lon="1.837532">
        <ele>301.2</ele>
        <time>2014-10-12T07:17:43Z</time>
      </trkpt>
      <trkpt lat="41.554202" lon="1.837331">
        <ele>301.7</ele>
        <time>2014-10-12T07:17:47Z</time>
      </trkpt>
      <trkpt lat="41.554214" lon="1.837077">
        <ele>302.9</ele>
        <time>2014-10-12T07:17:52Z</time>
      </trkpt>
      <trkpt lat="41.554241" lon="1.836902">
        <ele>303.1</ele>
        <time>2014-10-12T07:17:56Z</time>
      </trkpt>
      <trkpt lat="41.554315" lon="1.836618">
        <ele>303.8</ele>
        <time>2014-10-12T07:18:03Z</time>
      </trkpt>
      <trkpt lat="41.554316" lon="1.836340">
        <ele>304.5</ele>
        <time>2014-10-12T07:18:10Z</time>
      </trkpt>
      <trkpt lat="41.554392" lon="1.836030">
        <ele>305.7</ele>
        <time>2014-10-12T07:18:17Z</time>
      </trkpt>
      <trkpt lat="41.554525" lon="1.835917">
        <ele>306.6</ele>
        <time>2014-10-12T07:18:23Z</time>
      </trkpt>
      <trkpt lat="41.554668" lon="1.835656">
        <ele>309.7</ele>
        <time>2014-10-12T07:18:29Z</time>
      </trkpt>
      <trkpt lat="41.554736" lon="1.835357">
        <ele>311.8</ele>
        <time>2014-10-12T07:18:37Z</time>
      </trkpt>
      <trkpt lat="41.554889" lon="1.835065">
        <ele>314.3</ele>
        <time>2014-10-12T07:18:45Z</time>
      </trkpt>
      <trkpt lat="41.555020" lon="1.834796">
        <ele>319.7</ele>
        <time>2014-10-12T07:18:50Z</time>
      </trkpt>
      <trkpt lat="41.555093" lon="1.834628">
        <ele>320.1</ele>
        <time>2014-10-12T07:18:55Z</time>
      </trkpt>
      <trkpt lat="41.555131" lon="1.834450">
        <ele>321.1</ele>
        <time>2014-10-12T07:18:59Z</time>
      </trkpt>
      <trkpt lat="41.555090" lon="1.834166">
        <ele>321.2</ele>
        <time>2014-10-12T07:19:04Z</time>
      </trkpt>
      <trkpt lat="41.555071" lon="1.833814">
        <ele>322.5</ele>
        <time>2014-10-12T07:19:11Z</time>
      </trkpt>
      <trkpt lat="41.555054" lon="1.833626">
        <ele>322.5</ele>
        <time>2014-10-12T07:19:15Z</time>
      </trkpt>
      <trkpt lat="41.555102" lon="1.833406">
        <ele>322.6</ele>
        <time>2014-10-12T07:19:21Z</time>
      </trkpt>
      <trkpt lat="41.555312" lon="1.833338">
        <ele>323.3</ele>
        <time>2014-10-12T07:19:27Z</time>
      </trkpt>
      <trkpt lat="41.555510" lon="1.833250">
        <ele>323.6</ele>
        <time>2014-10-12T07:19:33Z</time>
      </trkpt>
      <trkpt lat="41.555696" lon="1.833029">
        <ele>324.5</ele>
        <time>2014-10-12T07:19:40Z</time>
      </trkpt>
      <trkpt lat="41.555798" lon="1.832900">
        <ele>325.2</ele>
        <time>2014-10-12T07:19:45Z</time>
      </trkpt>
      <trkpt lat="41.555907" lon="1.832623">
        <ele>326.9</ele>
        <time>2014-10-12T07:19:51Z</time>
      </trkpt>
      <trkpt lat="41.555983" lon="1.832457">
        <ele>328.0</ele>
        <time>2014-10-12T07:19:55Z</time>
      </trkpt>
      <trkpt lat="41.556053" lon="1.832248">
        <ele>328.9</ele>
        <time>2014-10-12T07:20:00Z</time>
      </trkpt>
      <trkpt lat="41.556164" lon="1.832050">
        <ele>330.0</ele>
        <time>2014-10-12T07:20:07Z</time>
      </trkpt>
      <trkpt lat="41.556274" lon="1.831734">
        <ele>331.6</ele>
        <time>2014-10-12T07:20:14Z</time>
      </trkpt>
      <trkpt lat="41.556370" lon="1.831397">
        <ele>333.3</ele>
        <time>2014-10-12T07:20:22Z</time>
      </trkpt>
      <trkpt lat="41.556415" lon="1.831146">
        <ele>333.8</ele>
        <time>2014-10-12T07:20:27Z</time>
      </trkpt>
      <trkpt lat="41.556538" lon="1.830821">
        <ele>334.2</ele>
        <time>2014-10-12T07:20:33Z</time>
      </trkpt>
      <trkpt lat="41.556640" lon="1.830535">
        <ele>334.8</ele>
        <time>2014-10-12T07:20:39Z</time>
      </trkpt>
      <trkpt lat="41.556738" lon="1.830295">
        <ele>336.7</ele>
        <time>2014-10-12T07:20:46Z</time>
      </trkpt>
      <trkpt lat="41.556911" lon="1.829998">
        <ele>335.6</ele>
        <time>2014-10-12T07:20:52Z</time>
      </trkpt>
      <trkpt lat="41.557016" lon="1.829768">
        <ele>334.3</ele>
        <time>2014-10-12T07:20:57Z</time>
      </trkpt>
      <trkpt lat="41.557117" lon="1.829461">
        <ele>333.7</ele>
        <time>2014-10-12T07:21:04Z</time>
      </trkpt>
      <trkpt lat="41.557247" lon="1.829209">
        <ele>330.8</ele>
        <time>2014-10-12T07:21:11Z</time>
      </trkpt>
      <trkpt lat="41.557282" lon="1.828891">
        <ele>330.3</ele>
        <time>2014-10-12T07:21:16Z</time>
      </trkpt>
      <trkpt lat="41.557323" lon="1.828645">
        <ele>330.0</ele>
        <time>2014-10-12T07:21:22Z</time>
      </trkpt>
      <trkpt lat="41.557395" lon="1.828344">
        <ele>330.6</ele>
        <time>2014-10-12T07:21:28Z</time>
      </trkpt>
      <trkpt lat="41.557435" lon="1.827965">
        <ele>337.1</ele>
        <time>2014-10-12T07:21:36Z</time>
      </trkpt>
      <trkpt lat="41.557216" lon="1.827721">
        <ele>339.6</ele>
        <time>2014-10-12T07:21:43Z</time>
      </trkpt>
      <trkpt lat="41.556977" lon="1.827496">
        <ele>339.7</ele>
        <time>2014-10-12T07:21:49Z</time>
      </trkpt>
      <trkpt lat="41.556781" lon="1.827305">
        <ele>339.7</ele>
        <time>2014-10-12T07:21:54Z</time>
      </trkpt>
      <trkpt lat="41.556603" lon="1.827003">
        <ele>340.3</ele>
        <time>2014-10-12T07:22:00Z</time>
      </trkpt>
      <trkpt lat="41.556470" lon="1.826737">
        <ele>342.4</ele>
        <time>2014-10-12T07:22:05Z</time>
      </trkpt>
      <trkpt lat="41.556260" lon="1.826411">
        <ele>345.0</ele>
        <time>2014-10-12T07:22:12Z</time>
      </trkpt>
      <trkpt lat="41.555949" lon="1.826085">
        <ele>350.1</ele>
        <time>2014-10-12T07:22:21Z</time>
      </trkpt>
      <trkpt lat="41.555784" lon="1.825872">
        <ele>352.4</ele>
        <time>2014-10-12T07:22:26Z</time>
      </trkpt>
      <trkpt lat="41.555677" lon="1.825751">
        <ele>352.6</ele>
        <time>2014-10-12T07:22:30Z</time>
      </trkpt>
      <trkpt lat="41.555376" lon="1.825874">
        <ele>351.9</ele>
        <time>2014-10-12T07:22:39Z</time>
      </trkpt>
      <trkpt lat="41.555157" lon="1.826053">
        <ele>351.3</ele>
        <time>2014-10-12T07:22:44Z</time>
      </trkpt>
      <trkpt lat="41.554956" lon="1.826207">
        <ele>352.3</ele>
        <time>2014-10-12T07:22:50Z</time>
      </trkpt>
      <trkpt lat="41.554668" lon="1.826434">
        <ele>355.5</ele>
        <time>2014-10-12T07:22:56Z</time>
      </trkpt>
      <trkpt lat="41.554383" lon="1.826370">
        <ele>353.4</ele>
        <time>2014-10-12T07:23:04Z</time>
      </trkpt>
      <trkpt lat="41.554327" lon="1.826042">
        <ele>349.7</ele>
        <time>2014-10-12T07:23:10Z</time>
      </trkpt>
      <trkpt lat="41.554491" lon="1.825612">
        <ele>345.4</ele>
        <time>2014-10-12T07:23:15Z</time>
      </trkpt>
      <trkpt lat="41.554570" lon="1.825197">
        <ele>341.9</ele>
        <time>2014-10-12T07:23:21Z</time>
      </trkpt>
      <trkpt lat="41.554321" lon="1.824942">
        <ele>338.5</ele>
        <time>2014-10-12T07:23:26Z</time>
      </trkpt>
      <trkpt lat="41.553996" lon="1.825088">
        <ele>336.9</ele>
        <time>2014-10-12T07:23:31Z</time>
      </trkpt>
      <trkpt lat="41.553538" lon="1.825445">
        <ele>334.2</ele>
        <time>2014-10-12T07:23:38Z</time>
      </trkpt>
      <trkpt lat="41.553139" lon="1.825890">
        <ele>345.2</ele>
        <time>2014-10-12T07:23:44Z</time>
      </trkpt>
      <trkpt lat="41.552991" lon="1.825842">
        <ele>348.2</ele>
        <time>2014-10-12T07:23:47Z</time>
      </trkpt>
      <trkpt lat="41.552840" lon="1.825427">
        <ele>349.5</ele>
        <time>2014-10-12T07:23:52Z</time>
      </trkpt>
      <trkpt lat="41.552807" lon="1.825137">
        <ele>348.2</ele>
        <time>2014-10-12T07:23:55Z</time>
      </trkpt>
      <trkpt lat="41.552919" lon="1.824522">
        <ele>342.0</ele>
        <time>2014-10-12T07:24:03Z</time>
      </trkpt>
      <trkpt lat="41.552809" lon="1.824165">
        <ele>340.6</ele>
        <time>2014-10-12T07:24:08Z</time>
      </trkpt>
      <trkpt lat="41.552628" lon="1.824292">
        <ele>340.7</ele>
        <time>2014-10-12T07:24:12Z</time>
      </trkpt>
      <trkpt lat="41.552325" lon="1.824548">
        <ele>340.2</ele>
        <time>2014-10-12T07:24:17Z</time>
      </trkpt>
      <trkpt lat="41.551961" lon="1.824803">
        <ele>342.2</ele>
        <time>2014-10-12T07:24:22Z</time>
      </trkpt>
      <trkpt lat="41.551496" lon="1.825122">
        <ele>349.3</ele>
        <time>2014-10-12T07:24:28Z</time>
      </trkpt>
      <trkpt lat="41.551074" lon="1.825406">
        <ele>351.5</ele>
        <time>2014-10-12T07:24:34Z</time>
      </trkpt>
      <trkpt lat="41.550704" lon="1.825680">
        <ele>348.2</ele>
        <time>2014-10-12T07:24:40Z</time>
      </trkpt>
      <trkpt lat="41.550407" lon="1.825907">
        <ele>345.0</ele>
        <time>2014-10-12T07:24:45Z</time>
      </trkpt>
      <trkpt lat="41.550229" lon="1.826004">
        <ele>344.1</ele>
        <time>2014-10-12T07:24:49Z</time>
      </trkpt>
      <trkpt lat="41.549997" lon="1.825315">
        <ele>343.5</ele>
        <time>2014-10-12T07:24:56Z</time>
      </trkpt>
      <trkpt lat="41.550149" lon="1.824791">
        <ele>342.2</ele>
        <time>2014-10-12T07:25:02Z</time>
      </trkpt>
      <trkpt lat="41.550338" lon="1.824138">
        <ele>339.0</ele>
        <time>2014-10-12T07:25:07Z</time>
      </trkpt>
      <trkpt lat="41.550280" lon="1.823880">
        <ele>336.0</ele>
        <time>2014-10-12T07:25:12Z</time>
      </trkpt>
      <trkpt lat="41.549975" lon="1.824205">
        <ele>333.8</ele>
        <time>2014-10-12T07:25:18Z</time>
      </trkpt>
      <trkpt lat="41.549725" lon="1.824557">
        <ele>331.1</ele>
        <time>2014-10-12T07:25:24Z</time>
      </trkpt>
      <trkpt lat="41.549483" lon="1.824848">
        <ele>327.3</ele>
        <time>2014-10-12T07:25:30Z</time>
      </trkpt>
      <trkpt lat="41.549113" lon="1.825096">
        <ele>326.9</ele>
        <time>2014-10-12T07:25:35Z</time>
      </trkpt>
      <trkpt lat="41.548684" lon="1.825090">
        <ele>329.4</ele>
        <time>2014-10-12T07:25:42Z</time>
      </trkpt>
      <trkpt lat="41.548571" lon="1.824359">
        <ele>328.5</ele>
        <time>2014-10-12T07:25:48Z</time>
      </trkpt>
      <trkpt lat="41.548524" lon="1.823707">
        <ele>328.9</ele>
        <time>2014-10-12T07:25:54Z</time>
      </trkpt>
      <trkpt lat="41.548485" lon="1.823198">
        <ele>324.0</ele>
        <time>2014-10-12T07:26:02Z</time>
      </trkpt>
      <trkpt lat="41.548546" lon="1.823005">
        <ele>323.2</ele>
        <time>2014-10-12T07:26:07Z</time>
      </trkpt>
      <trkpt lat="41.548600" lon="1.822852">
        <ele>322.4</ele>
        <time>2014-10-12T07:26:11Z</time>
      </trkpt>
      <trkpt lat="41.548618" lon="1.822797">
        <ele>322.1</ele>
        <time>2014-10-12T07:26:13Z</time>
      </trkpt>
      <trkpt lat="41.548624" lon="1.822772">
        <ele>321.8</ele>
        <time>2014-10-12T07:26:19Z</time>
      </trkpt>
      <trkpt lat="41.548512" lon="1.823207">
        <ele>320.8</ele>
        <time>2014-10-12T07:26:34Z</time>
      </trkpt>
      <trkpt lat="41.548302" lon="1.823485">
        <ele>320.3</ele>
        <time>2014-10-12T07:26:43Z</time>
      </trkpt>
      <trkpt lat="41.548144" lon="1.823657">
        <ele>320.2</ele>
        <time>2014-10-12T07:26:51Z</time>
      </trkpt>
      <trkpt lat="41.547994" lon="1.823832">
        <ele>320.5</ele>
        <time>2014-10-12T07:26:57Z</time>
      </trkpt>
      <trkpt lat="41.547806" lon="1.823994">
        <ele>321.0</ele>
        <time>2014-10-12T07:27:07Z</time>
      </trkpt>
      <trkpt lat="41.547616" lon="1.824130">
        <ele>323.9</ele>
        <time>2014-10-12T07:27:14Z</time>
      </trkpt>
      <trkpt lat="41.547495" lon="1.824243">
        <ele>326.0</ele>
        <time>2014-10-12T07:27:19Z</time>
      </trkpt>
      <trkpt lat="41.547348" lon="1.824165">
        <ele>331.0</ele>
        <time>2014-10-12T07:27:30Z</time>
      </trkpt>
      <trkpt lat="41.547490" lon="1.823982">
        <ele>333.8</ele>
        <time>2014-10-12T07:27:38Z</time>
      </trkpt>
      <trkpt lat="41.547634" lon="1.823776">
        <ele>336.5</ele>
        <time>2014-10-12T07:27:46Z</time>
      </trkpt>
      <trkpt lat="41.547808" lon="1.823521">
        <ele>338.5</ele>
        <time>2014-10-12T07:27:53Z</time>
      </trkpt>
      <trkpt lat="41.547969" lon="1.823263">
        <ele>342.0</ele>
        <time>2014-10-12T07:27:59Z</time>
      </trkpt>
      <trkpt lat="41.548015" lon="1.823042">
        <ele>343.7</ele>
        <time>2014-10-12T07:28:05Z</time>
      </trkpt>
      <trkpt lat="41.547998" lon="1.822793">
        <ele>346.4</ele>
        <time>2014-10-12T07:28:13Z</time>
      </trkpt>
      <trkpt lat="41.548024" lon="1.822603">
        <ele>348.4</ele>
        <time>2014-10-12T07:28:18Z</time>
      </trkpt>
      <trkpt lat="41.548091" lon="1.822430">
        <ele>350.8</ele>
        <time>2014-10-12T07:28:25Z</time>
      </trkpt>
      <trkpt lat="41.548130" lon="1.822182">
        <ele>353.5</ele>
        <time>2014-10-12T07:28:33Z</time>
      </trkpt>
      <trkpt lat="41.548197" lon="1.821862">
        <ele>356.6</ele>
        <time>2014-10-12T07:28:42Z</time>
      </trkpt>
      <trkpt lat="41.548327" lon="1.821675">
        <ele>358.7</ele>
        <time>2014-10-12T07:28:50Z</time>
      </trkpt>
      <trkpt lat="41.548280" lon="1.821506">
        <ele>359.7</ele>
        <time>2014-10-12T07:28:58Z</time>
      </trkpt>
      <trkpt lat="41.548101" lon="1.821529">
        <ele>361.6</ele>
        <time>2014-10-12T07:29:09Z</time>
      </trkpt>
      <trkpt lat="41.547917" lon="1.821603">
        <ele>362.3</ele>
        <time>2014-10-12T07:29:19Z</time>
      </trkpt>
      <trkpt lat="41.547722" lon="1.821739">
        <ele>361.8</ele>
        <time>2014-10-12T07:29:30Z</time>
      </trkpt>
      <trkpt lat="41.547580" lon="1.821824">
        <ele>362.0</ele>
        <time>2014-10-12T07:29:38Z</time>
      </trkpt>
      <trkpt lat="41.547451" lon="1.821863">
        <ele>363.6</ele>
        <time>2014-10-12T07:29:44Z</time>
      </trkpt>
      <trkpt lat="41.547443" lon="1.821688">
        <ele>366.9</ele>
        <time>2014-10-12T07:29:54Z</time>
      </trkpt>
      <trkpt lat="41.547541" lon="1.821496">
        <ele>369.2</ele>
        <time>2014-10-12T07:30:03Z</time>
      </trkpt>
      <trkpt lat="41.547686" lon="1.821272">
        <ele>370.7</ele>
        <time>2014-10-12T07:30:15Z</time>
      </trkpt>
      <trkpt lat="41.547825" lon="1.821077">
        <ele>370.9</ele>
        <time>2014-10-12T07:30:26Z</time>
      </trkpt>
      <trkpt lat="41.547944" lon="1.820923">
        <ele>370.4</ele>
        <time>2014-10-12T07:30:35Z</time>
      </trkpt>
      <trkpt lat="41.548076" lon="1.820710">
        <ele>369.5</ele>
        <time>2014-10-12T07:30:46Z</time>
      </trkpt>
      <trkpt lat="41.547851" lon="1.820700">
        <ele>371.0</ele>
        <time>2014-10-12T07:30:58Z</time>
      </trkpt>
      <trkpt lat="41.547674" lon="1.820731">
        <ele>375.4</ele>
        <time>2014-10-12T07:31:09Z</time>
      </trkpt>
      <trkpt lat="41.547660" lon="1.820550">
        <ele>380.4</ele>
        <time>2014-10-12T07:31:21Z</time>
      </trkpt>
      <trkpt lat="41.547758" lon="1.820358">
        <ele>384.6</ele>
        <time>2014-10-12T07:31:32Z</time>
      </trkpt>
      <trkpt lat="41.547797" lon="1.820059">
        <ele>387.1</ele>
        <time>2014-10-12T07:31:43Z</time>
      </trkpt>
      <trkpt lat="41.547890" lon="1.819849">
        <ele>387.4</ele>
        <time>2014-10-12T07:31:52Z</time>
      </trkpt>
      <trkpt lat="41.548008" lon="1.819706">
        <ele>388.3</ele>
        <time>2014-10-12T07:32:01Z</time>
      </trkpt>
      <trkpt lat="41.548164" lon="1.819498">
        <ele>392.5</ele>
        <time>2014-10-12T07:32:14Z</time>
      </trkpt>
      <trkpt lat="41.548393" lon="1.819231">
        <ele>395.3</ele>
        <time>2014-10-12T07:32:26Z</time>
      </trkpt>
      <trkpt lat="41.548477" lon="1.819076">
        <ele>396.0</ele>
        <time>2014-10-12T07:32:32Z</time>
      </trkpt>
      <trkpt lat="41.548551" lon="1.818920">
        <ele>396.7</ele>
        <time>2014-10-12T07:32:38Z</time>
      </trkpt>
      <trkpt lat="41.548713" lon="1.818703">
        <ele>397.3</ele>
        <time>2014-10-12T07:32:47Z</time>
      </trkpt>
      <trkpt lat="41.548920" lon="1.818457">
        <ele>397.1</ele>
        <time>2014-10-12T07:32:55Z</time>
      </trkpt>
      <trkpt lat="41.549129" lon="1.818244">
        <ele>396.7</ele>
        <time>2014-10-12T07:33:03Z</time>
      </trkpt>
      <trkpt lat="41.549295" lon="1.818119">
        <ele>396.2</ele>
        <time>2014-10-12T07:33:09Z</time>
      </trkpt>
      <trkpt lat="41.549438" lon="1.818096">
        <ele>396.9</ele>
        <time>2014-10-12T07:33:14Z</time>
      </trkpt>
      <trkpt lat="41.549611" lon="1.818091">
        <ele>403.5</ele>
        <time>2014-10-12T07:33:21Z</time>
      </trkpt>
      <trkpt lat="41.549846" lon="1.817981">
        <ele>414.3</ele>
        <time>2014-10-12T07:33:27Z</time>
      </trkpt>
      <trkpt lat="41.549942" lon="1.817893">
        <ele>415.3</ele>
        <time>2014-10-12T07:33:30Z</time>
      </trkpt>
      <trkpt lat="41.550077" lon="1.817672">
        <ele>415.1</ele>
        <time>2014-10-12T07:33:37Z</time>
      </trkpt>
      <trkpt lat="41.550102" lon="1.817446">
        <ele>414.9</ele>
        <time>2014-10-12T07:33:42Z</time>
      </trkpt>
      <trkpt lat="41.550227" lon="1.817328">
        <ele>414.4</ele>
        <time>2014-10-12T07:33:50Z</time>
      </trkpt>
      <trkpt lat="41.550454" lon="1.817446">
        <ele>415.7</ele>
        <time>2014-10-12T07:34:01Z</time>
      </trkpt>
      <trkpt lat="41.550682" lon="1.817370">
        <ele>418.5</ele>
        <time>2014-10-12T07:34:11Z</time>
      </trkpt>
      <trkpt lat="41.550796" lon="1.817180">
        <ele>419.9</ele>
        <time>2014-10-12T07:34:18Z</time>
      </trkpt>
      <trkpt lat="41.550955" lon="1.817149">
        <ele>420.8</ele>
        <time>2014-10-12T07:34:25Z</time>
      </trkpt>
      <trkpt lat="41.551162" lon="1.817272">
        <ele>422.5</ele>
        <time>2014-10-12T07:34:34Z</time>
      </trkpt>
      <trkpt lat="41.551366" lon="1.817403">
        <ele>423.5</ele>
        <time>2014-10-12T07:34:43Z</time>
      </trkpt>
      <trkpt lat="41.551582" lon="1.817573">
        <ele>424.8</ele>
        <time>2014-10-12T07:34:51Z</time>
      </trkpt>
      <trkpt lat="41.551778" lon="1.817712">
        <ele>426.5</ele>
        <time>2014-10-12T07:34:57Z</time>
      </trkpt>
      <trkpt lat="41.551937" lon="1.817826">
        <ele>427.9</ele>
        <time>2014-10-12T07:35:03Z</time>
      </trkpt>
      <trkpt lat="41.552120" lon="1.817964">
        <ele>430.0</ele>
        <time>2014-10-12T07:35:11Z</time>
      </trkpt>
      <trkpt lat="41.552327" lon="1.818034">
        <ele>432.4</ele>
        <time>2014-10-12T07:35:22Z</time>
      </trkpt>
      <trkpt lat="41.552512" lon="1.817922">
        <ele>434.0</ele>
        <time>2014-10-12T07:35:32Z</time>
      </trkpt>
      <trkpt lat="41.552591" lon="1.817625">
        <ele>435.5</ele>
        <time>2014-10-12T07:35:41Z</time>
      </trkpt>
      <trkpt lat="41.552628" lon="1.817336">
        <ele>436.2</ele>
        <time>2014-10-12T07:35:49Z</time>
      </trkpt>
      <trkpt lat="41.552716" lon="1.817010">
        <ele>436.8</ele>
        <time>2014-10-12T07:36:00Z</time>
      </trkpt>
      <trkpt lat="41.552904" lon="1.816982">
        <ele>439.0</ele>
        <time>2014-10-12T07:36:11Z</time>
      </trkpt>
      <trkpt lat="41.552989" lon="1.817304">
        <ele>440.6</ele>
        <time>2014-10-12T07:36:19Z</time>
      </trkpt>
      <trkpt lat="41.553101" lon="1.817554">
        <ele>441.4</ele>
        <time>2014-10-12T07:36:27Z</time>
      </trkpt>
      <trkpt lat="41.553305" lon="1.817674">
        <ele>442.0</ele>
        <time>2014-10-12T07:36:34Z</time>
      </trkpt>
      <trkpt lat="41.553545" lon="1.817730">
        <ele>444.2</ele>
        <time>2014-10-12T07:36:43Z</time>
      </trkpt>
      <trkpt lat="41.553785" lon="1.817664">
        <ele>446.0</ele>
        <time>2014-10-12T07:36:49Z</time>
      </trkpt>
      <trkpt lat="41.554009" lon="1.817448">
        <ele>451.7</ele>
        <time>2014-10-12T07:36:57Z</time>
      </trkpt>
      <trkpt lat="41.554169" lon="1.817194">
        <ele>456.3</ele>
        <time>2014-10-12T07:37:02Z</time>
      </trkpt>
      <trkpt lat="41.554359" lon="1.816935">
        <ele>456.4</ele>
        <time>2014-10-12T07:37:09Z</time>
      </trkpt>
      <trkpt lat="41.554549" lon="1.816650">
        <ele>453.3</ele>
        <time>2014-10-12T07:37:15Z</time>
      </trkpt>
      <trkpt lat="41.554763" lon="1.816290">
        <ele>449.7</ele>
        <time>2014-10-12T07:37:20Z</time>
      </trkpt>
      <trkpt lat="41.554871" lon="1.816032">
        <ele>451.7</ele>
        <time>2014-10-12T07:37:23Z</time>
      </trkpt>
      <trkpt lat="41.554931" lon="1.815610">
        <ele>454.6</ele>
        <time>2014-10-12T07:37:28Z</time>
      </trkpt>
      <trkpt lat="41.555097" lon="1.815279">
        <ele>454.7</ele>
        <time>2014-10-12T07:37:33Z</time>
      </trkpt>
      <trkpt lat="41.555233" lon="1.814798">
        <ele>453.7</ele>
        <time>2014-10-12T07:37:39Z</time>
      </trkpt>
      <trkpt lat="41.555533" lon="1.814511">
        <ele>452.3</ele>
        <time>2014-10-12T07:37:46Z</time>
      </trkpt>
      <trkpt lat="41.555727" lon="1.814116">
        <ele>452.3</ele>
        <time>2014-10-12T07:37:53Z</time>
      </trkpt>
      <trkpt lat="41.555727" lon="1.814116">
        <ele>452.3</ele>
        <time>2014-10-12T07:38:00Z</time>
      </trkpt>
      <trkpt lat="41.555727" lon="1.814116">
        <ele>452.3</ele>
        <time>2014-10-12T07:38:01Z</time>
      </trkpt>
      <trkpt lat="41.555724" lon="1.813968">
        <ele>450.1</ele>
        <time>2014-10-12T07:38:38Z</time>
      </trkpt>
      <trkpt lat="41.555725" lon="1.813633">
        <ele>449.0</ele>
        <time>2014-10-12T07:38:46Z</time>
      </trkpt>
      <trkpt lat="41.555692" lon="1.813351">
        <ele>445.2</ele>
        <time>2014-10-12T07:38:51Z</time>
      </trkpt>
      <trkpt lat="41.555607" lon="1.813011">
        <ele>445.3</ele>
        <time>2014-10-12T07:38:58Z</time>
      </trkpt>
      <trkpt lat="41.555519" lon="1.812730">
        <ele>447.3</ele>
        <time>2014-10-12T07:39:04Z</time>
      </trkpt>
      <trkpt lat="41.555411" lon="1.812403">
        <ele>449.1</ele>
        <time>2014-10-12T07:39:09Z</time>
      </trkpt>
      <trkpt lat="41.555360" lon="1.812117">
        <ele>450.8</ele>
        <time>2014-10-12T07:39:14Z</time>
      </trkpt>
      <trkpt lat="41.555405" lon="1.811833">
        <ele>451.1</ele>
        <time>2014-10-12T07:39:21Z</time>
      </trkpt>
      <trkpt lat="41.555506" lon="1.811626">
        <ele>451.3</ele>
        <time>2014-10-12T07:39:29Z</time>
      </trkpt>
      <trkpt lat="41.555645" lon="1.811355">
        <ele>451.8</ele>
        <time>2014-10-12T07:39:38Z</time>
      </trkpt>
      <trkpt lat="41.555784" lon="1.811076">
        <ele>452.0</ele>
        <time>2014-10-12T07:39:45Z</time>
      </trkpt>
      <trkpt lat="41.555841" lon="1.810953">
        <ele>452.0</ele>
        <time>2014-10-12T07:39:49Z</time>
      </trkpt>
      <trkpt lat="41.555901" lon="1.810824">
        <ele>452.1</ele>
        <time>2014-10-12T07:39:53Z</time>
      </trkpt>
      <trkpt lat="41.555998" lon="1.810641">
        <ele>452.1</ele>
        <time>2014-10-12T07:39:59Z</time>
      </trkpt>
      <trkpt lat="41.556089" lon="1.810472">
        <ele>452.8</ele>
        <time>2014-10-12T07:40:06Z</time>
      </trkpt>
      <trkpt lat="41.556193" lon="1.810218">
        <ele>454.0</ele>
        <time>2014-10-12T07:40:14Z</time>
      </trkpt>
      <trkpt lat="41.556224" lon="1.809920">
        <ele>455.2</ele>
        <time>2014-10-12T07:40:22Z</time>
      </trkpt>
      <trkpt lat="41.556180" lon="1.809711">
        <ele>455.7</ele>
        <time>2014-10-12T07:40:28Z</time>
      </trkpt>
      <trkpt lat="41.556106" lon="1.809471">
        <ele>456.3</ele>
        <time>2014-10-12T07:40:34Z</time>
      </trkpt>
      <trkpt lat="41.556108" lon="1.809177">
        <ele>457.1</ele>
        <time>2014-10-12T07:40:40Z</time>
      </trkpt>
      <trkpt lat="41.556203" lon="1.808954">
        <ele>457.7</ele>
        <time>2014-10-12T07:40:47Z</time>
      </trkpt>
      <trkpt lat="41.556286" lon="1.808755">
        <ele>457.8</ele>
        <time>2014-10-12T07:40:54Z</time>
      </trkpt>
      <trkpt lat="41.556392" lon="1.808560">
        <ele>457.5</ele>
        <time>2014-10-12T07:41:03Z</time>
      </trkpt>
      <trkpt lat="41.556533" lon="1.808355">
        <ele>457.4</ele>
        <time>2014-10-12T07:41:11Z</time>
      </trkpt>
      <trkpt lat="41.556689" lon="1.808203">
        <ele>457.4</ele>
        <time>2014-10-12T07:41:19Z</time>
      </trkpt>
      <trkpt lat="41.556976" lon="1.807786">
        <ele>454.7</ele>
        <time>2014-10-12T07:41:26Z</time>
      </trkpt>
      <trkpt lat="41.556869" lon="1.807203">
        <ele>456.9</ele>
        <time>2014-10-12T07:41:33Z</time>
      </trkpt>
      <trkpt lat="41.556620" lon="1.806677">
        <ele>461.6</ele>
        <time>2014-10-12T07:41:38Z</time>
      </trkpt>
      <trkpt lat="41.556245" lon="1.806203">
        <ele>461.0</ele>
        <time>2014-10-12T07:41:44Z</time>
      </trkpt>
      <trkpt lat="41.556071" lon="1.806053">
        <ele>460.5</ele>
        <time>2014-10-12T07:41:47Z</time>
      </trkpt>
      <trkpt lat="41.555960" lon="1.805868">
        <ele>461.1</ele>
        <time>2014-10-12T07:41:55Z</time>
      </trkpt>
      <trkpt lat="41.556196" lon="1.805621">
        <ele>462.3</ele>
        <time>2014-10-12T07:42:07Z</time>
      </trkpt>
      <trkpt lat="41.556402" lon="1.805555">
        <ele>462.7</ele>
        <time>2014-10-12T07:42:15Z</time>
      </trkpt>
      <trkpt lat="41.556652" lon="1.805439">
        <ele>464.2</ele>
        <time>2014-10-12T07:42:23Z</time>
      </trkpt>
      <trkpt lat="41.556896" lon="1.805134">
        <ele>465.3</ele>
        <time>2014-10-12T07:42:29Z</time>
      </trkpt>
      <trkpt lat="41.557116" lon="1.804928">
        <ele>464.0</ele>
        <time>2014-10-12T07:42:34Z</time>
      </trkpt>
      <trkpt lat="41.557258" lon="1.804746">
        <ele>463.2</ele>
        <time>2014-10-12T07:42:38Z</time>
      </trkpt>
      <trkpt lat="41.557421" lon="1.804480">
        <ele>462.2</ele>
        <time>2014-10-12T07:42:44Z</time>
      </trkpt>
      <trkpt lat="41.557524" lon="1.804275">
        <ele>462.5</ele>
        <time>2014-10-12T07:42:50Z</time>
      </trkpt>
      <trkpt lat="41.557604" lon="1.804117">
        <ele>461.6</ele>
        <time>2014-10-12T07:42:58Z</time>
      </trkpt>
      <trkpt lat="41.557443" lon="1.803973">
        <ele>461.4</ele>
        <time>2014-10-12T07:43:06Z</time>
      </trkpt>
      <trkpt lat="41.557394" lon="1.803620">
        <ele>462.2</ele>
        <time>2014-10-12T07:43:15Z</time>
      </trkpt>
      <trkpt lat="41.557374" lon="1.803357">
        <ele>462.0</ele>
        <time>2014-10-12T07:43:22Z</time>
      </trkpt>
      <trkpt lat="41.557400" lon="1.803181">
        <ele>461.9</ele>
        <time>2014-10-12T07:43:27Z</time>
      </trkpt>
      <trkpt lat="41.557420" lon="1.802928">
        <ele>461.9</ele>
        <time>2014-10-12T07:43:35Z</time>
      </trkpt>
      <trkpt lat="41.557524" lon="1.802760">
        <ele>461.8</ele>
        <time>2014-10-12T07:43:46Z</time>
      </trkpt>
      <trkpt lat="41.557406" lon="1.802650">
        <ele>462.5</ele>
        <time>2014-10-12T07:43:55Z</time>
      </trkpt>
      <trkpt lat="41.557129" lon="1.802713">
        <ele>463.0</ele>
        <time>2014-10-12T07:44:06Z</time>
      </trkpt>
      <trkpt lat="41.556884" lon="1.802882">
        <ele>463.2</ele>
        <time>2014-10-12T07:44:15Z</time>
      </trkpt>
      <trkpt lat="41.556616" lon="1.803244">
        <ele>456.8</ele>
        <time>2014-10-12T07:44:23Z</time>
      </trkpt>
      <trkpt lat="41.556471" lon="1.803426">
        <ele>456.6</ele>
        <time>2014-10-12T07:44:29Z</time>
      </trkpt>
      <trkpt lat="41.556331" lon="1.803542">
        <ele>457.0</ele>
        <time>2014-10-12T07:44:37Z</time>
      </trkpt>
      <trkpt lat="41.556331" lon="1.803542">
        <ele>457.0</ele>
        <time>2014-10-12T07:44:42Z</time>
      </trkpt>
      <trkpt lat="41.556331" lon="1.803542">
        <ele>457.0</ele>
        <time>2014-10-12T07:44:43Z</time>
      </trkpt>
      <trkpt lat="41.556195" lon="1.803381">
        <ele>458.0</ele>
        <time>2014-10-12T07:44:55Z</time>
      </trkpt>
      <trkpt lat="41.556118" lon="1.803386">
        <ele>458.8</ele>
        <time>2014-10-12T07:45:00Z</time>
      </trkpt>
      <trkpt lat="41.556153" lon="1.803244">
        <ele>461.0</ele>
        <time>2014-10-12T07:45:13Z</time>
      </trkpt>
      <trkpt lat="41.556282" lon="1.803240">
        <ele>462.7</ele>
        <time>2014-10-12T07:45:23Z</time>
      </trkpt>
      <trkpt lat="41.556485" lon="1.802948">
        <ele>464.8</ele>
        <time>2014-10-12T07:45:38Z</time>
      </trkpt>
      <trkpt lat="41.556557" lon="1.802758">
        <ele>467.2</ele>
        <time>2014-10-12T07:45:47Z</time>
      </trkpt>
      <trkpt lat="41.556710" lon="1.802439">
        <ele>471.1</ele>
        <time>2014-10-12T07:46:04Z</time>
      </trkpt>
      <trkpt lat="41.556885" lon="1.802212">
        <ele>471.9</ele>
        <time>2014-10-12T07:46:17Z</time>
      </trkpt>
      <trkpt lat="41.557073" lon="1.801995">
        <ele>471.4</ele>
        <time>2014-10-12T07:46:29Z</time>
      </trkpt>
      <trkpt lat="41.557228" lon="1.801857">
        <ele>471.7</ele>
        <time>2014-10-12T07:46:39Z</time>
      </trkpt>
      <trkpt lat="41.557400" lon="1.801683">
        <ele>472.8</ele>
        <time>2014-10-12T07:46:48Z</time>
      </trkpt>
      <trkpt lat="41.557548" lon="1.801533">
        <ele>473.9</ele>
        <time>2014-10-12T07:46:56Z</time>
      </trkpt>
      <trkpt lat="41.557658" lon="1.801405">
        <ele>474.8</ele>
        <time>2014-10-12T07:47:02Z</time>
      </trkpt>
      <trkpt lat="41.557891" lon="1.801009">
        <ele>475.8</ele>
        <time>2014-10-12T07:47:12Z</time>
      </trkpt>
      <trkpt lat="41.558027" lon="1.800694">
        <ele>481.5</ele>
        <time>2014-10-12T07:47:19Z</time>
      </trkpt>
      <trkpt lat="41.558165" lon="1.800296">
        <ele>482.2</ele>
        <time>2014-10-12T07:47:24Z</time>
      </trkpt>
      <trkpt lat="41.558402" lon="1.799918">
        <ele>482.8</ele>
        <time>2014-10-12T07:47:32Z</time>
      </trkpt>
      <trkpt lat="41.558547" lon="1.799463">
        <ele>483.1</ele>
        <time>2014-10-12T07:47:39Z</time>
      </trkpt>
      <trkpt lat="41.558580" lon="1.799079">
        <ele>487.4</ele>
        <time>2014-10-12T07:47:45Z</time>
      </trkpt>
      <trkpt lat="41.558577" lon="1.798721">
        <ele>488.7</ele>
        <time>2014-10-12T07:47:50Z</time>
      </trkpt>
      <trkpt lat="41.558755" lon="1.798261">
        <ele>490.7</ele>
        <time>2014-10-12T07:47:57Z</time>
      </trkpt>
      <trkpt lat="41.558895" lon="1.797989">
        <ele>491.6</ele>
        <time>2014-10-12T07:48:02Z</time>
      </trkpt>
      <trkpt lat="41.559018" lon="1.797676">
        <ele>493.2</ele>
        <time>2014-10-12T07:48:08Z</time>
      </trkpt>
      <trkpt lat="41.559078" lon="1.797409">
        <ele>493.4</ele>
        <time>2014-10-12T07:48:17Z</time>
      </trkpt>
      <trkpt lat="41.559155" lon="1.797133">
        <ele>492.8</ele>
        <time>2014-10-12T07:48:28Z</time>
      </trkpt>
      <trkpt lat="41.559092" lon="1.796896">
        <ele>491.9</ele>
        <time>2014-10-12T07:48:41Z</time>
      </trkpt>
      <trkpt lat="41.558933" lon="1.796721">
        <ele>492.6</ele>
        <time>2014-10-12T07:48:49Z</time>
      </trkpt>
      <trkpt lat="41.558897" lon="1.796677">
        <ele>492.9</ele>
        <time>2014-10-12T07:48:52Z</time>
      </trkpt>
      <trkpt lat="41.559055" lon="1.796744">
        <ele>495.5</ele>
        <time>2014-10-12T07:49:06Z</time>
      </trkpt>
      <trkpt lat="41.559333" lon="1.796784">
        <ele>497.4</ele>
        <time>2014-10-12T07:49:16Z</time>
      </trkpt>
      <trkpt lat="41.559556" lon="1.796708">
        <ele>500.0</ele>
        <time>2014-10-12T07:49:22Z</time>
      </trkpt>
      <trkpt lat="41.559846" lon="1.796762">
        <ele>503.8</ele>
        <time>2014-10-12T07:49:28Z</time>
      </trkpt>
      <trkpt lat="41.560125" lon="1.796738">
        <ele>505.4</ele>
        <time>2014-10-12T07:49:34Z</time>
      </trkpt>
      <trkpt lat="41.560416" lon="1.796837">
        <ele>509.2</ele>
        <time>2014-10-12T07:49:39Z</time>
      </trkpt>
      <trkpt lat="41.560613" lon="1.796874">
        <ele>509.9</ele>
        <time>2014-10-12T07:49:45Z</time>
      </trkpt>
      <trkpt lat="41.560830" lon="1.796646">
        <ele>503.4</ele>
        <time>2014-10-12T07:49:51Z</time>
      </trkpt>
      <trkpt lat="41.560948" lon="1.796555">
        <ele>503.0</ele>
        <time>2014-10-12T07:49:57Z</time>
      </trkpt>
      <trkpt lat="41.561093" lon="1.796460">
        <ele>502.5</ele>
        <time>2014-10-12T07:50:03Z</time>
      </trkpt>
      <trkpt lat="41.561266" lon="1.796342">
        <ele>502.0</ele>
        <time>2014-10-12T07:50:12Z</time>
      </trkpt>
      <trkpt lat="41.561367" lon="1.796177">
        <ele>502.0</ele>
        <time>2014-10-12T07:50:19Z</time>
      </trkpt>
      <trkpt lat="41.561522" lon="1.795909">
        <ele>502.2</ele>
        <time>2014-10-12T07:50:28Z</time>
      </trkpt>
      <trkpt lat="41.561728" lon="1.795569">
        <ele>502.8</ele>
        <time>2014-10-12T07:50:34Z</time>
      </trkpt>
      <trkpt lat="41.561763" lon="1.795302">
        <ele>500.6</ele>
        <time>2014-10-12T07:50:40Z</time>
      </trkpt>
      <trkpt lat="41.561743" lon="1.795050">
        <ele>500.1</ele>
        <time>2014-10-12T07:50:46Z</time>
      </trkpt>
      <trkpt lat="41.561848" lon="1.794720">
        <ele>499.5</ele>
        <time>2014-10-12T07:50:54Z</time>
      </trkpt>
      <trkpt lat="41.561937" lon="1.794587">
        <ele>499.1</ele>
        <time>2014-10-12T07:51:00Z</time>
      </trkpt>
      <trkpt lat="41.562103" lon="1.794431">
        <ele>498.8</ele>
        <time>2014-10-12T07:51:09Z</time>
      </trkpt>
      <trkpt lat="41.562271" lon="1.794330">
        <ele>498.9</ele>
        <time>2014-10-12T07:51:16Z</time>
      </trkpt>
      <trkpt lat="41.562315" lon="1.794123">
        <ele>499.8</ele>
        <time>2014-10-12T07:51:23Z</time>
      </trkpt>
      <trkpt lat="41.562170" lon="1.793989">
        <ele>502.0</ele>
        <time>2014-10-12T07:51:32Z</time>
      </trkpt>
      <trkpt lat="41.562231" lon="1.793873">
        <ele>507.7</ele>
        <time>2014-10-12T07:51:42Z</time>
      </trkpt>
      <trkpt lat="41.562337" lon="1.793729">
        <ele>508.9</ele>
        <time>2014-10-12T07:51:50Z</time>
      </trkpt>
      <trkpt lat="41.562390" lon="1.793492">
        <ele>509.6</ele>
        <time>2014-10-12T07:51:57Z</time>
      </trkpt>
      <trkpt lat="41.562561" lon="1.793485">
        <ele>508.4</ele>
        <time>2014-10-12T07:52:04Z</time>
      </trkpt>
      <trkpt lat="41.562701" lon="1.793875">
        <ele>501.8</ele>
        <time>2014-10-12T07:52:09Z</time>
      </trkpt>
      <trkpt lat="41.562958" lon="1.793979">
        <ele>496.1</ele>
        <time>2014-10-12T07:52:14Z</time>
      </trkpt>
      <trkpt lat="41.563179" lon="1.793792">
        <ele>493.1</ele>
        <time>2014-10-12T07:52:19Z</time>
      </trkpt>
      <trkpt lat="41.563336" lon="1.793676">
        <ele>490.7</ele>
        <time>2014-10-12T07:52:22Z</time>
      </trkpt>
      <trkpt lat="41.563465" lon="1.793531">
        <ele>489.8</ele>
        <time>2014-10-12T07:52:25Z</time>
      </trkpt>
      <trkpt lat="41.563606" lon="1.793343">
        <ele>486.7</ele>
        <time>2014-10-12T07:52:29Z</time>
      </trkpt>
      <trkpt lat="41.563759" lon="1.793049">
        <ele>483.7</ele>
        <time>2014-10-12T07:52:36Z</time>
      </trkpt>
      <trkpt lat="41.563838" lon="1.792704">
        <ele>482.6</ele>
        <time>2014-10-12T07:52:43Z</time>
      </trkpt>
      <trkpt lat="41.563846" lon="1.792319">
        <ele>483.4</ele>
        <time>2014-10-12T07:52:49Z</time>
      </trkpt>
      <trkpt lat="41.563793" lon="1.792111">
        <ele>484.4</ele>
        <time>2014-10-12T07:52:55Z</time>
      </trkpt>
      <trkpt lat="41.563716" lon="1.791721">
        <ele>488.8</ele>
        <time>2014-10-12T07:53:03Z</time>
      </trkpt>
      <trkpt lat="41.563650" lon="1.791327">
        <ele>495.4</ele>
        <time>2014-10-12T07:53:07Z</time>
      </trkpt>
      <trkpt lat="41.563689" lon="1.790882">
        <ele>495.5</ele>
        <time>2014-10-12T07:53:13Z</time>
      </trkpt>
      <trkpt lat="41.563672" lon="1.790664">
        <ele>495.0</ele>
        <time>2014-10-12T07:53:16Z</time>
      </trkpt>
      <trkpt lat="41.563471" lon="1.790378">
        <ele>493.3</ele>
        <time>2014-10-12T07:53:23Z</time>
      </trkpt>
      <trkpt lat="41.563262" lon="1.789972">
        <ele>492.7</ele>
        <time>2014-10-12T07:53:29Z</time>
      </trkpt>
      <trkpt lat="41.563405" lon="1.789863">
        <ele>491.1</ele>
        <time>2014-10-12T07:53:35Z</time>
      </trkpt>
      <trkpt lat="41.563592" lon="1.789868">
        <ele>488.3</ele>
        <time>2014-10-12T07:53:40Z</time>
      </trkpt>
      <trkpt lat="41.563855" lon="1.789566">
        <ele>484.4</ele>
        <time>2014-10-12T07:53:49Z</time>
      </trkpt>
      <trkpt lat="41.564079" lon="1.789414">
        <ele>482.6</ele>
        <time>2014-10-12T07:53:54Z</time>
      </trkpt>
      <trkpt lat="41.564321" lon="1.789187">
        <ele>480.4</ele>
        <time>2014-10-12T07:54:00Z</time>
      </trkpt>
      <trkpt lat="41.564281" lon="1.788758">
        <ele>476.5</ele>
        <time>2014-10-12T07:54:08Z</time>
      </trkpt>
      <trkpt lat="41.564250" lon="1.788628">
        <ele>474.9</ele>
        <time>2014-10-12T07:54:14Z</time>
      </trkpt>
      <trkpt lat="41.564125" lon="1.788371">
        <ele>472.6</ele>
        <time>2014-10-12T07:54:27Z</time>
      </trkpt>
      <trkpt lat="41.564023" lon="1.788168">
        <ele>471.6</ele>
        <time>2014-10-12T07:54:32Z</time>
      </trkpt>
      <trkpt lat="41.563935" lon="1.788096">
        <ele>470.4</ele>
        <time>2014-10-12T07:54:38Z</time>
      </trkpt>
      <trkpt lat="41.563685" lon="1.788029">
        <ele>465.2</ele>
        <time>2014-10-12T07:54:45Z</time>
      </trkpt>
      <trkpt lat="41.563530" lon="1.787958">
        <ele>461.4</ele>
        <time>2014-10-12T07:54:51Z</time>
      </trkpt>
      <trkpt lat="41.563466" lon="1.787593">
        <ele>459.1</ele>
        <time>2014-10-12T07:54:58Z</time>
      </trkpt>
      <trkpt lat="41.563516" lon="1.787379">
        <ele>456.6</ele>
        <time>2014-10-12T07:55:04Z</time>
      </trkpt>
      <trkpt lat="41.563342" lon="1.787349">
        <ele>452.3</ele>
        <time>2014-10-12T07:55:10Z</time>
      </trkpt>
      <trkpt lat="41.563118" lon="1.787208">
        <ele>447.2</ele>
        <time>2014-10-12T07:55:17Z</time>
      </trkpt>
      <trkpt lat="41.563029" lon="1.787037">
        <ele>446.7</ele>
        <time>2014-10-12T07:55:22Z</time>
      </trkpt>
      <trkpt lat="41.563029" lon="1.787037">
        <ele>446.7</ele>
        <time>2014-10-12T07:55:27Z</time>
      </trkpt>
      <trkpt lat="41.563029" lon="1.787037">
        <ele>446.7</ele>
        <time>2014-10-12T07:55:28Z</time>
      </trkpt>
      <trkpt lat="41.563042" lon="1.786795">
        <ele>445.4</ele>
        <time>2014-10-12T07:55:48Z</time>
      </trkpt>
      <trkpt lat="41.563067" lon="1.786681">
        <ele>447.0</ele>
        <time>2014-10-12T07:55:58Z</time>
      </trkpt>
      <trkpt lat="41.563079" lon="1.786369">
        <ele>452.1</ele>
        <time>2014-10-12T07:56:15Z</time>
      </trkpt>
      <trkpt lat="41.562968" lon="1.786239">
        <ele>453.5</ele>
        <time>2014-10-12T07:56:25Z</time>
      </trkpt>
      <trkpt lat="41.562744" lon="1.786354">
        <ele>453.5</ele>
        <time>2014-10-12T07:56:35Z</time>
      </trkpt>
      <trkpt lat="41.562593" lon="1.786464">
        <ele>453.3</ele>
        <time>2014-10-12T07:56:42Z</time>
      </trkpt>
      <trkpt lat="41.562477" lon="1.786392">
        <ele>453.7</ele>
        <time>2014-10-12T07:56:48Z</time>
      </trkpt>
      <trkpt lat="41.562210" lon="1.786242">
        <ele>457.7</ele>
        <time>2014-10-12T07:56:55Z</time>
      </trkpt>
      <trkpt lat="41.561995" lon="1.786231">
        <ele>459.2</ele>
        <time>2014-10-12T07:57:02Z</time>
      </trkpt>
      <trkpt lat="41.561822" lon="1.786201">
        <ele>459.4</ele>
        <time>2014-10-12T07:57:12Z</time>
      </trkpt>
      <trkpt lat="41.561538" lon="1.786298">
        <ele>459.6</ele>
        <time>2014-10-12T07:57:22Z</time>
      </trkpt>
      <trkpt lat="41.561311" lon="1.786537">
        <ele>465.5</ele>
        <time>2014-10-12T07:57:30Z</time>
      </trkpt>
      <trkpt lat="41.561129" lon="1.786351">
        <ele>465.2</ele>
        <time>2014-10-12T07:57:37Z</time>
      </trkpt>
      <trkpt lat="41.560919" lon="1.786176">
        <ele>465.0</ele>
        <time>2014-10-12T07:57:43Z</time>
      </trkpt>
      <trkpt lat="41.560805" lon="1.786058">
        <ele>464.5</ele>
        <time>2014-10-12T07:57:47Z</time>
      </trkpt>
      <trkpt lat="41.560805" lon="1.786058">
        <ele>464.5</ele>
        <time>2014-10-12T07:57:53Z</time>
      </trkpt>
      <trkpt lat="41.560805" lon="1.786058">
        <ele>464.5</ele>
        <time>2014-10-12T07:57:54Z</time>
      </trkpt>
      <trkpt lat="41.560936" lon="1.786537">
        <ele>459.1</ele>
        <time>2014-10-12T07:58:00Z</time>
      </trkpt>
      <trkpt lat="41.560769" lon="1.786667">
        <ele>457.3</ele>
        <time>2014-10-12T07:58:09Z</time>
      </trkpt>
      <trkpt lat="41.560491" lon="1.786457">
        <ele>453.7</ele>
        <time>2014-10-12T07:58:19Z</time>
      </trkpt>
      <trkpt lat="41.560224" lon="1.786351">
        <ele>450.1</ele>
        <time>2014-10-12T07:58:26Z</time>
      </trkpt>
      <trkpt lat="41.559977" lon="1.786237">
        <ele>447.5</ele>
        <time>2014-10-12T07:58:35Z</time>
      </trkpt>
      <trkpt lat="41.559977" lon="1.786237">
        <ele>447.5</ele>
        <time>2014-10-12T07:58:42Z</time>
      </trkpt>
      <trkpt lat="41.559697" lon="1.785990">
        <ele>437.2</ele>
        <time>2014-10-12T07:59:04Z</time>
      </trkpt>
      <trkpt lat="41.559505" lon="1.785802">
        <ele>429.5</ele>
        <time>2014-10-12T07:59:10Z</time>
      </trkpt>
      <trkpt lat="41.559301" lon="1.785665">
        <ele>424.3</ele>
        <time>2014-10-12T07:59:15Z</time>
      </trkpt>
      <trkpt lat="41.559122" lon="1.785400">
        <ele>422.7</ele>
        <time>2014-10-12T07:59:58Z</time>
      </trkpt>
      <trkpt lat="41.558765" lon="1.785487">
        <ele>421.4</ele>
        <time>2014-10-12T08:00:08Z</time>
      </trkpt>
      <trkpt lat="41.558505" lon="1.785589">
        <ele>420.9</ele>
        <time>2014-10-12T08:00:13Z</time>
      </trkpt>
      <trkpt lat="41.558217" lon="1.785403">
        <ele>417.1</ele>
        <time>2014-10-12T08:00:19Z</time>
      </trkpt>
      <trkpt lat="41.558064" lon="1.785344">
        <ele>416.1</ele>
        <time>2014-10-12T08:00:23Z</time>
      </trkpt>
      <trkpt lat="41.557504" lon="1.784626">
        <ele>407.6</ele>
        <time>2014-10-12T08:00:29Z</time>
      </trkpt>
      <trkpt lat="41.557302" lon="1.784243">
        <ele>399.2</ele>
        <time>2014-10-12T08:00:34Z</time>
      </trkpt>
      <trkpt lat="41.556865" lon="1.784246">
        <ele>391.6</ele>
        <time>2014-10-12T08:00:39Z</time>
      </trkpt>
      <trkpt lat="41.556362" lon="1.784206">
        <ele>388.2</ele>
        <time>2014-10-12T08:00:45Z</time>
      </trkpt>
      <trkpt lat="41.555715" lon="1.784201">
        <ele>383.3</ele>
        <time>2014-10-12T08:00:52Z</time>
      </trkpt>
      <trkpt lat="41.555469" lon="1.784378">
        <ele>376.8</ele>
        <time>2014-10-12T08:00:57Z</time>
      </trkpt>
      <trkpt lat="41.555253" lon="1.784605">
        <ele>373.1</ele>
        <time>2014-10-12T08:01:01Z</time>
      </trkpt>
      <trkpt lat="41.554893" lon="1.784793">
        <ele>371.6</ele>
        <time>2014-10-12T08:01:06Z</time>
      </trkpt>
      <trkpt lat="41.554670" lon="1.785018">
        <ele>368.9</ele>
        <time>2014-10-12T08:01:09Z</time>
      </trkpt>
      <trkpt lat="41.554447" lon="1.785182">
        <ele>367.9</ele>
        <time>2014-10-12T08:01:12Z</time>
      </trkpt>
      <trkpt lat="41.554199" lon="1.785210">
        <ele>366.3</ele>
        <time>2014-10-12T08:01:15Z</time>
      </trkpt>
      <trkpt lat="41.553927" lon="1.784973">
        <ele>365.5</ele>
        <time>2014-10-12T08:01:19Z</time>
      </trkpt>
      <trkpt lat="41.553661" lon="1.784409">
        <ele>363.2</ele>
        <time>2014-10-12T08:01:25Z</time>
      </trkpt>
      <trkpt lat="41.553550" lon="1.784014">
        <ele>361.5</ele>
        <time>2014-10-12T08:01:30Z</time>
      </trkpt>
      <trkpt lat="41.553645" lon="1.783871">
        <ele>358.6</ele>
        <time>2014-10-12T08:01:33Z</time>
      </trkpt>
      <trkpt lat="41.553869" lon="1.783756">
        <ele>358.4</ele>
        <time>2014-10-12T08:01:39Z</time>
      </trkpt>
      <trkpt lat="41.554135" lon="1.783709">
        <ele>356.3</ele>
        <time>2014-10-12T08:01:44Z</time>
      </trkpt>
      <trkpt lat="41.554377" lon="1.783648">
        <ele>354.1</ele>
        <time>2014-10-12T08:01:50Z</time>
      </trkpt>
      <trkpt lat="41.554619" lon="1.783564">
        <ele>353.3</ele>
        <time>2014-10-12T08:01:55Z</time>
      </trkpt>
      <trkpt lat="41.554860" lon="1.783439">
        <ele>350.7</ele>
        <time>2014-10-12T08:02:02Z</time>
      </trkpt>
      <trkpt lat="41.555114" lon="1.783267">
        <ele>347.4</ele>
        <time>2014-10-12T08:02:07Z</time>
      </trkpt>
      <trkpt lat="41.555235" lon="1.783167">
        <ele>346.8</ele>
        <time>2014-10-12T08:02:11Z</time>
      </trkpt>
      <trkpt lat="41.555483" lon="1.783002">
        <ele>348.5</ele>
        <time>2014-10-12T08:02:16Z</time>
      </trkpt>
      <trkpt lat="41.555819" lon="1.783047">
        <ele>347.5</ele>
        <time>2014-10-12T08:02:24Z</time>
      </trkpt>
      <trkpt lat="41.556085" lon="1.783181">
        <ele>348.1</ele>
        <time>2014-10-12T08:02:29Z</time>
      </trkpt>
      <trkpt lat="41.556352" lon="1.783249">
        <ele>349.8</ele>
        <time>2014-10-12T08:02:35Z</time>
      </trkpt>
      <trkpt lat="41.556582" lon="1.783218">
        <ele>351.5</ele>
        <time>2014-10-12T08:02:40Z</time>
      </trkpt>
      <trkpt lat="41.556819" lon="1.783145">
        <ele>353.1</ele>
        <time>2014-10-12T08:02:45Z</time>
      </trkpt>
      <trkpt lat="41.556955" lon="1.783081">
        <ele>353.6</ele>
        <time>2014-10-12T08:02:48Z</time>
      </trkpt>
      <trkpt lat="41.557091" lon="1.783017">
        <ele>352.6</ele>
        <time>2014-10-12T08:02:51Z</time>
      </trkpt>
      <trkpt lat="41.557236" lon="1.782957">
        <ele>350.7</ele>
        <time>2014-10-12T08:02:54Z</time>
      </trkpt>
      <trkpt lat="41.557466" lon="1.782844">
        <ele>348.5</ele>
        <time>2014-10-12T08:02:59Z</time>
      </trkpt>
      <trkpt lat="41.557594" lon="1.782761">
        <ele>350.0</ele>
        <time>2014-10-12T08:03:03Z</time>
      </trkpt>
      <trkpt lat="41.557857" lon="1.782591">
        <ele>352.2</ele>
        <time>2014-10-12T08:03:08Z</time>
      </trkpt>
      <trkpt lat="41.558080" lon="1.782442">
        <ele>354.4</ele>
        <time>2014-10-12T08:03:13Z</time>
      </trkpt>
      <trkpt lat="41.558326" lon="1.782247">
        <ele>355.7</ele>
        <time>2014-10-12T08:03:20Z</time>
      </trkpt>
      <trkpt lat="41.558550" lon="1.782027">
        <ele>356.4</ele>
        <time>2014-10-12T08:03:25Z</time>
      </trkpt>
      <trkpt lat="41.558660" lon="1.781925">
        <ele>356.4</ele>
        <time>2014-10-12T08:03:29Z</time>
      </trkpt>
      <trkpt lat="41.558906" lon="1.781722">
        <ele>356.8</ele>
        <time>2014-10-12T08:03:34Z</time>
      </trkpt>
      <trkpt lat="41.559123" lon="1.781577">
        <ele>357.2</ele>
        <time>2014-10-12T08:03:39Z</time>
      </trkpt>
      <trkpt lat="41.559378" lon="1.781400">
        <ele>357.1</ele>
        <time>2014-10-12T08:03:45Z</time>
      </trkpt>
      <trkpt lat="41.559499" lon="1.781304">
        <ele>357.0</ele>
        <time>2014-10-12T08:03:48Z</time>
      </trkpt>
      <trkpt lat="41.559734" lon="1.781087">
        <ele>355.5</ele>
        <time>2014-10-12T08:03:54Z</time>
      </trkpt>
      <trkpt lat="41.559933" lon="1.780790">
        <ele>355.4</ele>
        <time>2014-10-12T08:04:00Z</time>
      </trkpt>
      <trkpt lat="41.560060" lon="1.780411">
        <ele>359.3</ele>
        <time>2014-10-12T08:04:06Z</time>
      </trkpt>
      <trkpt lat="41.560160" lon="1.780053">
        <ele>359.7</ele>
        <time>2014-10-12T08:04:12Z</time>
      </trkpt>
      <trkpt lat="41.560252" lon="1.779689">
        <ele>357.8</ele>
        <time>2014-10-12T08:04:18Z</time>
      </trkpt>
      <trkpt lat="41.560354" lon="1.779319">
        <ele>360.9</ele>
        <time>2014-10-12T08:04:25Z</time>
      </trkpt>
      <trkpt lat="41.560503" lon="1.778995">
        <ele>362.0</ele>
        <time>2014-10-12T08:04:30Z</time>
      </trkpt>
      <trkpt lat="41.560659" lon="1.778761">
        <ele>362.1</ele>
        <time>2014-10-12T08:04:35Z</time>
      </trkpt>
      <trkpt lat="41.560772" lon="1.778557">
        <ele>361.1</ele>
        <time>2014-10-12T08:04:39Z</time>
      </trkpt>
      <trkpt lat="41.560858" lon="1.778394">
        <ele>361.6</ele>
        <time>2014-10-12T08:04:42Z</time>
      </trkpt>
      <trkpt lat="41.561026" lon="1.778080">
        <ele>364.9</ele>
        <time>2014-10-12T08:04:48Z</time>
      </trkpt>
      <trkpt lat="41.561178" lon="1.777749">
        <ele>368.9</ele>
        <time>2014-10-12T08:04:54Z</time>
      </trkpt>
      <trkpt lat="41.561278" lon="1.777391">
        <ele>369.0</ele>
        <time>2014-10-12T08:05:00Z</time>
      </trkpt>
      <trkpt lat="41.561355" lon="1.777130">
        <ele>370.3</ele>
        <time>2014-10-12T08:05:05Z</time>
      </trkpt>
      <trkpt lat="41.561418" lon="1.776961">
        <ele>370.5</ele>
        <time>2014-10-12T08:05:08Z</time>
      </trkpt>
      <trkpt lat="41.561501" lon="1.776787">
        <ele>369.7</ele>
        <time>2014-10-12T08:05:11Z</time>
      </trkpt>
      <trkpt lat="41.561585" lon="1.776629">
        <ele>368.0</ele>
        <time>2014-10-12T08:05:14Z</time>
      </trkpt>
      <trkpt lat="41.561729" lon="1.776386">
        <ele>365.5</ele>
        <time>2014-10-12T08:05:19Z</time>
      </trkpt>
      <trkpt lat="41.561882" lon="1.776060">
        <ele>365.9</ele>
        <time>2014-10-12T08:05:25Z</time>
      </trkpt>
      <trkpt lat="41.561981" lon="1.775753">
        <ele>364.2</ele>
        <time>2014-10-12T08:05:32Z</time>
      </trkpt>
      <trkpt lat="41.562110" lon="1.775442">
        <ele>367.5</ele>
        <time>2014-10-12T08:05:37Z</time>
      </trkpt>
      <trkpt lat="41.562348" lon="1.775302">
        <ele>368.6</ele>
        <time>2014-10-12T08:05:44Z</time>
      </trkpt>
      <trkpt lat="41.562583" lon="1.775160">
        <ele>367.7</ele>
        <time>2014-10-12T08:05:49Z</time>
      </trkpt>
      <trkpt lat="41.562830" lon="1.775044">
        <ele>369.0</ele>
        <time>2014-10-12T08:05:55Z</time>
      </trkpt>
      <trkpt lat="41.563050" lon="1.775064">
        <ele>369.1</ele>
        <time>2014-10-12T08:06:02Z</time>
      </trkpt>
      <trkpt lat="41.563314" lon="1.775234">
        <ele>368.4</ele>
        <time>2014-10-12T08:06:10Z</time>
      </trkpt>
      <trkpt lat="41.563439" lon="1.775347">
        <ele>367.5</ele>
        <time>2014-10-12T08:06:15Z</time>
      </trkpt>
      <trkpt lat="41.563533" lon="1.775410">
        <ele>366.9</ele>
        <time>2014-10-12T08:06:18Z</time>
      </trkpt>
      <trkpt lat="41.563757" lon="1.775466">
        <ele>365.1</ele>
        <time>2014-10-12T08:06:26Z</time>
      </trkpt>
      <trkpt lat="41.563973" lon="1.775345">
        <ele>363.8</ele>
        <time>2014-10-12T08:06:32Z</time>
      </trkpt>
      <trkpt lat="41.564191" lon="1.775192">
        <ele>363.3</ele>
        <time>2014-10-12T08:06:41Z</time>
      </trkpt>
      <trkpt lat="41.564386" lon="1.774941">
        <ele>362.6</ele>
        <time>2014-10-12T08:06:48Z</time>
      </trkpt>
      <trkpt lat="41.564503" lon="1.774705">
        <ele>362.4</ele>
        <time>2014-10-12T08:06:54Z</time>
      </trkpt>
      <trkpt lat="41.564536" lon="1.774451">
        <ele>362.3</ele>
        <time>2014-10-12T08:07:00Z</time>
      </trkpt>
      <trkpt lat="41.564475" lon="1.774267">
        <ele>361.8</ele>
        <time>2014-10-12T08:07:05Z</time>
      </trkpt>
      <trkpt lat="41.564299" lon="1.774028">
        <ele>361.4</ele>
        <time>2014-10-12T08:07:13Z</time>
      </trkpt>
      <trkpt lat="41.564069" lon="1.773856">
        <ele>360.8</ele>
        <time>2014-10-12T08:07:21Z</time>
      </trkpt>
      <trkpt lat="41.563905" lon="1.773682">
        <ele>360.6</ele>
        <time>2014-10-12T08:07:28Z</time>
      </trkpt>
      <trkpt lat="41.563848" lon="1.773412">
        <ele>360.4</ele>
        <time>2014-10-12T08:07:34Z</time>
      </trkpt>
      <trkpt lat="41.563805" lon="1.773115">
        <ele>360.3</ele>
        <time>2014-10-12T08:07:41Z</time>
      </trkpt>
      <trkpt lat="41.563785" lon="1.772770">
        <ele>360.3</ele>
        <time>2014-10-12T08:07:49Z</time>
      </trkpt>
      <trkpt lat="41.563789" lon="1.772462">
        <ele>360.5</ele>
        <time>2014-10-12T08:07:58Z</time>
      </trkpt>
      <trkpt lat="41.563789" lon="1.772462">
        <ele>360.5</ele>
        <time>2014-10-12T08:08:05Z</time>
      </trkpt>
      <trkpt lat="41.563789" lon="1.772462">
        <ele>360.5</ele>
        <time>2014-10-12T08:08:06Z</time>
      </trkpt>
      <trkpt lat="41.563657" lon="1.772273">
        <ele>362.7</ele>
        <time>2014-10-12T08:08:19Z</time>
      </trkpt>
      <trkpt lat="41.563621" lon="1.772039">
        <ele>363.3</ele>
        <time>2014-10-12T08:08:24Z</time>
      </trkpt>
      <trkpt lat="41.563630" lon="1.771775">
        <ele>364.1</ele>
        <time>2014-10-12T08:08:32Z</time>
      </trkpt>
      <trkpt lat="41.563713" lon="1.771605">
        <ele>364.7</ele>
        <time>2014-10-12T08:08:37Z</time>
      </trkpt>
      <trkpt lat="41.563916" lon="1.771476">
        <ele>365.6</ele>
        <time>2014-10-12T08:08:45Z</time>
      </trkpt>
      <trkpt lat="41.564177" lon="1.771365">
        <ele>367.8</ele>
        <time>2014-10-12T08:08:54Z</time>
      </trkpt>
      <trkpt lat="41.564342" lon="1.771367">
        <ele>369.4</ele>
        <time>2014-10-12T08:09:00Z</time>
      </trkpt>
      <trkpt lat="41.564548" lon="1.771395">
        <ele>373.4</ele>
        <time>2014-10-12T08:09:09Z</time>
      </trkpt>
      <trkpt lat="41.564795" lon="1.771355">
        <ele>377.5</ele>
        <time>2014-10-12T08:09:20Z</time>
      </trkpt>
      <trkpt lat="41.565048" lon="1.771480">
        <ele>378.7</ele>
        <time>2014-10-12T08:09:29Z</time>
      </trkpt>
      <trkpt lat="41.565179" lon="1.771445">
        <ele>378.7</ele>
        <time>2014-10-12T08:09:34Z</time>
      </trkpt>
      <trkpt lat="41.565396" lon="1.771308">
        <ele>380.2</ele>
        <time>2014-10-12T08:09:45Z</time>
      </trkpt>
      <trkpt lat="41.565628" lon="1.771228">
        <ele>381.8</ele>
        <time>2014-10-12T08:09:53Z</time>
      </trkpt>
      <trkpt lat="41.565833" lon="1.771243">
        <ele>382.9</ele>
        <time>2014-10-12T08:09:58Z</time>
      </trkpt>
      <trkpt lat="41.565944" lon="1.771226">
        <ele>383.7</ele>
        <time>2014-10-12T08:10:02Z</time>
      </trkpt>
      <trkpt lat="41.566043" lon="1.771206">
        <ele>384.3</ele>
        <time>2014-10-12T08:10:06Z</time>
      </trkpt>
      <trkpt lat="41.566253" lon="1.771123">
        <ele>385.5</ele>
        <time>2014-10-12T08:10:16Z</time>
      </trkpt>
      <trkpt lat="41.566459" lon="1.770988">
        <ele>385.0</ele>
        <time>2014-10-12T08:10:25Z</time>
      </trkpt>
      <trkpt lat="41.566459" lon="1.770988">
        <ele>385.0</ele>
        <time>2014-10-12T08:10:32Z</time>
      </trkpt>
      <trkpt lat="41.566459" lon="1.770988">
        <ele>385.0</ele>
        <time>2014-10-12T08:10:33Z</time>
      </trkpt>
      <trkpt lat="41.566586" lon="1.770801">
        <ele>383.3</ele>
        <time>2014-10-12T08:10:50Z</time>
      </trkpt>
      <trkpt lat="41.566680" lon="1.770678">
        <ele>383.0</ele>
        <time>2014-10-12T08:10:57Z</time>
      </trkpt>
      <trkpt lat="41.566871" lon="1.770434">
        <ele>382.7</ele>
        <time>2014-10-12T08:11:06Z</time>
      </trkpt>
      <trkpt lat="41.566982" lon="1.770271">
        <ele>382.5</ele>
        <time>2014-10-12T08:11:13Z</time>
      </trkpt>
      <trkpt lat="41.567190" lon="1.770018">
        <ele>383.3</ele>
        <time>2014-10-12T08:11:21Z</time>
      </trkpt>
      <trkpt lat="41.567366" lon="1.769939">
        <ele>384.0</ele>
        <time>2014-10-12T08:11:27Z</time>
      </trkpt>
      <trkpt lat="41.567563" lon="1.770052">
        <ele>384.5</ele>
        <time>2014-10-12T08:11:35Z</time>
      </trkpt>
      <trkpt lat="41.567793" lon="1.770064">
        <ele>384.4</ele>
        <time>2014-10-12T08:11:42Z</time>
      </trkpt>
      <trkpt lat="41.567968" lon="1.769910">
        <ele>384.3</ele>
        <time>2014-10-12T08:11:48Z</time>
      </trkpt>
      <trkpt lat="41.568122" lon="1.769645">
        <ele>384.3</ele>
        <time>2014-10-12T08:11:55Z</time>
      </trkpt>
      <trkpt lat="41.568272" lon="1.769446">
        <ele>384.3</ele>
        <time>2014-10-12T08:12:02Z</time>
      </trkpt>
      <trkpt lat="41.568432" lon="1.769328">
        <ele>384.3</ele>
        <time>2014-10-12T08:12:07Z</time>
      </trkpt>
      <trkpt lat="41.568575" lon="1.769257">
        <ele>384.5</ele>
        <time>2014-10-12T08:12:11Z</time>
      </trkpt>
      <trkpt lat="41.568765" lon="1.769296">
        <ele>384.6</ele>
        <time>2014-10-12T08:12:16Z</time>
      </trkpt>
      <trkpt lat="41.568953" lon="1.769289">
        <ele>384.8</ele>
        <time>2014-10-12T08:12:23Z</time>
      </trkpt>
      <trkpt lat="41.569090" lon="1.769325">
        <ele>384.8</ele>
        <time>2014-10-12T08:12:28Z</time>
      </trkpt>
      <trkpt lat="41.569299" lon="1.769438">
        <ele>384.6</ele>
        <time>2014-10-12T08:12:35Z</time>
      </trkpt>
      <trkpt lat="41.569373" lon="1.769479">
        <ele>384.4</ele>
        <time>2014-10-12T08:12:38Z</time>
      </trkpt>
      <trkpt lat="41.569622" lon="1.769673">
        <ele>384.2</ele>
        <time>2014-10-12T08:12:47Z</time>
      </trkpt>
      <trkpt lat="41.569700" lon="1.769715">
        <ele>384.0</ele>
        <time>2014-10-12T08:12:52Z</time>
      </trkpt>
      <trkpt lat="41.569802" lon="1.769822">
        <ele>383.8</ele>
        <time>2014-10-12T08:13:00Z</time>
      </trkpt>
      <trkpt lat="41.570048" lon="1.769946">
        <ele>382.9</ele>
        <time>2014-10-12T08:13:12Z</time>
      </trkpt>
      <trkpt lat="41.570272" lon="1.769819">
        <ele>382.6</ele>
        <time>2014-10-12T08:13:23Z</time>
      </trkpt>
      <trkpt lat="41.570431" lon="1.769658">
        <ele>382.9</ele>
        <time>2014-10-12T08:13:30Z</time>
      </trkpt>
      <trkpt lat="41.570570" lon="1.769543">
        <ele>383.8</ele>
        <time>2014-10-12T08:13:37Z</time>
      </trkpt>
      <trkpt lat="41.570818" lon="1.769397">
        <ele>386.0</ele>
        <time>2014-10-12T08:13:48Z</time>
      </trkpt>
      <trkpt lat="41.571004" lon="1.769296">
        <ele>387.2</ele>
        <time>2014-10-12T08:13:56Z</time>
      </trkpt>
      <trkpt lat="41.571197" lon="1.769261">
        <ele>388.2</ele>
        <time>2014-10-12T08:14:03Z</time>
      </trkpt>
      <trkpt lat="41.571394" lon="1.769270">
        <ele>389.3</ele>
        <time>2014-10-12T08:14:10Z</time>
      </trkpt>
      <trkpt lat="41.571518" lon="1.769240">
        <ele>390.3</ele>
        <time>2014-10-12T08:14:15Z</time>
      </trkpt>
      <trkpt lat="41.571710" lon="1.769165">
        <ele>391.8</ele>
        <time>2014-10-12T08:14:23Z</time>
      </trkpt>
      <trkpt lat="41.571888" lon="1.769109">
        <ele>392.1</ele>
        <time>2014-10-12T08:14:31Z</time>
      </trkpt>
      <trkpt lat="41.572026" lon="1.769030">
        <ele>392.3</ele>
        <time>2014-10-12T08:14:37Z</time>
      </trkpt>
      <trkpt lat="41.572154" lon="1.768965">
        <ele>392.1</ele>
        <time>2014-10-12T08:14:42Z</time>
      </trkpt>
      <trkpt lat="41.572281" lon="1.768979">
        <ele>391.7</ele>
        <time>2014-10-12T08:14:47Z</time>
      </trkpt>
      <trkpt lat="41.572559" lon="1.768958">
        <ele>390.9</ele>
        <time>2014-10-12T08:14:56Z</time>
      </trkpt>
      <trkpt lat="41.572689" lon="1.769016">
        <ele>390.6</ele>
        <time>2014-10-12T08:15:04Z</time>
      </trkpt>
      <trkpt lat="41.573007" lon="1.769175">
        <ele>390.2</ele>
        <time>2014-10-12T08:15:17Z</time>
      </trkpt>
      <trkpt lat="41.573220" lon="1.769263">
        <ele>390.1</ele>
        <time>2014-10-12T08:15:26Z</time>
      </trkpt>
      <trkpt lat="41.573273" lon="1.769262">
        <ele>390.5</ele>
        <time>2014-10-12T08:15:29Z</time>
      </trkpt>
      <trkpt lat="41.573342" lon="1.769190">
        <ele>391.7</ele>
        <time>2014-10-12T08:15:41Z</time>
      </trkpt>
      <trkpt lat="41.573528" lon="1.769237">
        <ele>392.6</ele>
        <time>2014-10-12T08:15:51Z</time>
      </trkpt>
      <trkpt lat="41.573797" lon="1.769252">
        <ele>394.4</ele>
        <time>2014-10-12T08:16:02Z</time>
      </trkpt>
      <trkpt lat="41.573838" lon="1.769280">
        <ele>394.8</ele>
        <time>2014-10-12T08:16:05Z</time>
      </trkpt>
      <trkpt lat="41.573956" lon="1.769284">
        <ele>397.0</ele>
        <time>2014-10-12T08:16:16Z</time>
      </trkpt>
      <trkpt lat="41.574135" lon="1.769120">
        <ele>398.6</ele>
        <time>2014-10-12T08:16:24Z</time>
      </trkpt>
      <trkpt lat="41.574274" lon="1.769025">
        <ele>399.6</ele>
        <time>2014-10-12T08:16:29Z</time>
      </trkpt>
      <trkpt lat="41.574399" lon="1.768993">
        <ele>401.1</ele>
        <time>2014-10-12T08:16:34Z</time>
      </trkpt>
      <trkpt lat="41.574511" lon="1.768941">
        <ele>402.3</ele>
        <time>2014-10-12T08:16:39Z</time>
      </trkpt>
      <trkpt lat="41.574511" lon="1.768941">
        <ele>402.3</ele>
        <time>2014-10-12T08:16:44Z</time>
      </trkpt>
      <trkpt lat="41.574511" lon="1.768941">
        <ele>402.3</ele>
        <time>2014-10-12T08:16:46Z</time>
      </trkpt>
      <trkpt lat="41.574303" lon="1.769204">
        <ele>408.1</ele>
        <time>2014-10-12T08:16:57Z</time>
      </trkpt>
      <trkpt lat="41.574137" lon="1.769381">
        <ele>410.7</ele>
        <time>2014-10-12T08:17:08Z</time>
      </trkpt>
      <trkpt lat="41.573998" lon="1.769462">
        <ele>411.9</ele>
        <time>2014-10-12T08:17:15Z</time>
      </trkpt>
      <trkpt lat="41.573871" lon="1.769531">
        <ele>412.8</ele>
        <time>2014-10-12T08:17:22Z</time>
      </trkpt>
      <trkpt lat="41.573677" lon="1.769600">
        <ele>413.4</ele>
        <time>2014-10-12T08:17:30Z</time>
      </trkpt>
      <trkpt lat="41.573537" lon="1.769654">
        <ele>413.3</ele>
        <time>2014-10-12T08:17:36Z</time>
      </trkpt>
      <trkpt lat="41.573392" lon="1.769676">
        <ele>413.4</ele>
        <time>2014-10-12T08:17:42Z</time>
      </trkpt>
      <trkpt lat="41.573221" lon="1.769654">
        <ele>413.5</ele>
        <time>2014-10-12T08:17:50Z</time>
      </trkpt>
      <trkpt lat="41.573140" lon="1.769642">
        <ele>413.6</ele>
        <time>2014-10-12T08:17:54Z</time>
      </trkpt>
      <trkpt lat="41.573039" lon="1.769590">
        <ele>414.2</ele>
        <time>2014-10-12T08:17:59Z</time>
      </trkpt>
      <trkpt lat="41.572882" lon="1.769477">
        <ele>415.9</ele>
        <time>2014-10-12T08:18:08Z</time>
      </trkpt>
      <trkpt lat="41.572669" lon="1.769582">
        <ele>417.4</ele>
        <time>2014-10-12T08:18:20Z</time>
      </trkpt>
      <trkpt lat="41.572519" lon="1.769705">
        <ele>419.0</ele>
        <time>2014-10-12T08:18:27Z</time>
      </trkpt>
      <trkpt lat="41.572393" lon="1.769776">
        <ele>419.9</ele>
        <time>2014-10-12T08:18:33Z</time>
      </trkpt>
      <trkpt lat="41.572237" lon="1.769852">
        <ele>420.6</ele>
        <time>2014-10-12T08:18:41Z</time>
      </trkpt>
      <trkpt lat="41.572029" lon="1.769991">
        <ele>421.1</ele>
        <time>2014-10-12T08:18:50Z</time>
      </trkpt>
      <trkpt lat="41.571854" lon="1.769896">
        <ele>420.2</ele>
        <time>2014-10-12T08:19:00Z</time>
      </trkpt>
      <trkpt lat="41.571727" lon="1.769823">
        <ele>419.4</ele>
        <time>2014-10-12T08:19:06Z</time>
      </trkpt>
      <trkpt lat="41.571599" lon="1.769780">
        <ele>419.6</ele>
        <time>2014-10-12T08:19:12Z</time>
      </trkpt>
      <trkpt lat="41.571451" lon="1.769744">
        <ele>420.7</ele>
        <time>2014-10-12T08:19:20Z</time>
      </trkpt>
      <trkpt lat="41.571210" lon="1.769923">
        <ele>424.4</ele>
        <time>2014-10-12T08:19:32Z</time>
      </trkpt>
      <trkpt lat="41.571150" lon="1.770179">
        <ele>425.7</ele>
        <time>2014-10-12T08:19:41Z</time>
      </trkpt>
      <trkpt lat="41.571240" lon="1.770477">
        <ele>426.8</ele>
        <time>2014-10-12T08:19:51Z</time>
      </trkpt>
      <trkpt lat="41.571296" lon="1.770797">
        <ele>427.1</ele>
        <time>2014-10-12T08:20:00Z</time>
      </trkpt>
      <trkpt lat="41.571269" lon="1.771018">
        <ele>427.6</ele>
        <time>2014-10-12T08:20:06Z</time>
      </trkpt>
      <trkpt lat="41.571257" lon="1.771211">
        <ele>427.9</ele>
        <time>2014-10-12T08:20:12Z</time>
      </trkpt>
      <trkpt lat="41.571138" lon="1.771217">
        <ele>428.2</ele>
        <time>2014-10-12T08:20:18Z</time>
      </trkpt>
      <trkpt lat="41.571043" lon="1.771092">
        <ele>428.0</ele>
        <time>2014-10-12T08:20:24Z</time>
      </trkpt>
      <trkpt lat="41.570924" lon="1.770970">
        <ele>427.4</ele>
        <time>2014-10-12T08:20:30Z</time>
      </trkpt>
      <trkpt lat="41.570816" lon="1.770914">
        <ele>427.5</ele>
        <time>2014-10-12T08:20:35Z</time>
      </trkpt>
      <trkpt lat="41.570670" lon="1.770784">
        <ele>427.7</ele>
        <time>2014-10-12T08:20:42Z</time>
      </trkpt>
      <trkpt lat="41.570505" lon="1.770627">
        <ele>428.8</ele>
        <time>2014-10-12T08:20:51Z</time>
      </trkpt>
      <trkpt lat="41.570326" lon="1.770759">
        <ele>431.2</ele>
        <time>2014-10-12T08:21:00Z</time>
      </trkpt>
      <trkpt lat="41.570188" lon="1.770901">
        <ele>433.1</ele>
        <time>2014-10-12T08:21:06Z</time>
      </trkpt>
      <trkpt lat="41.570032" lon="1.770864">
        <ele>436.0</ele>
        <time>2014-10-12T08:21:13Z</time>
      </trkpt>
      <trkpt lat="41.569856" lon="1.770791">
        <ele>439.5</ele>
        <time>2014-10-12T08:21:20Z</time>
      </trkpt>
      <trkpt lat="41.569726" lon="1.770900">
        <ele>441.8</ele>
        <time>2014-10-12T08:21:29Z</time>
      </trkpt>
      <trkpt lat="41.569809" lon="1.771111">
        <ele>443.8</ele>
        <time>2014-10-12T08:21:37Z</time>
      </trkpt>
      <trkpt lat="41.569983" lon="1.771320">
        <ele>445.8</ele>
        <time>2014-10-12T08:21:45Z</time>
      </trkpt>
      <trkpt lat="41.570087" lon="1.771461">
        <ele>446.9</ele>
        <time>2014-10-12T08:21:51Z</time>
      </trkpt>
      <trkpt lat="41.570209" lon="1.771695">
        <ele>448.9</ele>
        <time>2014-10-12T08:21:59Z</time>
      </trkpt>
      <trkpt lat="41.570143" lon="1.771889">
        <ele>450.6</ele>
        <time>2014-10-12T08:22:10Z</time>
      </trkpt>
      <trkpt lat="41.569897" lon="1.771971">
        <ele>453.6</ele>
        <time>2014-10-12T08:22:24Z</time>
      </trkpt>
      <trkpt lat="41.570055" lon="1.772253">
        <ele>455.1</ele>
        <time>2014-10-12T08:22:38Z</time>
      </trkpt>
      <trkpt lat="41.570104" lon="1.772443">
        <ele>455.5</ele>
        <time>2014-10-12T08:22:45Z</time>
      </trkpt>
      <trkpt lat="41.570109" lon="1.772706">
        <ele>458.0</ele>
        <time>2014-10-12T08:22:56Z</time>
      </trkpt>
      <trkpt lat="41.569928" lon="1.772978">
        <ele>460.9</ele>
        <time>2014-10-12T08:23:08Z</time>
      </trkpt>
      <trkpt lat="41.569883" lon="1.773280">
        <ele>461.6</ele>
        <time>2014-10-12T08:23:17Z</time>
      </trkpt>
      <trkpt lat="41.569834" lon="1.773449">
        <ele>462.2</ele>
        <time>2014-10-12T08:23:22Z</time>
      </trkpt>
      <trkpt lat="41.569789" lon="1.773600">
        <ele>462.9</ele>
        <time>2014-10-12T08:23:28Z</time>
      </trkpt>
      <trkpt lat="41.570012" lon="1.773876">
        <ele>471.4</ele>
        <time>2014-10-12T08:23:36Z</time>
      </trkpt>
      <trkpt lat="41.570197" lon="1.773872">
        <ele>472.9</ele>
        <time>2014-10-12T08:23:41Z</time>
      </trkpt>
      <trkpt lat="41.570456" lon="1.773895">
        <ele>474.1</ele>
        <time>2014-10-12T08:23:49Z</time>
      </trkpt>
      <trkpt lat="41.570634" lon="1.774120">
        <ele>474.8</ele>
        <time>2014-10-12T08:23:57Z</time>
      </trkpt>
      <trkpt lat="41.570853" lon="1.774237">
        <ele>475.2</ele>
        <time>2014-10-12T08:24:05Z</time>
      </trkpt>
      <trkpt lat="41.571140" lon="1.774202">
        <ele>475.8</ele>
        <time>2014-10-12T08:24:13Z</time>
      </trkpt>
      <trkpt lat="41.571328" lon="1.774281">
        <ele>476.3</ele>
        <time>2014-10-12T08:24:20Z</time>
      </trkpt>
      <trkpt lat="41.571491" lon="1.774370">
        <ele>476.9</ele>
        <time>2014-10-12T08:24:26Z</time>
      </trkpt>
      <trkpt lat="41.571762" lon="1.774463">
        <ele>479.7</ele>
        <time>2014-10-12T08:24:35Z</time>
      </trkpt>
      <trkpt lat="41.571894" lon="1.774777">
        <ele>486.8</ele>
        <time>2014-10-12T08:24:41Z</time>
      </trkpt>
      <trkpt lat="41.572213" lon="1.775150">
        <ele>487.9</ele>
        <time>2014-10-12T08:24:48Z</time>
      </trkpt>
      <trkpt lat="41.572474" lon="1.774901">
        <ele>484.3</ele>
        <time>2014-10-12T08:24:54Z</time>
      </trkpt>
      <trkpt lat="41.572563" lon="1.774523">
        <ele>482.8</ele>
        <time>2014-10-12T08:25:00Z</time>
      </trkpt>
      <trkpt lat="41.572647" lon="1.774246">
        <ele>482.9</ele>
        <time>2014-10-12T08:25:06Z</time>
      </trkpt>
      <trkpt lat="41.572789" lon="1.774007">
        <ele>483.2</ele>
        <time>2014-10-12T08:25:12Z</time>
      </trkpt>
      <trkpt lat="41.572921" lon="1.773848">
        <ele>483.7</ele>
        <time>2014-10-12T08:25:17Z</time>
      </trkpt>
      <trkpt lat="41.573131" lon="1.773646">
        <ele>484.8</ele>
        <time>2014-10-12T08:25:25Z</time>
      </trkpt>
      <trkpt lat="41.573347" lon="1.773485">
        <ele>486.5</ele>
        <time>2014-10-12T08:25:33Z</time>
      </trkpt>
      <trkpt lat="41.573506" lon="1.773351">
        <ele>487.7</ele>
        <time>2014-10-12T08:25:39Z</time>
      </trkpt>
      <trkpt lat="41.573757" lon="1.773116">
        <ele>491.1</ele>
        <time>2014-10-12T08:25:47Z</time>
      </trkpt>
      <trkpt lat="41.573946" lon="1.773241">
        <ele>493.5</ele>
        <time>2014-10-12T08:25:53Z</time>
      </trkpt>
      <trkpt lat="41.573808" lon="1.773626">
        <ele>490.5</ele>
        <time>2014-10-12T08:25:59Z</time>
      </trkpt>
      <trkpt lat="41.573684" lon="1.774074">
        <ele>485.8</ele>
        <time>2014-10-12T08:26:07Z</time>
      </trkpt>
      <trkpt lat="41.573528" lon="1.774420">
        <ele>489.4</ele>
        <time>2014-10-12T08:26:15Z</time>
      </trkpt>
      <trkpt lat="41.573487" lon="1.774772">
        <ele>492.6</ele>
        <time>2014-10-12T08:26:22Z</time>
      </trkpt>
      <trkpt lat="41.573663" lon="1.774998">
        <ele>496.8</ele>
        <time>2014-10-12T08:26:28Z</time>
      </trkpt>
      <trkpt lat="41.573796" lon="1.775179">
        <ele>497.7</ele>
        <time>2014-10-12T08:26:34Z</time>
      </trkpt>
      <trkpt lat="41.573761" lon="1.775604">
        <ele>498.7</ele>
        <time>2014-10-12T08:26:42Z</time>
      </trkpt>
      <trkpt lat="41.574060" lon="1.775789">
        <ele>500.9</ele>
        <time>2014-10-12T08:26:48Z</time>
      </trkpt>
      <trkpt lat="41.574352" lon="1.775865">
        <ele>501.5</ele>
        <time>2014-10-12T08:26:55Z</time>
      </trkpt>
      <trkpt lat="41.574566" lon="1.775983">
        <ele>500.0</ele>
        <time>2014-10-12T08:27:02Z</time>
      </trkpt>
      <trkpt lat="41.574658" lon="1.776324">
        <ele>499.5</ele>
        <time>2014-10-12T08:27:09Z</time>
      </trkpt>
      <trkpt lat="41.574846" lon="1.776329">
        <ele>498.2</ele>
        <time>2014-10-12T08:27:15Z</time>
      </trkpt>
      <trkpt lat="41.575017" lon="1.776103">
        <ele>497.5</ele>
        <time>2014-10-12T08:27:22Z</time>
      </trkpt>
      <trkpt lat="41.575159" lon="1.775895">
        <ele>497.5</ele>
        <time>2014-10-12T08:27:28Z</time>
      </trkpt>
      <trkpt lat="41.575354" lon="1.775982">
        <ele>497.8</ele>
        <time>2014-10-12T08:27:35Z</time>
      </trkpt>
      <trkpt lat="41.575491" lon="1.776219">
        <ele>498.1</ele>
        <time>2014-10-12T08:27:41Z</time>
      </trkpt>
      <trkpt lat="41.575442" lon="1.776434">
        <ele>500.6</ele>
        <time>2014-10-12T08:27:47Z</time>
      </trkpt>
      <trkpt lat="41.575634" lon="1.776663">
        <ele>506.6</ele>
        <time>2014-10-12T08:27:55Z</time>
      </trkpt>
      <trkpt lat="41.575889" lon="1.776795">
        <ele>510.2</ele>
        <time>2014-10-12T08:28:02Z</time>
      </trkpt>
      <trkpt lat="41.575894" lon="1.777117">
        <ele>512.3</ele>
        <time>2014-10-12T08:28:08Z</time>
      </trkpt>
      <trkpt lat="41.575710" lon="1.777415">
        <ele>515.7</ele>
        <time>2014-10-12T08:28:15Z</time>
      </trkpt>
      <trkpt lat="41.575574" lon="1.777673">
        <ele>517.4</ele>
        <time>2014-10-12T08:28:21Z</time>
      </trkpt>
      <trkpt lat="41.575577" lon="1.777954">
        <ele>516.7</ele>
        <time>2014-10-12T08:28:26Z</time>
      </trkpt>
      <trkpt lat="41.575525" lon="1.778145">
        <ele>516.9</ele>
        <time>2014-10-12T08:28:32Z</time>
      </trkpt>
      <trkpt lat="41.575524" lon="1.778159">
        <ele>516.9</ele>
        <time>2014-10-12T08:28:39Z</time>
      </trkpt>
      <trkpt lat="41.575250" lon="1.778277">
        <ele>521.7</ele>
        <time>2014-10-12T08:31:43Z</time>
      </trkpt>
      <trkpt lat="41.574995" lon="1.778425">
        <ele>520.4</ele>
        <time>2014-10-12T08:31:49Z</time>
      </trkpt>
      <trkpt lat="41.574876" lon="1.778485">
        <ele>519.1</ele>
        <time>2014-10-12T08:31:52Z</time>
      </trkpt>
      <trkpt lat="41.574696" lon="1.778573">
        <ele>519.3</ele>
        <time>2014-10-12T08:31:57Z</time>
      </trkpt>
      <trkpt lat="41.574385" lon="1.778756">
        <ele>516.6</ele>
        <time>2014-10-12T08:32:02Z</time>
      </trkpt>
      <trkpt lat="41.574188" lon="1.778958">
        <ele>515.5</ele>
        <time>2014-10-12T08:32:08Z</time>
      </trkpt>
      <trkpt lat="41.574217" lon="1.779376">
        <ele>515.9</ele>
        <time>2014-10-12T08:32:13Z</time>
      </trkpt>
      <trkpt lat="41.574289" lon="1.779756">
        <ele>515.5</ele>
        <time>2014-10-12T08:32:18Z</time>
      </trkpt>
      <trkpt lat="41.574352" lon="1.780338">
        <ele>512.8</ele>
        <time>2014-10-12T08:32:24Z</time>
      </trkpt>
      <trkpt lat="41.574418" lon="1.780799">
        <ele>510.7</ele>
        <time>2014-10-12T08:32:31Z</time>
      </trkpt>
      <trkpt lat="41.574565" lon="1.780814">
        <ele>510.4</ele>
        <time>2014-10-12T08:32:38Z</time>
      </trkpt>
      <trkpt lat="41.574424" lon="1.781107">
        <ele>509.5</ele>
        <time>2014-10-12T08:32:46Z</time>
      </trkpt>
      <trkpt lat="41.574155" lon="1.781297">
        <ele>506.0</ele>
        <time>2014-10-12T08:32:54Z</time>
      </trkpt>
      <trkpt lat="41.573887" lon="1.781588">
        <ele>503.6</ele>
        <time>2014-10-12T08:32:59Z</time>
      </trkpt>
      <trkpt lat="41.573759" lon="1.781710">
        <ele>503.6</ele>
        <time>2014-10-12T08:33:02Z</time>
      </trkpt>
      <trkpt lat="41.573640" lon="1.781835">
        <ele>504.1</ele>
        <time>2014-10-12T08:33:06Z</time>
      </trkpt>
      <trkpt lat="41.573514" lon="1.781994">
        <ele>503.1</ele>
        <time>2014-10-12T08:33:08Z</time>
      </trkpt>
      <trkpt lat="41.573274" lon="1.782283">
        <ele>502.3</ele>
        <time>2014-10-12T08:33:14Z</time>
      </trkpt>
      <trkpt lat="41.572990" lon="1.782440">
        <ele>501.8</ele>
        <time>2014-10-12T08:33:19Z</time>
      </trkpt>
      <trkpt lat="41.572689" lon="1.782301">
        <ele>501.2</ele>
        <time>2014-10-12T08:33:25Z</time>
      </trkpt>
      <trkpt lat="41.572390" lon="1.781948">
        <ele>501.3</ele>
        <time>2014-10-12T08:33:31Z</time>
      </trkpt>
      <trkpt lat="41.572195" lon="1.781609">
        <ele>500.2</ele>
        <time>2014-10-12T08:33:36Z</time>
      </trkpt>
      <trkpt lat="41.571902" lon="1.781317">
        <ele>498.2</ele>
        <time>2014-10-12T08:33:41Z</time>
      </trkpt>
      <trkpt lat="41.571636" lon="1.781247">
        <ele>496.8</ele>
        <time>2014-10-12T08:33:46Z</time>
      </trkpt>
      <trkpt lat="41.571496" lon="1.781028">
        <ele>496.5</ele>
        <time>2014-10-12T08:33:48Z</time>
      </trkpt>
      <trkpt lat="41.571187" lon="1.780632">
        <ele>496.5</ele>
        <time>2014-10-12T08:33:55Z</time>
      </trkpt>
      <trkpt lat="41.570826" lon="1.780652">
        <ele>497.3</ele>
        <time>2014-10-12T08:34:00Z</time>
      </trkpt>
      <trkpt lat="41.570396" lon="1.780748">
        <ele>499.0</ele>
        <time>2014-10-12T08:34:06Z</time>
      </trkpt>
      <trkpt lat="41.569924" lon="1.781083">
        <ele>497.7</ele>
        <time>2014-10-12T08:34:11Z</time>
      </trkpt>
      <trkpt lat="41.569385" lon="1.781266">
        <ele>495.1</ele>
        <time>2014-10-12T08:34:17Z</time>
      </trkpt>
      <trkpt lat="41.568843" lon="1.781572">
        <ele>492.3</ele>
        <time>2014-10-12T08:34:23Z</time>
      </trkpt>
      <trkpt lat="41.568404" lon="1.781977">
        <ele>489.3</ele>
        <time>2014-10-12T08:34:29Z</time>
      </trkpt>
      <trkpt lat="41.568143" lon="1.782223">
        <ele>488.0</ele>
        <time>2014-10-12T08:34:31Z</time>
      </trkpt>
      <trkpt lat="41.567631" lon="1.782745">
        <ele>484.0</ele>
        <time>2014-10-12T08:34:37Z</time>
      </trkpt>
      <trkpt lat="41.567319" lon="1.783289">
        <ele>485.0</ele>
        <time>2014-10-12T08:34:43Z</time>
      </trkpt>
      <trkpt lat="41.567089" lon="1.783567">
        <ele>493.7</ele>
        <time>2014-10-12T08:34:50Z</time>
      </trkpt>
      <trkpt lat="41.566926" lon="1.783688">
        <ele>495.8</ele>
        <time>2014-10-12T08:34:55Z</time>
      </trkpt>
      <trkpt lat="41.566839" lon="1.783928">
        <ele>496.0</ele>
        <time>2014-10-12T08:35:01Z</time>
      </trkpt>
      <trkpt lat="41.566770" lon="1.784159">
        <ele>497.1</ele>
        <time>2014-10-12T08:35:07Z</time>
      </trkpt>
      <trkpt lat="41.566602" lon="1.784344">
        <ele>500.4</ele>
        <time>2014-10-12T08:35:13Z</time>
      </trkpt>
      <trkpt lat="41.566295" lon="1.784662">
        <ele>500.5</ele>
        <time>2014-10-12T08:35:18Z</time>
      </trkpt>
      <trkpt lat="41.566129" lon="1.784851">
        <ele>498.9</ele>
        <time>2014-10-12T08:35:21Z</time>
      </trkpt>
      <trkpt lat="41.565904" lon="1.785060">
        <ele>497.2</ele>
        <time>2014-10-12T08:35:27Z</time>
      </trkpt>
      <trkpt lat="41.565689" lon="1.785190">
        <ele>502.1</ele>
        <time>2014-10-12T08:35:33Z</time>
      </trkpt>
      <trkpt lat="41.565398" lon="1.785446">
        <ele>504.2</ele>
        <time>2014-10-12T08:35:38Z</time>
      </trkpt>
      <trkpt lat="41.565246" lon="1.785629">
        <ele>502.6</ele>
        <time>2014-10-12T08:35:43Z</time>
      </trkpt>
      <trkpt lat="41.565215" lon="1.785884">
        <ele>498.6</ele>
        <time>2014-10-12T08:35:47Z</time>
      </trkpt>
      <trkpt lat="41.565161" lon="1.786057">
        <ele>497.7</ele>
        <time>2014-10-12T08:35:51Z</time>
      </trkpt>
      <trkpt lat="41.565259" lon="1.786334">
        <ele>495.8</ele>
        <time>2014-10-12T08:35:59Z</time>
      </trkpt>
      <trkpt lat="41.565356" lon="1.786567">
        <ele>494.7</ele>
        <time>2014-10-12T08:36:04Z</time>
      </trkpt>
      <trkpt lat="41.565357" lon="1.786911">
        <ele>490.3</ele>
        <time>2014-10-12T08:36:11Z</time>
      </trkpt>
      <trkpt lat="41.565287" lon="1.787170">
        <ele>484.9</ele>
        <time>2014-10-12T08:36:17Z</time>
      </trkpt>
      <trkpt lat="41.565430" lon="1.787466">
        <ele>486.1</ele>
        <time>2014-10-12T08:36:22Z</time>
      </trkpt>
      <trkpt lat="41.565619" lon="1.787505">
        <ele>485.4</ele>
        <time>2014-10-12T08:36:27Z</time>
      </trkpt>
      <trkpt lat="41.565819" lon="1.787290">
        <ele>483.6</ele>
        <time>2014-10-12T08:36:34Z</time>
      </trkpt>
      <trkpt lat="41.566036" lon="1.787103">
        <ele>475.3</ele>
        <time>2014-10-12T08:36:39Z</time>
      </trkpt>
      <trkpt lat="41.566266" lon="1.787122">
        <ele>470.9</ele>
        <time>2014-10-12T08:36:45Z</time>
      </trkpt>
      <trkpt lat="41.566352" lon="1.787404">
        <ele>466.5</ele>
        <time>2014-10-12T08:36:51Z</time>
      </trkpt>
      <trkpt lat="41.566305" lon="1.787700">
        <ele>466.7</ele>
        <time>2014-10-12T08:36:56Z</time>
      </trkpt>
      <trkpt lat="41.566225" lon="1.787974">
        <ele>466.4</ele>
        <time>2014-10-12T08:37:04Z</time>
      </trkpt>
      <trkpt lat="41.565955" lon="1.788350">
        <ele>461.3</ele>
        <time>2014-10-12T08:37:13Z</time>
      </trkpt>
      <trkpt lat="41.565828" lon="1.788564">
        <ele>460.6</ele>
        <time>2014-10-12T08:37:19Z</time>
      </trkpt>
      <trkpt lat="41.566116" lon="1.788842">
        <ele>458.7</ele>
        <time>2014-10-12T08:37:26Z</time>
      </trkpt>
      <trkpt lat="41.566364" lon="1.789093">
        <ele>458.0</ele>
        <time>2014-10-12T08:37:31Z</time>
      </trkpt>
      <trkpt lat="41.566554" lon="1.789460">
        <ele>456.6</ele>
        <time>2014-10-12T08:37:37Z</time>
      </trkpt>
      <trkpt lat="41.566615" lon="1.789764">
        <ele>456.5</ele>
        <time>2014-10-12T08:37:42Z</time>
      </trkpt>
      <trkpt lat="41.566557" lon="1.789982">
        <ele>455.6</ele>
        <time>2014-10-12T08:37:46Z</time>
      </trkpt>
      <trkpt lat="41.566500" lon="1.790223">
        <ele>454.7</ele>
        <time>2014-10-12T08:37:51Z</time>
      </trkpt>
      <trkpt lat="41.566403" lon="1.790549">
        <ele>455.5</ele>
        <time>2014-10-12T08:37:56Z</time>
      </trkpt>
      <trkpt lat="41.566238" lon="1.790764">
        <ele>455.3</ele>
        <time>2014-10-12T08:38:01Z</time>
      </trkpt>
      <trkpt lat="41.566088" lon="1.790986">
        <ele>455.2</ele>
        <time>2014-10-12T08:38:07Z</time>
      </trkpt>
      <trkpt lat="41.565883" lon="1.791204">
        <ele>457.9</ele>
        <time>2014-10-12T08:38:12Z</time>
      </trkpt>
      <trkpt lat="41.565736" lon="1.791593">
        <ele>460.4</ele>
        <time>2014-10-12T08:38:20Z</time>
      </trkpt>
      <trkpt lat="41.565745" lon="1.791931">
        <ele>459.4</ele>
        <time>2014-10-12T08:38:25Z</time>
      </trkpt>
      <trkpt lat="41.565686" lon="1.792177">
        <ele>457.8</ele>
        <time>2014-10-12T08:38:32Z</time>
      </trkpt>
      <trkpt lat="41.565564" lon="1.792170">
        <ele>457.4</ele>
        <time>2014-10-12T08:38:36Z</time>
      </trkpt>
      <trkpt lat="41.565440" lon="1.792155">
        <ele>457.1</ele>
        <time>2014-10-12T08:38:47Z</time>
      </trkpt>
      <trkpt lat="41.565288" lon="1.792080">
        <ele>455.7</ele>
        <time>2014-10-12T08:38:59Z</time>
      </trkpt>
      <trkpt lat="41.565211" lon="1.791818">
        <ele>453.4</ele>
        <time>2014-10-12T08:39:11Z</time>
      </trkpt>
      <trkpt lat="41.565108" lon="1.791642">
        <ele>451.5</ele>
        <time>2014-10-12T08:39:21Z</time>
      </trkpt>
      <trkpt lat="41.565108" lon="1.791642">
        <ele>451.5</ele>
        <time>2014-10-12T08:39:31Z</time>
      </trkpt>
      <trkpt lat="41.564992" lon="1.791837">
        <ele>452.4</ele>
        <time>2014-10-12T08:39:46Z</time>
      </trkpt>
      <trkpt lat="41.564910" lon="1.792086">
        <ele>454.2</ele>
        <time>2014-10-12T08:39:55Z</time>
      </trkpt>
      <trkpt lat="41.564862" lon="1.792583">
        <ele>455.2</ele>
        <time>2014-10-12T08:40:08Z</time>
      </trkpt>
      <trkpt lat="41.564862" lon="1.792583">
        <ele>455.2</ele>
        <time>2014-10-12T08:40:13Z</time>
      </trkpt>
      <trkpt lat="41.564862" lon="1.792583">
        <ele>455.2</ele>
        <time>2014-10-12T08:40:15Z</time>
      </trkpt>
      <trkpt lat="41.564834" lon="1.792799">
        <ele>456.4</ele>
        <time>2014-10-12T08:40:28Z</time>
      </trkpt>
      <trkpt lat="41.564807" lon="1.792959">
        <ele>456.8</ele>
        <time>2014-10-12T08:40:34Z</time>
      </trkpt>
      <trkpt lat="41.564741" lon="1.793168">
        <ele>457.0</ele>
        <time>2014-10-12T08:40:44Z</time>
      </trkpt>
      <trkpt lat="41.564654" lon="1.793286">
        <ele>457.6</ele>
        <time>2014-10-12T08:40:53Z</time>
      </trkpt>
      <trkpt lat="41.564567" lon="1.793342">
        <ele>458.2</ele>
        <time>2014-10-12T08:41:01Z</time>
      </trkpt>
      <trkpt lat="41.564525" lon="1.793342">
        <ele>458.7</ele>
        <time>2014-10-12T08:41:09Z</time>
      </trkpt>
      <trkpt lat="41.564380" lon="1.793288">
        <ele>463.0</ele>
        <time>2014-10-12T08:41:37Z</time>
      </trkpt>
      <trkpt lat="41.564224" lon="1.793486">
        <ele>465.3</ele>
        <time>2014-10-12T08:41:50Z</time>
      </trkpt>
      <trkpt lat="41.564157" lon="1.793719">
        <ele>466.4</ele>
        <time>2014-10-12T08:42:01Z</time>
      </trkpt>
      <trkpt lat="41.564102" lon="1.793827">
        <ele>466.8</ele>
        <time>2014-10-12T08:42:08Z</time>
      </trkpt>
      <trkpt lat="41.563817" lon="1.793992">
        <ele>468.7</ele>
        <time>2014-10-12T08:42:26Z</time>
      </trkpt>
      <trkpt lat="41.563699" lon="1.794195">
        <ele>471.5</ele>
        <time>2014-10-12T08:42:35Z</time>
      </trkpt>
      <trkpt lat="41.563589" lon="1.794360">
        <ele>474.3</ele>
        <time>2014-10-12T08:42:44Z</time>
      </trkpt>
      <trkpt lat="41.563348" lon="1.794452">
        <ele>476.4</ele>
        <time>2014-10-12T08:42:57Z</time>
      </trkpt>
      <trkpt lat="41.563201" lon="1.794480">
        <ele>478.0</ele>
        <time>2014-10-12T08:43:07Z</time>
      </trkpt>
      <trkpt lat="41.563154" lon="1.794497">
        <ele>479.2</ele>
        <time>2014-10-12T08:43:15Z</time>
      </trkpt>
      <trkpt lat="41.563100" lon="1.794567">
        <ele>482.8</ele>
        <time>2014-10-12T08:43:31Z</time>
      </trkpt>
      <trkpt lat="41.562878" lon="1.794898">
        <ele>486.0</ele>
        <time>2014-10-12T08:43:51Z</time>
      </trkpt>
      <trkpt lat="41.562719" lon="1.795098">
        <ele>487.6</ele>
        <time>2014-10-12T08:44:03Z</time>
      </trkpt>
      <trkpt lat="41.562686" lon="1.795102">
        <ele>487.7</ele>
        <time>2014-10-12T08:44:05Z</time>
      </trkpt>
      <trkpt lat="41.562619" lon="1.795054">
        <ele>488.7</ele>
        <time>2014-10-12T08:44:18Z</time>
      </trkpt>
      <trkpt lat="41.562619" lon="1.795054">
        <ele>488.7</ele>
        <time>2014-10-12T08:44:26Z</time>
      </trkpt>
      <trkpt lat="41.562529" lon="1.795067">
        <ele>489.6</ele>
        <time>2014-10-12T08:44:37Z</time>
      </trkpt>
      <trkpt lat="41.562366" lon="1.795087">
        <ele>491.1</ele>
        <time>2014-10-12T08:44:49Z</time>
      </trkpt>
      <trkpt lat="41.562203" lon="1.795348">
        <ele>492.7</ele>
        <time>2014-10-12T08:44:59Z</time>
      </trkpt>
      <trkpt lat="41.562131" lon="1.795467">
        <ele>493.3</ele>
        <time>2014-10-12T08:45:05Z</time>
      </trkpt>
      <trkpt lat="41.562041" lon="1.795670">
        <ele>493.7</ele>
        <time>2014-10-12T08:45:18Z</time>
      </trkpt>
      <trkpt lat="41.561978" lon="1.795979">
        <ele>494.8</ele>
        <time>2014-10-12T08:45:29Z</time>
      </trkpt>
      <trkpt lat="41.561890" lon="1.796141">
        <ele>494.8</ele>
        <time>2014-10-12T08:45:35Z</time>
      </trkpt>
      <trkpt lat="41.561786" lon="1.796409">
        <ele>494.7</ele>
        <time>2014-10-12T08:45:44Z</time>
      </trkpt>
      <trkpt lat="41.561713" lon="1.796562">
        <ele>494.3</ele>
        <time>2014-10-12T08:45:51Z</time>
      </trkpt>
      <trkpt lat="41.561694" lon="1.796621">
        <ele>493.9</ele>
        <time>2014-10-12T08:45:53Z</time>
      </trkpt>
      <trkpt lat="41.561684" lon="1.796639">
        <ele>493.5</ele>
        <time>2014-10-12T08:46:01Z</time>
      </trkpt>
      <trkpt lat="41.561514" lon="1.796786">
        <ele>497.4</ele>
        <time>2014-10-12T08:46:22Z</time>
      </trkpt>
      <trkpt lat="41.561376" lon="1.796840">
        <ele>498.5</ele>
        <time>2014-10-12T08:46:30Z</time>
      </trkpt>
      <trkpt lat="41.561278" lon="1.796872">
        <ele>498.6</ele>
        <time>2014-10-12T08:46:35Z</time>
      </trkpt>
      <trkpt lat="41.561076" lon="1.796966">
        <ele>499.1</ele>
        <time>2014-10-12T08:46:46Z</time>
      </trkpt>
      <trkpt lat="41.560974" lon="1.797151">
        <ele>499.5</ele>
        <time>2014-10-12T08:46:58Z</time>
      </trkpt>
      <trkpt lat="41.560857" lon="1.797505">
        <ele>498.2</ele>
        <time>2014-10-12T08:47:10Z</time>
      </trkpt>
      <trkpt lat="41.560693" lon="1.797588">
        <ele>497.6</ele>
        <time>2014-10-12T08:47:17Z</time>
      </trkpt>
      <trkpt lat="41.560520" lon="1.797446">
        <ele>497.0</ele>
        <time>2014-10-12T08:47:26Z</time>
      </trkpt>
      <trkpt lat="41.560447" lon="1.797231">
        <ele>497.4</ele>
        <time>2014-10-12T08:47:35Z</time>
      </trkpt>
      <trkpt lat="41.560341" lon="1.797020">
        <ele>497.8</ele>
        <time>2014-10-12T08:47:45Z</time>
      </trkpt>
      <trkpt lat="41.560082" lon="1.797018">
        <ele>499.8</ele>
        <time>2014-10-12T08:47:51Z</time>
      </trkpt>
      <trkpt lat="41.559827" lon="1.797199">
        <ele>499.0</ele>
        <time>2014-10-12T08:47:58Z</time>
      </trkpt>
      <trkpt lat="41.559588" lon="1.797406">
        <ele>493.4</ele>
        <time>2014-10-12T08:48:04Z</time>
      </trkpt>
      <trkpt lat="41.559316" lon="1.797579">
        <ele>491.0</ele>
        <time>2014-10-12T08:48:09Z</time>
      </trkpt>
      <trkpt lat="41.559021" lon="1.797641">
        <ele>490.2</ele>
        <time>2014-10-12T08:48:14Z</time>
      </trkpt>
      <trkpt lat="41.558905" lon="1.797834">
        <ele>489.9</ele>
        <time>2014-10-12T08:48:17Z</time>
      </trkpt>
      <trkpt lat="41.558724" lon="1.798257">
        <ele>489.2</ele>
        <time>2014-10-12T08:48:23Z</time>
      </trkpt>
      <trkpt lat="41.558628" lon="1.798466">
        <ele>489.4</ele>
        <time>2014-10-12T08:48:27Z</time>
      </trkpt>
      <trkpt lat="41.558508" lon="1.798923">
        <ele>490.1</ele>
        <time>2014-10-12T08:48:32Z</time>
      </trkpt>
      <trkpt lat="41.558546" lon="1.799305">
        <ele>491.7</ele>
        <time>2014-10-12T08:48:38Z</time>
      </trkpt>
      <trkpt lat="41.558446" lon="1.799712">
        <ele>494.0</ele>
        <time>2014-10-12T08:48:43Z</time>
      </trkpt>
      <trkpt lat="41.558323" lon="1.800072">
        <ele>494.2</ele>
        <time>2014-10-12T08:48:48Z</time>
      </trkpt>
      <trkpt lat="41.558195" lon="1.800246">
        <ele>493.0</ele>
        <time>2014-10-12T08:48:51Z</time>
      </trkpt>
      <trkpt lat="41.558074" lon="1.800407">
        <ele>490.4</ele>
        <time>2014-10-12T08:48:54Z</time>
      </trkpt>
      <trkpt lat="41.557927" lon="1.800859">
        <ele>488.5</ele>
        <time>2014-10-12T08:49:00Z</time>
      </trkpt>
      <trkpt lat="41.557851" lon="1.801054">
        <ele>488.7</ele>
        <time>2014-10-12T08:49:03Z</time>
      </trkpt>
      <trkpt lat="41.557800" lon="1.801396">
        <ele>489.7</ele>
        <time>2014-10-12T08:49:09Z</time>
      </trkpt>
      <trkpt lat="41.557994" lon="1.802181">
        <ele>488.2</ele>
        <time>2014-10-12T08:49:14Z</time>
      </trkpt>
      <trkpt lat="41.558163" lon="1.802525">
        <ele>488.1</ele>
        <time>2014-10-12T08:49:18Z</time>
      </trkpt>
      <trkpt lat="41.558128" lon="1.802966">
        <ele>485.2</ele>
        <time>2014-10-12T08:49:23Z</time>
      </trkpt>
      <trkpt lat="41.557951" lon="1.803609">
        <ele>482.3</ele>
        <time>2014-10-12T08:49:30Z</time>
      </trkpt>
      <trkpt lat="41.557621" lon="1.804081">
        <ele>481.8</ele>
        <time>2014-10-12T08:49:36Z</time>
      </trkpt>
      <trkpt lat="41.557284" lon="1.804620">
        <ele>477.7</ele>
        <time>2014-10-12T08:49:41Z</time>
      </trkpt>
      <trkpt lat="41.557004" lon="1.805026">
        <ele>475.3</ele>
        <time>2014-10-12T08:49:46Z</time>
      </trkpt>
      <trkpt lat="41.556658" lon="1.805419">
        <ele>475.3</ele>
        <time>2014-10-12T08:49:52Z</time>
      </trkpt>
      <trkpt lat="41.556342" lon="1.805629">
        <ele>477.5</ele>
        <time>2014-10-12T08:49:58Z</time>
      </trkpt>
      <trkpt lat="41.555982" lon="1.805781">
        <ele>478.0</ele>
        <time>2014-10-12T08:50:03Z</time>
      </trkpt>
      <trkpt lat="41.556053" lon="1.806198">
        <ele>472.3</ele>
        <time>2014-10-12T08:50:08Z</time>
      </trkpt>
      <trkpt lat="41.556091" lon="1.806239">
        <ele>471.4</ele>
        <time>2014-10-12T08:50:10Z</time>
      </trkpt>
      <trkpt lat="41.555815" lon="1.806316">
        <ele>465.6</ele>
        <time>2014-10-12T08:50:20Z</time>
      </trkpt>
      <trkpt lat="41.555466" lon="1.806436">
        <ele>460.1</ele>
        <time>2014-10-12T08:50:26Z</time>
      </trkpt>
      <trkpt lat="41.555298" lon="1.806499">
        <ele>458.8</ele>
        <time>2014-10-12T08:50:29Z</time>
      </trkpt>
      <trkpt lat="41.555117" lon="1.806557">
        <ele>458.1</ele>
        <time>2014-10-12T08:50:32Z</time>
      </trkpt>
      <trkpt lat="41.554827" lon="1.806659">
        <ele>459.2</ele>
        <time>2014-10-12T08:50:38Z</time>
      </trkpt>
      <trkpt lat="41.554471" lon="1.806755">
        <ele>460.6</ele>
        <time>2014-10-12T08:50:43Z</time>
      </trkpt>
      <trkpt lat="41.554312" lon="1.806788">
        <ele>459.8</ele>
        <time>2014-10-12T08:50:47Z</time>
      </trkpt>
      <trkpt lat="41.553907" lon="1.806978">
        <ele>459.3</ele>
        <time>2014-10-12T08:50:52Z</time>
      </trkpt>
      <trkpt lat="41.553561" lon="1.807158">
        <ele>460.2</ele>
        <time>2014-10-12T08:50:58Z</time>
      </trkpt>
      <trkpt lat="41.553205" lon="1.807377">
        <ele>460.2</ele>
        <time>2014-10-12T08:51:03Z</time>
      </trkpt>
      <trkpt lat="41.552974" lon="1.807700">
        <ele>458.7</ele>
        <time>2014-10-12T08:51:08Z</time>
      </trkpt>
      <trkpt lat="41.552634" lon="1.807963">
        <ele>456.3</ele>
        <time>2014-10-12T08:51:13Z</time>
      </trkpt>
      <trkpt lat="41.552282" lon="1.808153">
        <ele>452.8</ele>
        <time>2014-10-12T08:51:18Z</time>
      </trkpt>
      <trkpt lat="41.552097" lon="1.808313">
        <ele>450.5</ele>
        <time>2014-10-12T08:51:22Z</time>
      </trkpt>
      <trkpt lat="41.551758" lon="1.808912">
        <ele>444.3</ele>
        <time>2014-10-12T08:51:28Z</time>
      </trkpt>
      <trkpt lat="41.551046" lon="1.809395">
        <ele>438.6</ele>
        <time>2014-10-12T08:51:37Z</time>
      </trkpt>
      <trkpt lat="41.550705" lon="1.809713">
        <ele>432.8</ele>
        <time>2014-10-12T08:51:42Z</time>
      </trkpt>
      <trkpt lat="41.550535" lon="1.809856">
        <ele>430.5</ele>
        <time>2014-10-12T08:51:45Z</time>
      </trkpt>
      <trkpt lat="41.550261" lon="1.810286">
        <ele>428.0</ele>
        <time>2014-10-12T08:51:51Z</time>
      </trkpt>
      <trkpt lat="41.549932" lon="1.810643">
        <ele>424.3</ele>
        <time>2014-10-12T08:51:57Z</time>
      </trkpt>
      <trkpt lat="41.549593" lon="1.810820">
        <ele>425.0</ele>
        <time>2014-10-12T08:52:02Z</time>
      </trkpt>
      <trkpt lat="41.549400" lon="1.811043">
        <ele>425.3</ele>
        <time>2014-10-12T08:52:07Z</time>
      </trkpt>
      <trkpt lat="41.549357" lon="1.811519">
        <ele>423.4</ele>
        <time>2014-10-12T08:52:12Z</time>
      </trkpt>
      <trkpt lat="41.549172" lon="1.811757">
        <ele>421.7</ele>
        <time>2014-10-12T08:52:18Z</time>
      </trkpt>
      <trkpt lat="41.549001" lon="1.812100">
        <ele>421.2</ele>
        <time>2014-10-12T08:52:23Z</time>
      </trkpt>
      <trkpt lat="41.548813" lon="1.812416">
        <ele>421.2</ele>
        <time>2014-10-12T08:52:30Z</time>
      </trkpt>
      <trkpt lat="41.548649" lon="1.812664">
        <ele>420.8</ele>
        <time>2014-10-12T08:52:35Z</time>
      </trkpt>
      <trkpt lat="41.548503" lon="1.813018">
        <ele>423.1</ele>
        <time>2014-10-12T08:52:41Z</time>
      </trkpt>
      <trkpt lat="41.548371" lon="1.813147">
        <ele>424.5</ele>
        <time>2014-10-12T08:52:44Z</time>
      </trkpt>
      <trkpt lat="41.548152" lon="1.813327">
        <ele>426.4</ele>
        <time>2014-10-12T08:52:49Z</time>
      </trkpt>
      <trkpt lat="41.547923" lon="1.813538">
        <ele>422.3</ele>
        <time>2014-10-12T08:52:55Z</time>
      </trkpt>
      <trkpt lat="41.547591" lon="1.813944">
        <ele>418.6</ele>
        <time>2014-10-12T08:53:01Z</time>
      </trkpt>
      <trkpt lat="41.547201" lon="1.814268">
        <ele>417.2</ele>
        <time>2014-10-12T08:53:06Z</time>
      </trkpt>
      <trkpt lat="41.546785" lon="1.814553">
        <ele>415.5</ele>
        <time>2014-10-12T08:53:12Z</time>
      </trkpt>
      <trkpt lat="41.546251" lon="1.815055">
        <ele>406.9</ele>
        <time>2014-10-12T08:53:19Z</time>
      </trkpt>
      <trkpt lat="41.545859" lon="1.815462">
        <ele>402.7</ele>
        <time>2014-10-12T08:53:24Z</time>
      </trkpt>
      <trkpt lat="41.545618" lon="1.815715">
        <ele>402.0</ele>
        <time>2014-10-12T08:53:27Z</time>
      </trkpt>
      <trkpt lat="41.545205" lon="1.816183">
        <ele>398.0</ele>
        <time>2014-10-12T08:53:34Z</time>
      </trkpt>
      <trkpt lat="41.544921" lon="1.816629">
        <ele>393.6</ele>
        <time>2014-10-12T08:53:39Z</time>
      </trkpt>
      <trkpt lat="41.544600" lon="1.817075">
        <ele>390.5</ele>
        <time>2014-10-12T08:53:44Z</time>
      </trkpt>
      <trkpt lat="41.544404" lon="1.817360">
        <ele>387.8</ele>
        <time>2014-10-12T08:53:50Z</time>
      </trkpt>
      <trkpt lat="41.544404" lon="1.817360">
        <ele>387.8</ele>
        <time>2014-10-12T08:53:55Z</time>
      </trkpt>
      <trkpt lat="41.544601" lon="1.817287">
        <ele>384.2</ele>
        <time>2014-10-12T08:53:58Z</time>
      </trkpt>
      <trkpt lat="41.544790" lon="1.817117">
        <ele>382.3</ele>
        <time>2014-10-12T08:54:02Z</time>
      </trkpt>
      <trkpt lat="41.544949" lon="1.816977">
        <ele>381.5</ele>
        <time>2014-10-12T08:54:05Z</time>
      </trkpt>
      <trkpt lat="41.545110" lon="1.816863">
        <ele>380.6</ele>
        <time>2014-10-12T08:54:08Z</time>
      </trkpt>
      <trkpt lat="41.545433" lon="1.816733">
        <ele>376.0</ele>
        <time>2014-10-12T08:54:13Z</time>
      </trkpt>
      <trkpt lat="41.545852" lon="1.816706">
        <ele>369.7</ele>
        <time>2014-10-12T08:54:19Z</time>
      </trkpt>
      <trkpt lat="41.546176" lon="1.816539">
        <ele>363.1</ele>
        <time>2014-10-12T08:54:24Z</time>
      </trkpt>
      <trkpt lat="41.546452" lon="1.816360">
        <ele>362.4</ele>
        <time>2014-10-12T08:54:31Z</time>
      </trkpt>
      <trkpt lat="41.546706" lon="1.816366">
        <ele>364.1</ele>
        <time>2014-10-12T08:54:38Z</time>
      </trkpt>
      <trkpt lat="41.546936" lon="1.816350">
        <ele>365.1</ele>
        <time>2014-10-12T08:54:44Z</time>
      </trkpt>
      <trkpt lat="41.547108" lon="1.816141">
        <ele>367.9</ele>
        <time>2014-10-12T08:54:51Z</time>
      </trkpt>
      <trkpt lat="41.547302" lon="1.816021">
        <ele>369.1</ele>
        <time>2014-10-12T08:54:56Z</time>
      </trkpt>
      <trkpt lat="41.547494" lon="1.815858">
        <ele>370.1</ele>
        <time>2014-10-12T08:55:02Z</time>
      </trkpt>
      <trkpt lat="41.547726" lon="1.815691">
        <ele>370.4</ele>
        <time>2014-10-12T08:55:09Z</time>
      </trkpt>
      <trkpt lat="41.547943" lon="1.815677">
        <ele>369.8</ele>
        <time>2014-10-12T08:55:14Z</time>
      </trkpt>
      <trkpt lat="41.548361" lon="1.815718">
        <ele>368.1</ele>
        <time>2014-10-12T08:55:21Z</time>
      </trkpt>
      <trkpt lat="41.548607" lon="1.815678">
        <ele>367.4</ele>
        <time>2014-10-12T08:55:26Z</time>
      </trkpt>
      <trkpt lat="41.548769" lon="1.815498">
        <ele>368.3</ele>
        <time>2014-10-12T08:55:35Z</time>
      </trkpt>
      <trkpt lat="41.548909" lon="1.815435">
        <ele>369.3</ele>
        <time>2014-10-12T08:55:41Z</time>
      </trkpt>
      <trkpt lat="41.549026" lon="1.815408">
        <ele>370.1</ele>
        <time>2014-10-12T08:55:46Z</time>
      </trkpt>
      <trkpt lat="41.549176" lon="1.815412">
        <ele>370.9</ele>
        <time>2014-10-12T08:55:54Z</time>
      </trkpt>
      <trkpt lat="41.549176" lon="1.815412">
        <ele>370.9</ele>
        <time>2014-10-12T08:56:05Z</time>
      </trkpt>
      <trkpt lat="41.549287" lon="1.815451">
        <ele>372.4</ele>
        <time>2014-10-12T08:56:12Z</time>
      </trkpt>
      <trkpt lat="41.549287" lon="1.815451">
        <ele>372.4</ele>
        <time>2014-10-12T08:56:19Z</time>
      </trkpt>
      <trkpt lat="41.549287" lon="1.815451">
        <ele>372.4</ele>
        <time>2014-10-12T08:56:21Z</time>
      </trkpt>
      <trkpt lat="41.549436" lon="1.815357">
        <ele>375.2</ele>
        <time>2014-10-12T08:56:30Z</time>
      </trkpt>
      <trkpt lat="41.549454" lon="1.815045">
        <ele>377.1</ele>
        <time>2014-10-12T08:56:41Z</time>
      </trkpt>
      <trkpt lat="41.549515" lon="1.814911">
        <ele>378.2</ele>
        <time>2014-10-12T08:56:47Z</time>
      </trkpt>
      <trkpt lat="41.549610" lon="1.814828">
        <ele>378.9</ele>
        <time>2014-10-12T08:56:53Z</time>
      </trkpt>
      <trkpt lat="41.549772" lon="1.814772">
        <ele>380.1</ele>
        <time>2014-10-12T08:57:01Z</time>
      </trkpt>
      <trkpt lat="41.549970" lon="1.814734">
        <ele>382.3</ele>
        <time>2014-10-12T08:57:11Z</time>
      </trkpt>
      <trkpt lat="41.550127" lon="1.814727">
        <ele>384.0</ele>
        <time>2014-10-12T08:57:19Z</time>
      </trkpt>
      <trkpt lat="41.550297" lon="1.814711">
        <ele>386.1</ele>
        <time>2014-10-12T08:57:29Z</time>
      </trkpt>
      <trkpt lat="41.550501" lon="1.814790">
        <ele>389.2</ele>
        <time>2014-10-12T08:57:40Z</time>
      </trkpt>
      <trkpt lat="41.550641" lon="1.814882">
        <ele>390.8</ele>
        <time>2014-10-12T08:57:46Z</time>
      </trkpt>
      <trkpt lat="41.550766" lon="1.814974">
        <ele>391.8</ele>
        <time>2014-10-12T08:57:52Z</time>
      </trkpt>
      <trkpt lat="41.550911" lon="1.815158">
        <ele>392.6</ele>
        <time>2014-10-12T08:58:00Z</time>
      </trkpt>
      <trkpt lat="41.550968" lon="1.815308">
        <ele>393.2</ele>
        <time>2014-10-12T08:58:06Z</time>
      </trkpt>
      <trkpt lat="41.551061" lon="1.815533">
        <ele>393.8</ele>
        <time>2014-10-12T08:58:14Z</time>
      </trkpt>
      <trkpt lat="41.551202" lon="1.815509">
        <ele>395.0</ele>
        <time>2014-10-12T08:58:25Z</time>
      </trkpt>
      <trkpt lat="41.551220" lon="1.815298">
        <ele>395.4</ele>
        <time>2014-10-12T08:58:32Z</time>
      </trkpt>
      <trkpt lat="41.551225" lon="1.815121">
        <ele>395.8</ele>
        <time>2014-10-12T08:58:39Z</time>
      </trkpt>
      <trkpt lat="41.551494" lon="1.814996">
        <ele>396.9</ele>
        <time>2014-10-12T08:58:53Z</time>
      </trkpt>
      <trkpt lat="41.551656" lon="1.815084">
        <ele>398.0</ele>
        <time>2014-10-12T08:59:02Z</time>
      </trkpt>
      <trkpt lat="41.551807" lon="1.815100">
        <ele>399.9</ele>
        <time>2014-10-12T08:59:11Z</time>
      </trkpt>
      <trkpt lat="41.551735" lon="1.814803">
        <ele>401.0</ele>
        <time>2014-10-12T08:59:23Z</time>
      </trkpt>
      <trkpt lat="41.551703" lon="1.814548">
        <ele>402.0</ele>
        <time>2014-10-12T08:59:32Z</time>
      </trkpt>
      <trkpt lat="41.551971" lon="1.814318">
        <ele>402.8</ele>
        <time>2014-10-12T08:59:41Z</time>
      </trkpt>
      <trkpt lat="41.552158" lon="1.814274">
        <ele>403.3</ele>
        <time>2014-10-12T08:59:46Z</time>
      </trkpt>
      <trkpt lat="41.552351" lon="1.814318">
        <ele>404.1</ele>
        <time>2014-10-12T08:59:53Z</time>
      </trkpt>
      <trkpt lat="41.552626" lon="1.814476">
        <ele>405.4</ele>
        <time>2014-10-12T09:00:03Z</time>
      </trkpt>
      <trkpt lat="41.552801" lon="1.814687">
        <ele>406.0</ele>
        <time>2014-10-12T09:00:12Z</time>
      </trkpt>
      <trkpt lat="41.552860" lon="1.814887">
        <ele>406.4</ele>
        <time>2014-10-12T09:00:19Z</time>
      </trkpt>
      <trkpt lat="41.553011" lon="1.815049">
        <ele>407.1</ele>
        <time>2014-10-12T09:00:27Z</time>
      </trkpt>
      <trkpt lat="41.553220" lon="1.815168">
        <ele>407.6</ele>
        <time>2014-10-12T09:00:35Z</time>
      </trkpt>
      <trkpt lat="41.553201" lon="1.815001">
        <ele>408.2</ele>
        <time>2014-10-12T09:00:42Z</time>
      </trkpt>
      <trkpt lat="41.553137" lon="1.814643">
        <ele>409.5</ele>
        <time>2014-10-12T09:00:54Z</time>
      </trkpt>
      <trkpt lat="41.553108" lon="1.814373">
        <ele>410.5</ele>
        <time>2014-10-12T09:01:05Z</time>
      </trkpt>
      <trkpt lat="41.553042" lon="1.814110">
        <ele>412.1</ele>
        <time>2014-10-12T09:01:17Z</time>
      </trkpt>
      <trkpt lat="41.553091" lon="1.813997">
        <ele>413.5</ele>
        <time>2014-10-12T09:01:27Z</time>
      </trkpt>
      <trkpt lat="41.553393" lon="1.814094">
        <ele>419.9</ele>
        <time>2014-10-12T09:02:13Z</time>
      </trkpt>
      <trkpt lat="41.553505" lon="1.814209">
        <ele>423.0</ele>
        <time>2014-10-12T09:02:32Z</time>
      </trkpt>
      <trkpt lat="41.553605" lon="1.814453">
        <ele>425.3</ele>
        <time>2014-10-12T09:02:52Z</time>
      </trkpt>
      <trkpt lat="41.553761" lon="1.814599">
        <ele>426.4</ele>
        <time>2014-10-12T09:03:02Z</time>
      </trkpt>
      <trkpt lat="41.553918" lon="1.814573">
        <ele>427.5</ele>
        <time>2014-10-12T09:03:12Z</time>
      </trkpt>
      <trkpt lat="41.554077" lon="1.814363">
        <ele>428.2</ele>
        <time>2014-10-12T09:03:21Z</time>
      </trkpt>
      <trkpt lat="41.554142" lon="1.814119">
        <ele>428.8</ele>
        <time>2014-10-12T09:03:30Z</time>
      </trkpt>
      <trkpt lat="41.554327" lon="1.813961">
        <ele>429.6</ele>
        <time>2014-10-12T09:03:40Z</time>
      </trkpt>
      <trkpt lat="41.554518" lon="1.813962">
        <ele>430.5</ele>
        <time>2014-10-12T09:03:47Z</time>
      </trkpt>
      <trkpt lat="41.554693" lon="1.814170">
        <ele>431.4</ele>
        <time>2014-10-12T09:03:55Z</time>
      </trkpt>
      <trkpt lat="41.554772" lon="1.814456">
        <ele>431.6</ele>
        <time>2014-10-12T09:04:03Z</time>
      </trkpt>
      <trkpt lat="41.554868" lon="1.814539">
        <ele>431.7</ele>
        <time>2014-10-12T09:04:09Z</time>
      </trkpt>
      <trkpt lat="41.555001" lon="1.814309">
        <ele>432.2</ele>
        <time>2014-10-12T09:04:17Z</time>
      </trkpt>
      <trkpt lat="41.555028" lon="1.814150">
        <ele>432.4</ele>
        <time>2014-10-12T09:04:21Z</time>
      </trkpt>
      <trkpt lat="41.555181" lon="1.814017">
        <ele>432.9</ele>
        <time>2014-10-12T09:04:29Z</time>
      </trkpt>
      <trkpt lat="41.555364" lon="1.813979">
        <ele>433.5</ele>
        <time>2014-10-12T09:04:36Z</time>
      </trkpt>
      <trkpt lat="41.555423" lon="1.813793">
        <ele>433.7</ele>
        <time>2014-10-12T09:04:42Z</time>
      </trkpt>
      <trkpt lat="41.555374" lon="1.813582">
        <ele>434.0</ele>
        <time>2014-10-12T09:04:48Z</time>
      </trkpt>
      <trkpt lat="41.555263" lon="1.813440">
        <ele>434.4</ele>
        <time>2014-10-12T09:04:54Z</time>
      </trkpt>
      <trkpt lat="41.555149" lon="1.813376">
        <ele>434.6</ele>
        <time>2014-10-12T09:04:59Z</time>
      </trkpt>
      <trkpt lat="41.555040" lon="1.813268">
        <ele>434.8</ele>
        <time>2014-10-12T09:05:04Z</time>
      </trkpt>
      <trkpt lat="41.555043" lon="1.812946">
        <ele>435.6</ele>
        <time>2014-10-12T09:05:13Z</time>
      </trkpt>
      <trkpt lat="41.555063" lon="1.812730">
        <ele>436.1</ele>
        <time>2014-10-12T09:05:19Z</time>
      </trkpt>
      <trkpt lat="41.554943" lon="1.812517">
        <ele>436.8</ele>
        <time>2014-10-12T09:05:28Z</time>
      </trkpt>
      <trkpt lat="41.554711" lon="1.812524">
        <ele>437.4</ele>
        <time>2014-10-12T09:05:35Z</time>
      </trkpt>
      <trkpt lat="41.554587" lon="1.812563">
        <ele>437.7</ele>
        <time>2014-10-12T09:05:40Z</time>
      </trkpt>
      <trkpt lat="41.554540" lon="1.812423">
        <ele>438.3</ele>
        <time>2014-10-12T09:05:49Z</time>
      </trkpt>
      <trkpt lat="41.554659" lon="1.812314">
        <ele>439.1</ele>
        <time>2014-10-12T09:05:56Z</time>
      </trkpt>
      <trkpt lat="41.554835" lon="1.812193">
        <ele>439.9</ele>
        <time>2014-10-12T09:06:06Z</time>
      </trkpt>
      <trkpt lat="41.554994" lon="1.812104">
        <ele>441.0</ele>
        <time>2014-10-12T09:06:15Z</time>
      </trkpt>
      <trkpt lat="41.555179" lon="1.812004">
        <ele>442.5</ele>
        <time>2014-10-12T09:06:27Z</time>
      </trkpt>
      <trkpt lat="41.555315" lon="1.811964">
        <ele>443.7</ele>
        <time>2014-10-12T09:06:36Z</time>
      </trkpt>
      <trkpt lat="41.555435" lon="1.812501">
        <ele>447.3</ele>
        <time>2014-10-12T09:06:47Z</time>
      </trkpt>
      <trkpt lat="41.555483" lon="1.812717">
        <ele>448.1</ele>
        <time>2014-10-12T09:06:51Z</time>
      </trkpt>
      <trkpt lat="41.555575" lon="1.813032">
        <ele>448.5</ele>
        <time>2014-10-12T09:06:56Z</time>
      </trkpt>
      <trkpt lat="41.555680" lon="1.813440">
        <ele>447.6</ele>
        <time>2014-10-12T09:07:02Z</time>
      </trkpt>
      <trkpt lat="41.555714" lon="1.813832">
        <ele>447.5</ele>
        <time>2014-10-12T09:07:07Z</time>
      </trkpt>
      <trkpt lat="41.555727" lon="1.814058">
        <ele>447.1</ele>
        <time>2014-10-12T09:07:10Z</time>
      </trkpt>
      <trkpt lat="41.555731" lon="1.814087">
        <ele>447.0</ele>
        <time>2014-10-12T09:07:12Z</time>
      </trkpt>
      <trkpt lat="41.555731" lon="1.814087">
        <ele>446.9</ele>
        <time>2014-10-12T09:07:20Z</time>
      </trkpt>
      <trkpt lat="41.555730" lon="1.814253">
        <ele>447.1</ele>
        <time>2014-10-12T09:08:13Z</time>
      </trkpt>
      <trkpt lat="41.555706" lon="1.814499">
        <ele>447.4</ele>
        <time>2014-10-12T09:08:22Z</time>
      </trkpt>
      <trkpt lat="41.555648" lon="1.814722">
        <ele>448.3</ele>
        <time>2014-10-12T09:08:32Z</time>
      </trkpt>
      <trkpt lat="41.555574" lon="1.814984">
        <ele>450.0</ele>
        <time>2014-10-12T09:08:46Z</time>
      </trkpt>
      <trkpt lat="41.555467" lon="1.815252">
        <ele>452.7</ele>
        <time>2014-10-12T09:08:59Z</time>
      </trkpt>
      <trkpt lat="41.555410" lon="1.815520">
        <ele>454.9</ele>
        <time>2014-10-12T09:09:10Z</time>
      </trkpt>
      <trkpt lat="41.555394" lon="1.815752">
        <ele>456.5</ele>
        <time>2014-10-12T09:09:19Z</time>
      </trkpt>
      <trkpt lat="41.555438" lon="1.815863">
        <ele>457.4</ele>
        <time>2014-10-12T09:09:24Z</time>
      </trkpt>
      <trkpt lat="41.555784" lon="1.816017">
        <ele>459.6</ele>
        <time>2014-10-12T09:09:35Z</time>
      </trkpt>
      <trkpt lat="41.556050" lon="1.816151">
        <ele>458.4</ele>
        <time>2014-10-12T09:09:41Z</time>
      </trkpt>
      <trkpt lat="41.556360" lon="1.816427">
        <ele>455.1</ele>
        <time>2014-10-12T09:09:46Z</time>
      </trkpt>
      <trkpt lat="41.556512" lon="1.816727">
        <ele>452.6</ele>
        <time>2014-10-12T09:09:53Z</time>
      </trkpt>
      <trkpt lat="41.556710" lon="1.816880">
        <ele>452.0</ele>
        <time>2014-10-12T09:09:58Z</time>
      </trkpt>
      <trkpt lat="41.556885" lon="1.817145">
        <ele>447.5</ele>
        <time>2014-10-12T09:10:05Z</time>
      </trkpt>
      <trkpt lat="41.557043" lon="1.817342">
        <ele>443.4</ele>
        <time>2014-10-12T09:10:11Z</time>
      </trkpt>
      <trkpt lat="41.556955" lon="1.817555">
        <ele>440.1</ele>
        <time>2014-10-12T09:10:16Z</time>
      </trkpt>
      <trkpt lat="41.556752" lon="1.817481">
        <ele>439.7</ele>
        <time>2014-10-12T09:10:22Z</time>
      </trkpt>
      <trkpt lat="41.556527" lon="1.817460">
        <ele>439.4</ele>
        <time>2014-10-12T09:10:28Z</time>
      </trkpt>
      <trkpt lat="41.556321" lon="1.817261">
        <ele>439.4</ele>
        <time>2014-10-12T09:10:34Z</time>
      </trkpt>
      <trkpt lat="41.556158" lon="1.817074">
        <ele>439.5</ele>
        <time>2014-10-12T09:10:41Z</time>
      </trkpt>
      <trkpt lat="41.555945" lon="1.817202">
        <ele>439.9</ele>
        <time>2014-10-12T09:10:47Z</time>
      </trkpt>
      <trkpt lat="41.555676" lon="1.817443">
        <ele>435.7</ele>
        <time>2014-10-12T09:10:53Z</time>
      </trkpt>
      <trkpt lat="41.555365" lon="1.817518">
        <ele>430.6</ele>
        <time>2014-10-12T09:10:59Z</time>
      </trkpt>
      <trkpt lat="41.555344" lon="1.817731">
        <ele>430.3</ele>
        <time>2014-10-12T09:11:05Z</time>
      </trkpt>
      <trkpt lat="41.555293" lon="1.817995">
        <ele>430.2</ele>
        <time>2014-10-12T09:11:11Z</time>
      </trkpt>
      <trkpt lat="41.555361" lon="1.818148">
        <ele>430.4</ele>
        <time>2014-10-12T09:11:17Z</time>
      </trkpt>
      <trkpt lat="41.555624" lon="1.818465">
        <ele>431.4</ele>
        <time>2014-10-12T09:11:24Z</time>
      </trkpt>
      <trkpt lat="41.555676" lon="1.818842">
        <ele>429.7</ele>
        <time>2014-10-12T09:11:30Z</time>
      </trkpt>
      <trkpt lat="41.555680" lon="1.819150">
        <ele>429.1</ele>
        <time>2014-10-12T09:11:37Z</time>
      </trkpt>
      <trkpt lat="41.556213" lon="1.819442">
        <ele>425.3</ele>
        <time>2014-10-12T09:11:48Z</time>
      </trkpt>
      <trkpt lat="41.556523" lon="1.819560">
        <ele>421.6</ele>
        <time>2014-10-12T09:11:54Z</time>
      </trkpt>
      <trkpt lat="41.556957" lon="1.819742">
        <ele>417.8</ele>
        <time>2014-10-12T09:11:59Z</time>
      </trkpt>
      <trkpt lat="41.557185" lon="1.819853">
        <ele>415.2</ele>
        <time>2014-10-12T09:12:03Z</time>
      </trkpt>
      <trkpt lat="41.557395" lon="1.819925">
        <ele>413.0</ele>
        <time>2014-10-12T09:12:06Z</time>
      </trkpt>
      <trkpt lat="41.557732" lon="1.820173">
        <ele>411.9</ele>
        <time>2014-10-12T09:12:11Z</time>
      </trkpt>
      <trkpt lat="41.557953" lon="1.820425">
        <ele>409.7</ele>
        <time>2014-10-12T09:12:18Z</time>
      </trkpt>
      <trkpt lat="41.558064" lon="1.820643">
        <ele>409.2</ele>
        <time>2014-10-12T09:12:23Z</time>
      </trkpt>
      <trkpt lat="41.557905" lon="1.820659">
        <ele>406.4</ele>
        <time>2014-10-12T09:12:29Z</time>
      </trkpt>
      <trkpt lat="41.557641" lon="1.820621">
        <ele>401.4</ele>
        <time>2014-10-12T09:12:33Z</time>
      </trkpt>
      <trkpt lat="41.557403" lon="1.820652">
        <ele>397.2</ele>
        <time>2014-10-12T09:12:38Z</time>
      </trkpt>
      <trkpt lat="41.557516" lon="1.820959">
        <ele>393.8</ele>
        <time>2014-10-12T09:12:44Z</time>
      </trkpt>
      <trkpt lat="41.557872" lon="1.821236">
        <ele>392.4</ele>
        <time>2014-10-12T09:12:49Z</time>
      </trkpt>
      <trkpt lat="41.558139" lon="1.821521">
        <ele>390.6</ele>
        <time>2014-10-12T09:12:54Z</time>
      </trkpt>
      <trkpt lat="41.558354" lon="1.821927">
        <ele>386.1</ele>
        <time>2014-10-12T09:12:59Z</time>
      </trkpt>
      <trkpt lat="41.558334" lon="1.822293">
        <ele>376.2</ele>
        <time>2014-10-12T09:13:06Z</time>
      </trkpt>
      <trkpt lat="41.558041" lon="1.822476">
        <ele>374.0</ele>
        <time>2014-10-12T09:13:11Z</time>
      </trkpt>
      <trkpt lat="41.558048" lon="1.822889">
        <ele>373.0</ele>
        <time>2014-10-12T09:13:16Z</time>
      </trkpt>
      <trkpt lat="41.558109" lon="1.823178">
        <ele>372.3</ele>
        <time>2014-10-12T09:13:20Z</time>
      </trkpt>
      <trkpt lat="41.558220" lon="1.823773">
        <ele>369.1</ele>
        <time>2014-10-12T09:13:25Z</time>
      </trkpt>
      <trkpt lat="41.558325" lon="1.824418">
        <ele>366.6</ele>
        <time>2014-10-12T09:13:31Z</time>
      </trkpt>
      <trkpt lat="41.558451" lon="1.825063">
        <ele>365.2</ele>
        <time>2014-10-12T09:13:37Z</time>
      </trkpt>
      <trkpt lat="41.558357" lon="1.825675">
        <ele>364.0</ele>
        <time>2014-10-12T09:13:44Z</time>
      </trkpt>
      <trkpt lat="41.558122" lon="1.826274">
        <ele>364.0</ele>
        <time>2014-10-12T09:13:49Z</time>
      </trkpt>
      <trkpt lat="41.557876" lon="1.826886">
        <ele>360.0</ele>
        <time>2014-10-12T09:13:55Z</time>
      </trkpt>
      <trkpt lat="41.557636" lon="1.827541">
        <ele>356.7</ele>
        <time>2014-10-12T09:14:01Z</time>
      </trkpt>
      <trkpt lat="41.557422" lon="1.828105">
        <ele>356.3</ele>
        <time>2014-10-12T09:14:07Z</time>
      </trkpt>
      <trkpt lat="41.557226" lon="1.828737">
        <ele>353.6</ele>
        <time>2014-10-12T09:14:12Z</time>
      </trkpt>
      <trkpt lat="41.557160" lon="1.829291">
        <ele>350.5</ele>
        <time>2014-10-12T09:14:18Z</time>
      </trkpt>
      <trkpt lat="41.556961" lon="1.829832">
        <ele>348.2</ele>
        <time>2014-10-12T09:14:24Z</time>
      </trkpt>
      <trkpt lat="41.556786" lon="1.830289">
        <ele>346.9</ele>
        <time>2014-10-12T09:14:29Z</time>
      </trkpt>
      <trkpt lat="41.556496" lon="1.830679">
        <ele>345.0</ele>
        <time>2014-10-12T09:14:35Z</time>
      </trkpt>
      <trkpt lat="41.556234" lon="1.830540">
        <ele>344.3</ele>
        <time>2014-10-12T09:14:41Z</time>
      </trkpt>
      <trkpt lat="41.555949" lon="1.830423">
        <ele>344.5</ele>
        <time>2014-10-12T09:14:45Z</time>
      </trkpt>
      <trkpt lat="41.555651" lon="1.830297">
        <ele>343.1</ele>
        <time>2014-10-12T09:14:51Z</time>
      </trkpt>
      <trkpt lat="41.555326" lon="1.830107">
        <ele>342.4</ele>
        <time>2014-10-12T09:14:56Z</time>
      </trkpt>
      <trkpt lat="41.555062" lon="1.829995">
        <ele>343.5</ele>
        <time>2014-10-12T09:15:01Z</time>
      </trkpt>
      <trkpt lat="41.554783" lon="1.829986">
        <ele>342.8</ele>
        <time>2014-10-12T09:15:07Z</time>
      </trkpt>
      <trkpt lat="41.554576" lon="1.830118">
        <ele>343.3</ele>
        <time>2014-10-12T09:15:12Z</time>
      </trkpt>
      <trkpt lat="41.554509" lon="1.830188">
        <ele>343.3</ele>
        <time>2014-10-12T09:15:15Z</time>
      </trkpt>
      <trkpt lat="41.554423" lon="1.830131">
        <ele>343.6</ele>
        <time>2014-10-12T09:15:23Z</time>
      </trkpt>
      <trkpt lat="41.554423" lon="1.829909">
        <ele>344.2</ele>
        <time>2014-10-12T09:15:34Z</time>
      </trkpt>
      <trkpt lat="41.554355" lon="1.829614">
        <ele>347.2</ele>
        <time>2014-10-12T09:15:51Z</time>
      </trkpt>
      <trkpt lat="41.554338" lon="1.829852">
        <ele>348.5</ele>
        <time>2014-10-12T09:15:58Z</time>
      </trkpt>
      <trkpt lat="41.554275" lon="1.830060">
        <ele>349.5</ele>
        <time>2014-10-12T09:16:06Z</time>
      </trkpt>
      <trkpt lat="41.554174" lon="1.830291">
        <ele>350.5</ele>
        <time>2014-10-12T09:16:15Z</time>
      </trkpt>
      <trkpt lat="41.554010" lon="1.830551">
        <ele>352.3</ele>
        <time>2014-10-12T09:16:25Z</time>
      </trkpt>
      <trkpt lat="41.553890" lon="1.830741">
        <ele>353.9</ele>
        <time>2014-10-12T09:16:32Z</time>
      </trkpt>
      <trkpt lat="41.553796" lon="1.830896">
        <ele>354.7</ele>
        <time>2014-10-12T09:16:39Z</time>
      </trkpt>
      <trkpt lat="41.553723" lon="1.831158">
        <ele>355.9</ele>
        <time>2014-10-12T09:16:48Z</time>
      </trkpt>
      <trkpt lat="41.553609" lon="1.831437">
        <ele>357.3</ele>
        <time>2014-10-12T09:16:56Z</time>
      </trkpt>
      <trkpt lat="41.553502" lon="1.831617">
        <ele>359.5</ele>
        <time>2014-10-12T09:17:00Z</time>
      </trkpt>
      <trkpt lat="41.553415" lon="1.831749">
        <ele>360.7</ele>
        <time>2014-10-12T09:17:03Z</time>
      </trkpt>
      <trkpt lat="41.553165" lon="1.832108">
        <ele>361.8</ele>
        <time>2014-10-12T09:17:10Z</time>
      </trkpt>
      <trkpt lat="41.552923" lon="1.832370">
        <ele>359.1</ele>
        <time>2014-10-12T09:17:15Z</time>
      </trkpt>
      <trkpt lat="41.552876" lon="1.832581">
        <ele>357.2</ele>
        <time>2014-10-12T09:17:18Z</time>
      </trkpt>
      <trkpt lat="41.552688" lon="1.832759">
        <ele>355.5</ele>
        <time>2014-10-12T09:17:21Z</time>
      </trkpt>
      <trkpt lat="41.552683" lon="1.833244">
        <ele>353.8</ele>
        <time>2014-10-12T09:17:26Z</time>
      </trkpt>
      <trkpt lat="41.552980" lon="1.833523">
        <ele>354.8</ele>
        <time>2014-10-12T09:17:33Z</time>
      </trkpt>
      <trkpt lat="41.553121" lon="1.833652">
        <ele>355.1</ele>
        <time>2014-10-12T09:17:39Z</time>
      </trkpt>
      <trkpt lat="41.553277" lon="1.833900">
        <ele>355.5</ele>
        <time>2014-10-12T09:17:48Z</time>
      </trkpt>
      <trkpt lat="41.553240" lon="1.834189">
        <ele>355.6</ele>
        <time>2014-10-12T09:17:54Z</time>
      </trkpt>
      <trkpt lat="41.553142" lon="1.834434">
        <ele>356.2</ele>
        <time>2014-10-12T09:18:03Z</time>
      </trkpt>
      <trkpt lat="41.553033" lon="1.834632">
        <ele>356.9</ele>
        <time>2014-10-12T09:18:11Z</time>
      </trkpt>
      <trkpt lat="41.552800" lon="1.834883">
        <ele>359.4</ele>
        <time>2014-10-12T09:18:19Z</time>
      </trkpt>
      <trkpt lat="41.552683" lon="1.835009">
        <ele>359.0</ele>
        <time>2014-10-12T09:18:21Z</time>
      </trkpt>
      <trkpt lat="41.552632" lon="1.835207">
        <ele>357.3</ele>
        <time>2014-10-12T09:18:25Z</time>
      </trkpt>
      <trkpt lat="41.552741" lon="1.835862">
        <ele>354.9</ele>
        <time>2014-10-12T09:18:30Z</time>
      </trkpt>
      <trkpt lat="41.552645" lon="1.836602">
        <ele>352.4</ele>
        <time>2014-10-12T09:18:36Z</time>
      </trkpt>
      <trkpt lat="41.552489" lon="1.836978">
        <ele>352.5</ele>
        <time>2014-10-12T09:18:41Z</time>
      </trkpt>
      <trkpt lat="41.552317" lon="1.837225">
        <ele>354.1</ele>
        <time>2014-10-12T09:18:46Z</time>
      </trkpt>
      <trkpt lat="41.552124" lon="1.837480">
        <ele>354.8</ele>
        <time>2014-10-12T09:18:51Z</time>
      </trkpt>
      <trkpt lat="41.551888" lon="1.837787">
        <ele>355.5</ele>
        <time>2014-10-12T09:18:57Z</time>
      </trkpt>
      <trkpt lat="41.551698" lon="1.838063">
        <ele>358.4</ele>
        <time>2014-10-12T09:19:03Z</time>
      </trkpt>
      <trkpt lat="41.551493" lon="1.838385">
        <ele>358.3</ele>
        <time>2014-10-12T09:19:09Z</time>
      </trkpt>
      <trkpt lat="41.551390" lon="1.838696">
        <ele>357.9</ele>
        <time>2014-10-12T09:19:14Z</time>
      </trkpt>
      <trkpt lat="41.551295" lon="1.838960">
        <ele>358.0</ele>
        <time>2014-10-12T09:19:20Z</time>
      </trkpt>
      <trkpt lat="41.551224" lon="1.839155">
        <ele>357.9</ele>
        <time>2014-10-12T09:19:26Z</time>
      </trkpt>
      <trkpt lat="41.551123" lon="1.839450">
        <ele>356.1</ele>
        <time>2014-10-12T09:19:33Z</time>
      </trkpt>
      <trkpt lat="41.550972" lon="1.839716">
        <ele>351.8</ele>
        <time>2014-10-12T09:19:38Z</time>
      </trkpt>
      <trkpt lat="41.550772" lon="1.839970">
        <ele>349.7</ele>
        <time>2014-10-12T09:19:45Z</time>
      </trkpt>
      <trkpt lat="41.550710" lon="1.840245">
        <ele>348.4</ele>
        <time>2014-10-12T09:19:51Z</time>
      </trkpt>
      <trkpt lat="41.550642" lon="1.840506">
        <ele>347.5</ele>
        <time>2014-10-12T09:19:56Z</time>
      </trkpt>
      <trkpt lat="41.550514" lon="1.840857">
        <ele>344.4</ele>
        <time>2014-10-12T09:20:02Z</time>
      </trkpt>
      <trkpt lat="41.550333" lon="1.841200">
        <ele>342.9</ele>
        <time>2014-10-12T09:20:08Z</time>
      </trkpt>
      <trkpt lat="41.550232" lon="1.841555">
        <ele>339.1</ele>
        <time>2014-10-12T09:20:14Z</time>
      </trkpt>
      <trkpt lat="41.550147" lon="1.841929">
        <ele>338.6</ele>
        <time>2014-10-12T09:20:20Z</time>
      </trkpt>
      <trkpt lat="41.550022" lon="1.842140">
        <ele>338.0</ele>
        <time>2014-10-12T09:20:27Z</time>
      </trkpt>
      <trkpt lat="41.549796" lon="1.842243">
        <ele>337.5</ele>
        <time>2014-10-12T09:20:36Z</time>
      </trkpt>
      <trkpt lat="41.549664" lon="1.842369">
        <ele>337.7</ele>
        <time>2014-10-12T09:20:42Z</time>
      </trkpt>
      <trkpt lat="41.549636" lon="1.842549">
        <ele>337.7</ele>
        <time>2014-10-12T09:20:48Z</time>
      </trkpt>
      <trkpt lat="41.549509" lon="1.842417">
        <ele>338.1</ele>
        <time>2014-10-12T09:20:58Z</time>
      </trkpt>
      <trkpt lat="41.549528" lon="1.842227">
        <ele>338.3</ele>
        <time>2014-10-12T09:21:00Z</time>
      </trkpt>
      <trkpt lat="41.549728" lon="1.842063">
        <ele>338.0</ele>
        <time>2014-10-12T09:21:07Z</time>
      </trkpt>
      <trkpt lat="41.549856" lon="1.841943">
        <ele>337.8</ele>
        <time>2014-10-12T09:21:12Z</time>
      </trkpt>
      <trkpt lat="41.549896" lon="1.841820">
        <ele>337.5</ele>
        <time>2014-10-12T09:21:20Z</time>
      </trkpt>
      <trkpt lat="41.549733" lon="1.841532">
        <ele>334.5</ele>
        <time>2014-10-12T09:21:34Z</time>
      </trkpt>
      <trkpt lat="41.549374" lon="1.841578">
        <ele>322.1</ele>
        <time>2014-10-12T09:21:42Z</time>
      </trkpt>
      <trkpt lat="41.549193" lon="1.841852">
        <ele>321.9</ele>
        <time>2014-10-12T09:21:48Z</time>
      </trkpt>
      <trkpt lat="41.549002" lon="1.842118">
        <ele>323.6</ele>
        <time>2014-10-12T09:21:55Z</time>
      </trkpt>
      <trkpt lat="41.548994" lon="1.842467">
        <ele>322.4</ele>
        <time>2014-10-12T09:22:00Z</time>
      </trkpt>
      <trkpt lat="41.548847" lon="1.842729">
        <ele>317.5</ele>
        <time>2014-10-12T09:22:07Z</time>
      </trkpt>
      <trkpt lat="41.548495" lon="1.842644">
        <ele>310.5</ele>
        <time>2014-10-12T09:22:12Z</time>
      </trkpt>
      <trkpt lat="41.548274" lon="1.842914">
        <ele>304.6</ele>
        <time>2014-10-12T09:22:17Z</time>
      </trkpt>
      <trkpt lat="41.548055" lon="1.843379">
        <ele>304.1</ele>
        <time>2014-10-12T09:22:24Z</time>
      </trkpt>
      <trkpt lat="41.547866" lon="1.843674">
        <ele>305.7</ele>
        <time>2014-10-12T09:22:30Z</time>
      </trkpt>
      <trkpt lat="41.547550" lon="1.843590">
        <ele>304.7</ele>
        <time>2014-10-12T09:22:36Z</time>
      </trkpt>
      <trkpt lat="41.547204" lon="1.843622">
        <ele>300.5</ele>
        <time>2014-10-12T09:22:41Z</time>
      </trkpt>
      <trkpt lat="41.547043" lon="1.844069">
        <ele>297.4</ele>
        <time>2014-10-12T09:22:46Z</time>
      </trkpt>
      <trkpt lat="41.546659" lon="1.844333">
        <ele>292.4</ele>
        <time>2014-10-12T09:22:52Z</time>
      </trkpt>
      <trkpt lat="41.546591" lon="1.844657">
        <ele>289.6</ele>
        <time>2014-10-12T09:22:56Z</time>
      </trkpt>
      <trkpt lat="41.546724" lon="1.844980">
        <ele>287.6</ele>
        <time>2014-10-12T09:23:02Z</time>
      </trkpt>
      <trkpt lat="41.546434" lon="1.845283">
        <ele>286.9</ele>
        <time>2014-10-12T09:23:07Z</time>
      </trkpt>
      <trkpt lat="41.546279" lon="1.845681">
        <ele>285.2</ele>
        <time>2014-10-12T09:23:13Z</time>
      </trkpt>
      <trkpt lat="41.546295" lon="1.845857">
        <ele>284.9</ele>
        <time>2014-10-12T09:23:18Z</time>
      </trkpt>
      <trkpt lat="41.546361" lon="1.846102">
        <ele>285.2</ele>
        <time>2014-10-12T09:23:27Z</time>
      </trkpt>
      <trkpt lat="41.546452" lon="1.846216">
        <ele>286.0</ele>
        <time>2014-10-12T09:23:35Z</time>
      </trkpt>
      <trkpt lat="41.546697" lon="1.846188">
        <ele>287.7</ele>
        <time>2014-10-12T09:23:48Z</time>
      </trkpt>
      <trkpt lat="41.546837" lon="1.846114">
        <ele>288.5</ele>
        <time>2014-10-12T09:23:56Z</time>
      </trkpt>
      <trkpt lat="41.547005" lon="1.846010">
        <ele>289.4</ele>
        <time>2014-10-12T09:24:05Z</time>
      </trkpt>
      <trkpt lat="41.547126" lon="1.845905">
        <ele>290.9</ele>
        <time>2014-10-12T09:24:15Z</time>
      </trkpt>
      <trkpt lat="41.547260" lon="1.845802">
        <ele>293.3</ele>
        <time>2014-10-12T09:24:25Z</time>
      </trkpt>
      <trkpt lat="41.547420" lon="1.845609">
        <ele>296.4</ele>
        <time>2014-10-12T09:24:38Z</time>
      </trkpt>
      <trkpt lat="41.547613" lon="1.845432">
        <ele>299.8</ele>
        <time>2014-10-12T09:24:52Z</time>
      </trkpt>
      <trkpt lat="41.547799" lon="1.845266">
        <ele>302.7</ele>
        <time>2014-10-12T09:25:05Z</time>
      </trkpt>
      <trkpt lat="41.547939" lon="1.845184">
        <ele>304.2</ele>
        <time>2014-10-12T09:25:14Z</time>
      </trkpt>
      <trkpt lat="41.548285" lon="1.845286">
        <ele>307.9</ele>
        <time>2014-10-12T09:25:28Z</time>
      </trkpt>
      <trkpt lat="41.548206" lon="1.845573">
        <ele>310.0</ele>
        <time>2014-10-12T09:25:36Z</time>
      </trkpt>
      <trkpt lat="41.547946" lon="1.845934">
        <ele>311.7</ele>
        <time>2014-10-12T09:25:42Z</time>
      </trkpt>
      <trkpt lat="41.547702" lon="1.846406">
        <ele>311.8</ele>
        <time>2014-10-12T09:25:47Z</time>
      </trkpt>
      <trkpt lat="41.547458" lon="1.846713">
        <ele>309.2</ele>
        <time>2014-10-12T09:25:53Z</time>
      </trkpt>
      <trkpt lat="41.547132" lon="1.847037">
        <ele>303.4</ele>
        <time>2014-10-12T09:25:59Z</time>
      </trkpt>
      <trkpt lat="41.546679" lon="1.847398">
        <ele>301.4</ele>
        <time>2014-10-12T09:26:05Z</time>
      </trkpt>
      <trkpt lat="41.546308" lon="1.847692">
        <ele>297.8</ele>
        <time>2014-10-12T09:26:11Z</time>
      </trkpt>
      <trkpt lat="41.546199" lon="1.848200">
        <ele>297.4</ele>
        <time>2014-10-12T09:26:17Z</time>
      </trkpt>
      <trkpt lat="41.546094" lon="1.848668">
        <ele>293.9</ele>
        <time>2014-10-12T09:26:24Z</time>
      </trkpt>
      <trkpt lat="41.545855" lon="1.848845">
        <ele>290.4</ele>
        <time>2014-10-12T09:26:33Z</time>
      </trkpt>
      <trkpt lat="41.545636" lon="1.849179">
        <ele>287.0</ele>
        <time>2014-10-12T09:26:38Z</time>
      </trkpt>
      <trkpt lat="41.545794" lon="1.849333">
        <ele>285.4</ele>
        <time>2014-10-12T09:26:43Z</time>
      </trkpt>
      <trkpt lat="41.546054" lon="1.849446">
        <ele>282.2</ele>
        <time>2014-10-12T09:26:51Z</time>
      </trkpt>
      <trkpt lat="41.546213" lon="1.849433">
        <ele>281.8</ele>
        <time>2014-10-12T09:26:56Z</time>
      </trkpt>
      <trkpt lat="41.546433" lon="1.849763">
        <ele>271.0</ele>
        <time>2014-10-12T09:27:08Z</time>
      </trkpt>
      <trkpt lat="41.546304" lon="1.849932">
        <ele>269.1</ele>
        <time>2014-10-12T09:27:14Z</time>
      </trkpt>
      <trkpt lat="41.546219" lon="1.850070">
        <ele>269.0</ele>
        <time>2014-10-12T09:27:20Z</time>
      </trkpt>
      <trkpt lat="41.545992" lon="1.850311">
        <ele>270.0</ele>
        <time>2014-10-12T09:27:28Z</time>
      </trkpt>
      <trkpt lat="41.545896" lon="1.850466">
        <ele>270.3</ele>
        <time>2014-10-12T09:27:33Z</time>
      </trkpt>
      <trkpt lat="41.545935" lon="1.850884">
        <ele>271.0</ele>
        <time>2014-10-12T09:27:40Z</time>
      </trkpt>
      <trkpt lat="41.546053" lon="1.851308">
        <ele>268.6</ele>
        <time>2014-10-12T09:27:46Z</time>
      </trkpt>
      <trkpt lat="41.545830" lon="1.851562">
        <ele>267.2</ele>
        <time>2014-10-12T09:27:56Z</time>
      </trkpt>
      <trkpt lat="41.545726" lon="1.851605">
        <ele>267.2</ele>
        <time>2014-10-12T09:28:04Z</time>
      </trkpt>
      <trkpt lat="41.545838" lon="1.851794">
        <ele>268.4</ele>
        <time>2014-10-12T09:28:18Z</time>
      </trkpt>
      <trkpt lat="41.545719" lon="1.852351">
        <ele>269.8</ele>
        <time>2014-10-12T09:28:29Z</time>
      </trkpt>
      <trkpt lat="41.545574" lon="1.852566">
        <ele>270.5</ele>
        <time>2014-10-12T09:28:35Z</time>
      </trkpt>
      <trkpt lat="41.545463" lon="1.852660">
        <ele>270.7</ele>
        <time>2014-10-12T09:28:40Z</time>
      </trkpt>
      <trkpt lat="41.545370" lon="1.852821">
        <ele>270.5</ele>
        <time>2014-10-12T09:28:48Z</time>
      </trkpt>
      <trkpt lat="41.545198" lon="1.853027">
        <ele>270.1</ele>
        <time>2014-10-12T09:28:58Z</time>
      </trkpt>
      <trkpt lat="41.545057" lon="1.853213">
        <ele>270.1</ele>
        <time>2014-10-12T09:29:04Z</time>
      </trkpt>
      <trkpt lat="41.544908" lon="1.853410">
        <ele>270.4</ele>
        <time>2014-10-12T09:29:11Z</time>
      </trkpt>
      <trkpt lat="41.544772" lon="1.853671">
        <ele>270.2</ele>
        <time>2014-10-12T09:29:16Z</time>
      </trkpt>
      <trkpt lat="41.544622" lon="1.853928">
        <ele>268.4</ele>
        <time>2014-10-12T09:29:23Z</time>
      </trkpt>
      <trkpt lat="41.544388" lon="1.854167">
        <ele>267.9</ele>
        <time>2014-10-12T09:29:28Z</time>
      </trkpt>
      <trkpt lat="41.544118" lon="1.854138">
        <ele>268.7</ele>
        <time>2014-10-12T09:29:36Z</time>
      </trkpt>
      <trkpt lat="41.544182" lon="1.854365">
        <ele>268.9</ele>
        <time>2014-10-12T09:29:43Z</time>
      </trkpt>
      <trkpt lat="41.544355" lon="1.854708">
        <ele>270.2</ele>
        <time>2014-10-12T09:29:50Z</time>
      </trkpt>
      <trkpt lat="41.544452" lon="1.855127">
        <ele>268.4</ele>
        <time>2014-10-12T09:29:56Z</time>
      </trkpt>
      <trkpt lat="41.544402" lon="1.855754">
        <ele>264.2</ele>
        <time>2014-10-12T09:30:02Z</time>
      </trkpt>
      <trkpt lat="41.544431" lon="1.856413">
        <ele>262.4</ele>
        <time>2014-10-12T09:30:08Z</time>
      </trkpt>
      <trkpt lat="41.544420" lon="1.856876">
        <ele>262.2</ele>
        <time>2014-10-12T09:30:13Z</time>
      </trkpt>
      <trkpt lat="41.544160" lon="1.857369">
        <ele>261.3</ele>
        <time>2014-10-12T09:30:18Z</time>
      </trkpt>
      <trkpt lat="41.544009" lon="1.857605">
        <ele>260.9</ele>
        <time>2014-10-12T09:30:22Z</time>
      </trkpt>
      <trkpt lat="41.543604" lon="1.858022">
        <ele>259.5</ele>
        <time>2014-10-12T09:30:29Z</time>
      </trkpt>
      <trkpt lat="41.543368" lon="1.858402">
        <ele>256.6</ele>
        <time>2014-10-12T09:30:34Z</time>
      </trkpt>
      <trkpt lat="41.543128" lon="1.859074">
        <ele>255.2</ele>
        <time>2014-10-12T09:30:41Z</time>
      </trkpt>
      <trkpt lat="41.542874" lon="1.859587">
        <ele>254.6</ele>
        <time>2014-10-12T09:30:46Z</time>
      </trkpt>
      <trkpt lat="41.542740" lon="1.859838">
        <ele>253.3</ele>
        <time>2014-10-12T09:30:50Z</time>
      </trkpt>
      <trkpt lat="41.542638" lon="1.860323">
        <ele>253.4</ele>
        <time>2014-10-12T09:30:55Z</time>
      </trkpt>
      <trkpt lat="41.542850" lon="1.860754">
        <ele>251.1</ele>
        <time>2014-10-12T09:31:01Z</time>
      </trkpt>
      <trkpt lat="41.542804" lon="1.861049">
        <ele>249.9</ele>
        <time>2014-10-12T09:31:06Z</time>
      </trkpt>
      <trkpt lat="41.542489" lon="1.861266">
        <ele>249.4</ele>
        <time>2014-10-12T09:31:12Z</time>
      </trkpt>
      <trkpt lat="41.542132" lon="1.861571">
        <ele>247.4</ele>
        <time>2014-10-12T09:31:18Z</time>
      </trkpt>
      <trkpt lat="41.541766" lon="1.861928">
        <ele>243.9</ele>
        <time>2014-10-12T09:31:24Z</time>
      </trkpt>
      <trkpt lat="41.541371" lon="1.862209">
        <ele>241.3</ele>
        <time>2014-10-12T09:31:30Z</time>
      </trkpt>
      <trkpt lat="41.540969" lon="1.862505">
        <ele>240.0</ele>
        <time>2014-10-12T09:31:36Z</time>
      </trkpt>
      <trkpt lat="41.540595" lon="1.862771">
        <ele>242.0</ele>
        <time>2014-10-12T09:31:42Z</time>
      </trkpt>
      <trkpt lat="41.540499" lon="1.863123">
        <ele>239.5</ele>
        <time>2014-10-12T09:31:50Z</time>
      </trkpt>
      <trkpt lat="41.540474" lon="1.863411">
        <ele>238.1</ele>
        <time>2014-10-12T09:31:56Z</time>
      </trkpt>
      <trkpt lat="41.539908" lon="1.863735">
        <ele>235.6</ele>
        <time>2014-10-12T09:32:05Z</time>
      </trkpt>
      <trkpt lat="41.539452" lon="1.864002">
        <ele>235.7</ele>
        <time>2014-10-12T09:32:11Z</time>
      </trkpt>
      <trkpt lat="41.539135" lon="1.864341">
        <ele>234.1</ele>
        <time>2014-10-12T09:32:16Z</time>
      </trkpt>
      <trkpt lat="41.539282" lon="1.864778">
        <ele>232.0</ele>
        <time>2014-10-12T09:32:23Z</time>
      </trkpt>
      <trkpt lat="41.539476" lon="1.865194">
        <ele>231.4</ele>
        <time>2014-10-12T09:32:28Z</time>
      </trkpt>
      <trkpt lat="41.539652" lon="1.865621">
        <ele>233.3</ele>
        <time>2014-10-12T09:32:35Z</time>
      </trkpt>
      <trkpt lat="41.539835" lon="1.866060">
        <ele>236.4</ele>
        <time>2014-10-12T09:32:40Z</time>
      </trkpt>
      <trkpt lat="41.540021" lon="1.866488">
        <ele>237.2</ele>
        <time>2014-10-12T09:32:47Z</time>
      </trkpt>
      <trkpt lat="41.540212" lon="1.866906">
        <ele>240.7</ele>
        <time>2014-10-12T09:32:52Z</time>
      </trkpt>
      <trkpt lat="41.540370" lon="1.867245">
        <ele>241.9</ele>
        <time>2014-10-12T09:32:58Z</time>
      </trkpt>
      <trkpt lat="41.540548" lon="1.867667">
        <ele>240.2</ele>
        <time>2014-10-12T09:33:04Z</time>
      </trkpt>
      <trkpt lat="41.540638" lon="1.867901">
        <ele>238.8</ele>
        <time>2014-10-12T09:33:08Z</time>
      </trkpt>
      <trkpt lat="41.540792" lon="1.868365">
        <ele>241.5</ele>
        <time>2014-10-12T09:33:15Z</time>
      </trkpt>
      <trkpt lat="41.541024" lon="1.868314">
        <ele>242.1</ele>
        <time>2014-10-12T09:33:20Z</time>
      </trkpt>
      <trkpt lat="41.541258" lon="1.868642">
        <ele>242.5</ele>
        <time>2014-10-12T09:33:26Z</time>
      </trkpt>
      <trkpt lat="41.541448" lon="1.869077">
        <ele>244.9</ele>
        <time>2014-10-12T09:33:32Z</time>
      </trkpt>
      <trkpt lat="41.541390" lon="1.869605">
        <ele>243.4</ele>
        <time>2014-10-12T09:33:38Z</time>
      </trkpt>
      <trkpt lat="41.541025" lon="1.870055">
        <ele>237.2</ele>
        <time>2014-10-12T09:33:43Z</time>
      </trkpt>
      <trkpt lat="41.540617" lon="1.870665">
        <ele>228.9</ele>
        <time>2014-10-12T09:33:49Z</time>
      </trkpt>
      <trkpt lat="41.540238" lon="1.871158">
        <ele>223.0</ele>
        <time>2014-10-12T09:33:54Z</time>
      </trkpt>
      <trkpt lat="41.539825" lon="1.871681">
        <ele>221.3</ele>
        <time>2014-10-12T09:34:00Z</time>
      </trkpt>
      <trkpt lat="41.539430" lon="1.872222">
        <ele>220.3</ele>
        <time>2014-10-12T09:34:07Z</time>
      </trkpt>
      <trkpt lat="41.539292" lon="1.872088">
        <ele>221.2</ele>
        <time>2014-10-12T09:34:12Z</time>
      </trkpt>
      <trkpt lat="41.539234" lon="1.871852">
        <ele>222.2</ele>
        <time>2014-10-12T09:34:16Z</time>
      </trkpt>
      <trkpt lat="41.539162" lon="1.871581">
        <ele>223.2</ele>
        <time>2014-10-12T09:34:21Z</time>
      </trkpt>
      <trkpt lat="41.539038" lon="1.871293">
        <ele>227.3</ele>
        <time>2014-10-12T09:34:27Z</time>
      </trkpt>
      <trkpt lat="41.538904" lon="1.870980">
        <ele>230.0</ele>
        <time>2014-10-12T09:34:34Z</time>
      </trkpt>
      <trkpt lat="41.538745" lon="1.870713">
        <ele>230.4</ele>
        <time>2014-10-12T09:34:42Z</time>
      </trkpt>
      <trkpt lat="41.538578" lon="1.870893">
        <ele>230.1</ele>
        <time>2014-10-12T09:34:48Z</time>
      </trkpt>
      <trkpt lat="41.538368" lon="1.871072">
        <ele>231.4</ele>
        <time>2014-10-12T09:34:54Z</time>
      </trkpt>
      <trkpt lat="41.538140" lon="1.871252">
        <ele>230.7</ele>
        <time>2014-10-12T09:35:00Z</time>
      </trkpt>
      <trkpt lat="41.537886" lon="1.871447">
        <ele>231.0</ele>
        <time>2014-10-12T09:35:05Z</time>
      </trkpt>
      <trkpt lat="41.537667" lon="1.871639">
        <ele>233.7</ele>
        <time>2014-10-12T09:35:12Z</time>
      </trkpt>
      <trkpt lat="41.537483" lon="1.871951">
        <ele>236.0</ele>
        <time>2014-10-12T09:35:18Z</time>
      </trkpt>
      <trkpt lat="41.537373" lon="1.872288">
        <ele>241.8</ele>
        <time>2014-10-12T09:35:24Z</time>
      </trkpt>
      <trkpt lat="41.537321" lon="1.872613">
        <ele>242.3</ele>
        <time>2014-10-12T09:35:30Z</time>
      </trkpt>
      <trkpt lat="41.537108" lon="1.872718">
        <ele>244.7</ele>
        <time>2014-10-12T09:35:35Z</time>
      </trkpt>
      <trkpt lat="41.536742" lon="1.872815">
        <ele>246.6</ele>
        <time>2014-10-12T09:35:40Z</time>
      </trkpt>
      <trkpt lat="41.536701" lon="1.872833">
        <ele>246.6</ele>
        <time>2014-10-12T09:35:41Z</time>
      </trkpt>
      <trkpt lat="41.536701" lon="1.872833">
        <ele>246.4</ele>
        <time>2014-10-12T09:35:48Z</time>
      </trkpt>
      <trkpt lat="41.536471" lon="1.872951">
        <ele>242.8</ele>
        <time>2014-10-12T09:37:12Z</time>
      </trkpt>
      <trkpt lat="41.536322" lon="1.873200">
        <ele>240.6</ele>
        <time>2014-10-12T09:37:19Z</time>
      </trkpt>
      <trkpt lat="41.536230" lon="1.873409">
        <ele>238.6</ele>
        <time>2014-10-12T09:37:24Z</time>
      </trkpt>
      <trkpt lat="41.536230" lon="1.873409">
        <ele>237.9</ele>
        <time>2014-10-12T09:37:31Z</time>
      </trkpt>
      <trkpt lat="41.536319" lon="1.873236">
        <ele>240.9</ele>
        <time>2014-10-12T09:40:31Z</time>
      </trkpt>
      <trkpt lat="41.536460" lon="1.872973">
        <ele>241.8</ele>
        <time>2014-10-12T09:40:52Z</time>
      </trkpt>
      <trkpt lat="41.536460" lon="1.872973">
        <ele>241.8</ele>
        <time>2014-10-12T09:41:00Z</time>
      </trkpt>
      <trkpt lat="41.536460" lon="1.872973">
        <ele>241.8</ele>
        <time>2014-10-12T09:41:01Z</time>
      </trkpt>
      <trkpt lat="41.536582" lon="1.872787">
        <ele>241.5</ele>
        <time>2014-10-12T09:41:18Z</time>
      </trkpt>
      <trkpt lat="41.536653" lon="1.872682">
        <ele>241.4</ele>
        <time>2014-10-12T09:41:25Z</time>
      </trkpt>
      <trkpt lat="41.536696" lon="1.872617">
        <ele>241.2</ele>
        <time>2014-10-12T09:41:30Z</time>
      </trkpt>
      <trkpt lat="41.536705" lon="1.872580">
        <ele>241.1</ele>
        <time>2014-10-12T09:41:38Z</time>
      </trkpt>
      <trkpt lat="41.536705" lon="1.872580">
        <ele>0.0</ele>
        <time>2014-10-12T09:44:20Z</time>
      </trkpt>
      <trkpt lat="41.536705" lon="1.872580">
        <ele>0.0</ele>
        <time>2014-10-12T09:44:22Z</time>
      </trkpt>
    </trkseg>
  </trk></gpx>